<?xml version="1.0" encoding="ISO-8859-1" standalone="yes"?>
<gpx
  xmlns="http://www.topografix.com/GPX/1/1"
  version="1.1" creator="TopoFusion 5.54"
  xmlns:TopoFusion="http://www.TopoFusion.com"
  xmlns:gpxx="http://www.garmin.com/xmlschemas/GpxExtensions/v3"
  xmlns:gpxtpx="http://www.garmin.com/xmlschemas/TrackPointExtension/v1"
  xmlns:xsi="http://www.w3.org/2001/XMLSchema-instance"
  xsi:schemaLocation="http://www.topografix.com/GPX/1/1 http://www.topografix.com/GPX/1/1/gpx.xsd http://www.topografix.com/GPX/gpx_style/0/2 http://www.topografix.com/GPX/gpx_style/0/2/gpx_style.xsd http://www.TopoFusion.com http://www.TopoFusion.com/topofusion.xsd">
<metadata>
 <link href="http://topofusion.com">
 <text>TopoFusion Home Page</text>
 </link>
 <bounds maxlat="0.000000" minlon="0.000000" minlat="0.000000" maxlon="0.000000"/>
</metadata>
<trk>
 <name>Current Track: 15 AUG 2020 10:01</name>
<extensions>
<gpxx:TrackExtension><gpxx:DisplayColor>Cyan</gpxx:DisplayColor></gpxx:TrackExtension>
<line xmlns="http://www.topografix.com/GPX/gpx_style/0/2">
<color>00ffff</color>
<opacity>0.78</opacity>
<width>0.6000</width>
<pattern>Solid</pattern>
</line>
</extensions>
  <trkseg>
    <trkpt lat="41.258486" lon="-122.142451">
      <ele>1013.969971</ele>
      <time>2020-08-15T17:01:55Z</time>
    </trkpt>
    <trkpt lat="41.258507" lon="-122.142442">
      <ele>1008.460022</ele>
      <time>2020-08-15T17:01:57Z</time>
    </trkpt>
    <trkpt lat="41.258521" lon="-122.142498">
      <ele>1011.169983</ele>
      <time>2020-08-15T17:02:01Z</time>
    </trkpt>
    <trkpt lat="41.258576" lon="-122.142565">
      <ele>1014.210022</ele>
      <time>2020-08-15T17:02:28Z</time>
    </trkpt>
    <trkpt lat="41.258500" lon="-122.142477">
      <ele>1014.520020</ele>
      <time>2020-08-15T17:02:58Z</time>
    </trkpt>
    <trkpt lat="41.258589" lon="-122.142453">
      <ele>1014.630005</ele>
      <time>2020-08-15T17:03:30Z</time>
    </trkpt>
    <trkpt lat="41.258508" lon="-122.142417">
      <ele>1014.890015</ele>
      <time>2020-08-15T17:04:01Z</time>
    </trkpt>
    <trkpt lat="41.258481" lon="-122.142489">
      <ele>1015.130005</ele>
      <time>2020-08-15T17:04:34Z</time>
    </trkpt>
    <trkpt lat="41.258463" lon="-122.142522">
      <ele>1015.309998</ele>
      <time>2020-08-15T17:04:59Z</time>
    </trkpt>
    <trkpt lat="41.258394" lon="-122.142402">
      <ele>1015.640015</ele>
      <time>2020-08-15T17:05:39Z</time>
    </trkpt>
    <trkpt lat="41.258586" lon="-122.142407">
      <ele>1015.650024</ele>
      <time>2020-08-15T17:06:15Z</time>
    </trkpt>
    <trkpt lat="41.258481" lon="-122.142453">
      <ele>1015.609985</ele>
      <time>2020-08-15T17:06:53Z</time>
    </trkpt>
    <trkpt lat="41.258499" lon="-122.142406">
      <ele>1015.940002</ele>
      <time>2020-08-15T17:07:21Z</time>
    </trkpt>
    <trkpt lat="41.258477" lon="-122.142349">
      <ele>1015.929993</ele>
      <time>2020-08-15T17:07:49Z</time>
    </trkpt>
    <trkpt lat="41.258439" lon="-122.142243">
      <ele>1016.049988</ele>
      <time>2020-08-15T17:08:38Z</time>
    </trkpt>
    <trkpt lat="41.258485" lon="-122.142267">
      <ele>1015.989990</ele>
      <time>2020-08-15T17:08:44Z</time>
    </trkpt>
    <trkpt lat="41.258549" lon="-122.142317">
      <ele>1015.960022</ele>
      <time>2020-08-15T17:08:58Z</time>
    </trkpt>
    <trkpt lat="41.258604" lon="-122.142290">
      <ele>1016.340027</ele>
      <time>2020-08-15T17:09:33Z</time>
    </trkpt>
  </trkseg>
  <trkseg>
    <trkpt lat="41.258604" lon="-122.142368">
      <ele>1023.719971</ele>
      <time>2020-08-15T17:10:09Z</time>
    </trkpt>
    <trkpt lat="41.258631" lon="-122.142435">
      <ele>1023.349976</ele>
      <time>2020-08-15T17:10:14Z</time>
    </trkpt>
    <trkpt lat="41.258642" lon="-122.142521">
      <ele>1021.719971</ele>
      <time>2020-08-15T17:10:24Z</time>
    </trkpt>
    <trkpt lat="41.258587" lon="-122.142570">
      <ele>1021.409973</ele>
      <time>2020-08-15T17:10:57Z</time>
    </trkpt>
    <trkpt lat="41.258628" lon="-122.142647">
      <ele>1021.419983</ele>
      <time>2020-08-15T17:11:06Z</time>
    </trkpt>
    <trkpt lat="41.258610" lon="-122.142662">
      <ele>1021.440002</ele>
      <time>2020-08-15T17:11:14Z</time>
    </trkpt>
    <trkpt lat="41.258477" lon="-122.142651">
      <ele>1021.479980</ele>
      <time>2020-08-15T17:11:18Z</time>
    </trkpt>
    <trkpt lat="41.258024" lon="-122.142621">
      <ele>1020.580017</ele>
      <time>2020-08-15T17:11:28Z</time>
    </trkpt>
    <trkpt lat="41.257712" lon="-122.142264">
      <ele>1019.219971</ele>
      <time>2020-08-15T17:11:38Z</time>
    </trkpt>
    <trkpt lat="41.257667" lon="-122.141822">
      <ele>1016.909973</ele>
      <time>2020-08-15T17:11:48Z</time>
    </trkpt>
    <trkpt lat="41.257577" lon="-122.141754">
      <ele>1016.380005</ele>
      <time>2020-08-15T17:11:51Z</time>
    </trkpt>
    <trkpt lat="41.257441" lon="-122.141751">
      <ele>1015.789978</ele>
      <time>2020-08-15T17:11:54Z</time>
    </trkpt>
    <trkpt lat="41.257342" lon="-122.141768">
      <ele>1015.299988</ele>
      <time>2020-08-15T17:11:56Z</time>
    </trkpt>
    <trkpt lat="41.257235" lon="-122.141925">
      <ele>1013.919983</ele>
      <time>2020-08-15T17:12:01Z</time>
    </trkpt>
    <trkpt lat="41.257224" lon="-122.142053">
      <ele>1013.630005</ele>
      <time>2020-08-15T17:12:03Z</time>
    </trkpt>
    <trkpt lat="41.257220" lon="-122.142283">
      <ele>1013.539978</ele>
      <time>2020-08-15T17:12:06Z</time>
    </trkpt>
    <trkpt lat="41.257201" lon="-122.142466">
      <ele>1013.770020</ele>
      <time>2020-08-15T17:12:08Z</time>
    </trkpt>
    <trkpt lat="41.256997" lon="-122.142970">
      <ele>1013.820007</ele>
      <time>2020-08-15T17:12:17Z</time>
    </trkpt>
    <trkpt lat="41.257268" lon="-122.143345">
      <ele>1013.919983</ele>
      <time>2020-08-15T17:12:25Z</time>
    </trkpt>
    <trkpt lat="41.257727" lon="-122.143577">
      <ele>1014.609985</ele>
      <time>2020-08-15T17:12:30Z</time>
    </trkpt>
    <trkpt lat="41.258230" lon="-122.143948">
      <ele>1017.280029</ele>
      <time>2020-08-15T17:12:37Z</time>
    </trkpt>
    <trkpt lat="41.258453" lon="-122.144059">
      <ele>1018.710022</ele>
      <time>2020-08-15T17:12:40Z</time>
    </trkpt>
    <trkpt lat="41.258988" lon="-122.144375">
      <ele>1022.549988</ele>
      <time>2020-08-15T17:12:47Z</time>
    </trkpt>
    <trkpt lat="41.259401" lon="-122.144564">
      <ele>1025.219971</ele>
      <time>2020-08-15T17:12:52Z</time>
    </trkpt>
    <trkpt lat="41.259926" lon="-122.144949">
      <ele>1028.829956</ele>
      <time>2020-08-15T17:12:59Z</time>
    </trkpt>
    <trkpt lat="41.260066" lon="-122.145065">
      <ele>1030.599976</ele>
      <time>2020-08-15T17:13:01Z</time>
    </trkpt>
    <trkpt lat="41.260475" lon="-122.145737">
      <ele>1034.510010</ele>
      <time>2020-08-15T17:13:08Z</time>
    </trkpt>
    <trkpt lat="41.260602" lon="-122.146160">
      <ele>1036.229980</ele>
      <time>2020-08-15T17:13:11Z</time>
    </trkpt>
    <trkpt lat="41.260816" lon="-122.147282">
      <ele>1040.150024</ele>
      <time>2020-08-15T17:13:18Z</time>
    </trkpt>
    <trkpt lat="41.260917" lon="-122.147920">
      <ele>1042.390015</ele>
      <time>2020-08-15T17:13:22Z</time>
    </trkpt>
    <trkpt lat="41.261046" lon="-122.148553">
      <ele>1045.030029</ele>
      <time>2020-08-15T17:13:26Z</time>
    </trkpt>
    <trkpt lat="41.261139" lon="-122.149016">
      <ele>1048.310059</ele>
      <time>2020-08-15T17:13:29Z</time>
    </trkpt>
    <trkpt lat="41.261383" lon="-122.149738">
      <ele>1051.780029</ele>
      <time>2020-08-15T17:13:34Z</time>
    </trkpt>
    <trkpt lat="41.261631" lon="-122.150271">
      <ele>1055.170044</ele>
      <time>2020-08-15T17:13:38Z</time>
    </trkpt>
    <trkpt lat="41.261883" lon="-122.150798">
      <ele>1058.609985</ele>
      <time>2020-08-15T17:13:42Z</time>
    </trkpt>
    <trkpt lat="41.261938" lon="-122.150925">
      <ele>1059.380005</ele>
      <time>2020-08-15T17:13:43Z</time>
    </trkpt>
    <trkpt lat="41.261987" lon="-122.151630">
      <ele>1063.680054</ele>
      <time>2020-08-15T17:13:49Z</time>
    </trkpt>
    <trkpt lat="41.261787" lon="-122.151957">
      <ele>1065.949951</ele>
      <time>2020-08-15T17:13:54Z</time>
    </trkpt>
    <trkpt lat="41.261657" lon="-122.152019">
      <ele>1067.369995</ele>
      <time>2020-08-15T17:14:03Z</time>
    </trkpt>
    <trkpt lat="41.261615" lon="-122.152015">
      <ele>1067.760010</ele>
      <time>2020-08-15T17:14:13Z</time>
    </trkpt>
    <trkpt lat="41.261399" lon="-122.152204">
      <ele>1067.500000</ele>
      <time>2020-08-15T17:14:20Z</time>
    </trkpt>
    <trkpt lat="41.261421" lon="-122.152431">
      <ele>1067.430054</ele>
      <time>2020-08-15T17:14:22Z</time>
    </trkpt>
    <trkpt lat="41.261688" lon="-122.154027">
      <ele>1067.979980</ele>
      <time>2020-08-15T17:14:30Z</time>
    </trkpt>
    <trkpt lat="41.261924" lon="-122.155529">
      <ele>1071.579956</ele>
      <time>2020-08-15T17:14:36Z</time>
    </trkpt>
    <trkpt lat="41.262062" lon="-122.156315">
      <ele>1075.130005</ele>
      <time>2020-08-15T17:14:39Z</time>
    </trkpt>
    <trkpt lat="41.262201" lon="-122.157112">
      <ele>1078.569946</ele>
      <time>2020-08-15T17:14:42Z</time>
    </trkpt>
    <trkpt lat="41.262348" lon="-122.157912">
      <ele>1082.300049</ele>
      <time>2020-08-15T17:14:45Z</time>
    </trkpt>
    <trkpt lat="41.262493" lon="-122.158703">
      <ele>1085.430054</ele>
      <time>2020-08-15T17:14:48Z</time>
    </trkpt>
    <trkpt lat="41.262633" lon="-122.159517">
      <ele>1088.589966</ele>
      <time>2020-08-15T17:14:51Z</time>
    </trkpt>
    <trkpt lat="41.262779" lon="-122.160330">
      <ele>1092.209961</ele>
      <time>2020-08-15T17:14:54Z</time>
    </trkpt>
    <trkpt lat="41.262928" lon="-122.161115">
      <ele>1095.719971</ele>
      <time>2020-08-15T17:14:57Z</time>
    </trkpt>
    <trkpt lat="41.263078" lon="-122.161860">
      <ele>1099.069946</ele>
      <time>2020-08-15T17:15:00Z</time>
    </trkpt>
    <trkpt lat="41.263185" lon="-122.162568">
      <ele>1102.430054</ele>
      <time>2020-08-15T17:15:03Z</time>
    </trkpt>
    <trkpt lat="41.263306" lon="-122.163269">
      <ele>1106.310059</ele>
      <time>2020-08-15T17:15:06Z</time>
    </trkpt>
    <trkpt lat="41.263392" lon="-122.163748">
      <ele>1108.469971</ele>
      <time>2020-08-15T17:15:08Z</time>
    </trkpt>
    <trkpt lat="41.263474" lon="-122.164236">
      <ele>1111.670044</ele>
      <time>2020-08-15T17:15:10Z</time>
    </trkpt>
    <trkpt lat="41.263654" lon="-122.165245">
      <ele>1115.170044</ele>
      <time>2020-08-15T17:15:14Z</time>
    </trkpt>
    <trkpt lat="41.263870" lon="-122.166517">
      <ele>1118.930054</ele>
      <time>2020-08-15T17:15:19Z</time>
    </trkpt>
    <trkpt lat="41.264045" lon="-122.167531">
      <ele>1122.160034</ele>
      <time>2020-08-15T17:15:23Z</time>
    </trkpt>
    <trkpt lat="41.264223" lon="-122.168527">
      <ele>1125.459961</ele>
      <time>2020-08-15T17:15:27Z</time>
    </trkpt>
    <trkpt lat="41.264432" lon="-122.169498">
      <ele>1128.579956</ele>
      <time>2020-08-15T17:15:31Z</time>
    </trkpt>
    <trkpt lat="41.264803" lon="-122.170651">
      <ele>1131.699951</ele>
      <time>2020-08-15T17:15:36Z</time>
    </trkpt>
    <trkpt lat="41.265243" lon="-122.171784">
      <ele>1135.250000</ele>
      <time>2020-08-15T17:15:41Z</time>
    </trkpt>
    <trkpt lat="41.265704" lon="-122.172911">
      <ele>1139.069946</ele>
      <time>2020-08-15T17:15:46Z</time>
    </trkpt>
    <trkpt lat="41.266069" lon="-122.173807">
      <ele>1142.069946</ele>
      <time>2020-08-15T17:15:50Z</time>
    </trkpt>
    <trkpt lat="41.266526" lon="-122.174905">
      <ele>1145.439941</ele>
      <time>2020-08-15T17:15:55Z</time>
    </trkpt>
    <trkpt lat="41.266909" lon="-122.175768">
      <ele>1148.520020</ele>
      <time>2020-08-15T17:15:59Z</time>
    </trkpt>
    <trkpt lat="41.267204" lon="-122.176392">
      <ele>1151.890015</ele>
      <time>2020-08-15T17:16:02Z</time>
    </trkpt>
    <trkpt lat="41.267596" lon="-122.177224">
      <ele>1155.689941</ele>
      <time>2020-08-15T17:16:06Z</time>
    </trkpt>
    <trkpt lat="41.267916" lon="-122.177794">
      <ele>1158.890015</ele>
      <time>2020-08-15T17:16:09Z</time>
    </trkpt>
    <trkpt lat="41.268266" lon="-122.178327">
      <ele>1162.280029</ele>
      <time>2020-08-15T17:16:12Z</time>
    </trkpt>
    <trkpt lat="41.268631" lon="-122.178857">
      <ele>1165.969971</ele>
      <time>2020-08-15T17:16:15Z</time>
    </trkpt>
    <trkpt lat="41.268985" lon="-122.179412">
      <ele>1169.560059</ele>
      <time>2020-08-15T17:16:18Z</time>
    </trkpt>
    <trkpt lat="41.269412" lon="-122.180209">
      <ele>1173.349976</ele>
      <time>2020-08-15T17:16:22Z</time>
    </trkpt>
    <trkpt lat="41.269583" lon="-122.180640">
      <ele>1176.449951</ele>
      <time>2020-08-15T17:16:24Z</time>
    </trkpt>
    <trkpt lat="41.269821" lon="-122.181557">
      <ele>1180.040039</ele>
      <time>2020-08-15T17:16:28Z</time>
    </trkpt>
    <trkpt lat="41.269890" lon="-122.182307">
      <ele>1183.709961</ele>
      <time>2020-08-15T17:16:31Z</time>
    </trkpt>
    <trkpt lat="41.269857" lon="-122.183078">
      <ele>1187.430054</ele>
      <time>2020-08-15T17:16:34Z</time>
    </trkpt>
    <trkpt lat="41.269756" lon="-122.183827">
      <ele>1190.719971</ele>
      <time>2020-08-15T17:16:37Z</time>
    </trkpt>
    <trkpt lat="41.269628" lon="-122.184559">
      <ele>1194.239990</ele>
      <time>2020-08-15T17:16:40Z</time>
    </trkpt>
    <trkpt lat="41.269512" lon="-122.185286">
      <ele>1197.849976</ele>
      <time>2020-08-15T17:16:43Z</time>
    </trkpt>
    <trkpt lat="41.269414" lon="-122.186021">
      <ele>1201.339966</ele>
      <time>2020-08-15T17:16:46Z</time>
    </trkpt>
    <trkpt lat="41.269315" lon="-122.186751">
      <ele>1205.250000</ele>
      <time>2020-08-15T17:16:49Z</time>
    </trkpt>
    <trkpt lat="41.269255" lon="-122.187487">
      <ele>1208.329956</ele>
      <time>2020-08-15T17:16:52Z</time>
    </trkpt>
    <trkpt lat="41.269204" lon="-122.188230">
      <ele>1211.589966</ele>
      <time>2020-08-15T17:16:55Z</time>
    </trkpt>
    <trkpt lat="41.269169" lon="-122.188976">
      <ele>1214.819946</ele>
      <time>2020-08-15T17:16:58Z</time>
    </trkpt>
    <trkpt lat="41.269113" lon="-122.189950">
      <ele>1218.339966</ele>
      <time>2020-08-15T17:17:02Z</time>
    </trkpt>
    <trkpt lat="41.269084" lon="-122.190685">
      <ele>1222.140015</ele>
      <time>2020-08-15T17:17:05Z</time>
    </trkpt>
    <trkpt lat="41.269048" lon="-122.191448">
      <ele>1225.670044</ele>
      <time>2020-08-15T17:17:08Z</time>
    </trkpt>
    <trkpt lat="41.269002" lon="-122.192228">
      <ele>1228.829956</ele>
      <time>2020-08-15T17:17:11Z</time>
    </trkpt>
    <trkpt lat="41.268969" lon="-122.192752">
      <ele>1231.849976</ele>
      <time>2020-08-15T17:17:13Z</time>
    </trkpt>
    <trkpt lat="41.268955" lon="-122.193018">
      <ele>1231.849976</ele>
      <time>2020-08-15T17:17:14Z</time>
    </trkpt>
    <trkpt lat="41.268920" lon="-122.193550">
      <ele>1235.260010</ele>
      <time>2020-08-15T17:17:16Z</time>
    </trkpt>
    <trkpt lat="41.268870" lon="-122.194631">
      <ele>1238.680054</ele>
      <time>2020-08-15T17:17:20Z</time>
    </trkpt>
    <trkpt lat="41.268813" lon="-122.195711">
      <ele>1241.969971</ele>
      <time>2020-08-15T17:17:24Z</time>
    </trkpt>
    <trkpt lat="41.268849" lon="-122.196784">
      <ele>1245.630005</ele>
      <time>2020-08-15T17:17:28Z</time>
    </trkpt>
    <trkpt lat="41.269141" lon="-122.198044">
      <ele>1248.920044</ele>
      <time>2020-08-15T17:17:33Z</time>
    </trkpt>
    <trkpt lat="41.269569" lon="-122.198893">
      <ele>1253.300049</ele>
      <time>2020-08-15T17:17:37Z</time>
    </trkpt>
    <trkpt lat="41.269690" lon="-122.199083">
      <ele>1253.300049</ele>
      <time>2020-08-15T17:17:38Z</time>
    </trkpt>
    <trkpt lat="41.269929" lon="-122.199457">
      <ele>1256.579956</ele>
      <time>2020-08-15T17:17:40Z</time>
    </trkpt>
    <trkpt lat="41.270288" lon="-122.200003">
      <ele>1259.699951</ele>
      <time>2020-08-15T17:17:43Z</time>
    </trkpt>
    <trkpt lat="41.270651" lon="-122.200546">
      <ele>1262.709961</ele>
      <time>2020-08-15T17:17:46Z</time>
    </trkpt>
    <trkpt lat="41.271099" lon="-122.201317">
      <ele>1266.949951</ele>
      <time>2020-08-15T17:17:50Z</time>
    </trkpt>
    <trkpt lat="41.271195" lon="-122.201525">
      <ele>1268.199951</ele>
      <time>2020-08-15T17:17:51Z</time>
    </trkpt>
    <trkpt lat="41.271502" lon="-122.202651">
      <ele>1273.239990</ele>
      <time>2020-08-15T17:17:56Z</time>
    </trkpt>
    <trkpt lat="41.271592" lon="-122.203341">
      <ele>1276.709961</ele>
      <time>2020-08-15T17:17:59Z</time>
    </trkpt>
    <trkpt lat="41.271632" lon="-122.204056">
      <ele>1279.800049</ele>
      <time>2020-08-15T17:18:02Z</time>
    </trkpt>
    <trkpt lat="41.271660" lon="-122.204556">
      <ele>1283.040039</ele>
      <time>2020-08-15T17:18:04Z</time>
    </trkpt>
    <trkpt lat="41.271710" lon="-122.205300">
      <ele>1286.109985</ele>
      <time>2020-08-15T17:18:07Z</time>
    </trkpt>
    <trkpt lat="41.271749" lon="-122.206292">
      <ele>1289.739990</ele>
      <time>2020-08-15T17:18:11Z</time>
    </trkpt>
    <trkpt lat="41.271742" lon="-122.207019">
      <ele>1293.060059</ele>
      <time>2020-08-15T17:18:14Z</time>
    </trkpt>
    <trkpt lat="41.271655" lon="-122.207741">
      <ele>1297.010010</ele>
      <time>2020-08-15T17:18:17Z</time>
    </trkpt>
    <trkpt lat="41.271483" lon="-122.208454">
      <ele>1300.290039</ele>
      <time>2020-08-15T17:18:20Z</time>
    </trkpt>
    <trkpt lat="41.271226" lon="-122.209102">
      <ele>1303.540039</ele>
      <time>2020-08-15T17:18:23Z</time>
    </trkpt>
    <trkpt lat="41.270896" lon="-122.209687">
      <ele>1307.280029</ele>
      <time>2020-08-15T17:18:26Z</time>
    </trkpt>
    <trkpt lat="41.270506" lon="-122.210228">
      <ele>1311.920044</ele>
      <time>2020-08-15T17:18:29Z</time>
    </trkpt>
    <trkpt lat="41.270093" lon="-122.210755">
      <ele>1316.300049</ele>
      <time>2020-08-15T17:18:32Z</time>
    </trkpt>
    <trkpt lat="41.269711" lon="-122.211296">
      <ele>1319.979980</ele>
      <time>2020-08-15T17:18:35Z</time>
    </trkpt>
    <trkpt lat="41.269352" lon="-122.211848">
      <ele>1323.040039</ele>
      <time>2020-08-15T17:18:38Z</time>
    </trkpt>
    <trkpt lat="41.269024" lon="-122.212586">
      <ele>1326.599976</ele>
      <time>2020-08-15T17:18:42Z</time>
    </trkpt>
    <trkpt lat="41.268877" lon="-122.213122">
      <ele>1329.939941</ele>
      <time>2020-08-15T17:18:45Z</time>
    </trkpt>
    <trkpt lat="41.268768" lon="-122.213759">
      <ele>1333.349976</ele>
      <time>2020-08-15T17:18:49Z</time>
    </trkpt>
    <trkpt lat="41.268686" lon="-122.214400">
      <ele>1337.290039</ele>
      <time>2020-08-15T17:18:54Z</time>
    </trkpt>
    <trkpt lat="41.268681" lon="-122.214500">
      <ele>1337.760010</ele>
      <time>2020-08-15T17:18:55Z</time>
    </trkpt>
    <trkpt lat="41.269005" lon="-122.214925">
      <ele>1339.989990</ele>
      <time>2020-08-15T17:19:02Z</time>
    </trkpt>
    <trkpt lat="41.270269" lon="-122.215183">
      <ele>1343.400024</ele>
      <time>2020-08-15T17:19:13Z</time>
    </trkpt>
    <trkpt lat="41.270841" lon="-122.215308">
      <ele>1346.630005</ele>
      <time>2020-08-15T17:19:18Z</time>
    </trkpt>
    <trkpt lat="41.271440" lon="-122.215428">
      <ele>1349.819946</ele>
      <time>2020-08-15T17:19:23Z</time>
    </trkpt>
    <trkpt lat="41.272441" lon="-122.215467">
      <ele>1352.979980</ele>
      <time>2020-08-15T17:19:32Z</time>
    </trkpt>
    <trkpt lat="41.273165" lon="-122.215564">
      <ele>1356.380005</ele>
      <time>2020-08-15T17:19:39Z</time>
    </trkpt>
    <trkpt lat="41.273675" lon="-122.215733">
      <ele>1359.530029</ele>
      <time>2020-08-15T17:19:44Z</time>
    </trkpt>
    <trkpt lat="41.273971" lon="-122.215820">
      <ele>1361.270020</ele>
      <time>2020-08-15T17:19:47Z</time>
    </trkpt>
    <trkpt lat="41.274256" lon="-122.215831">
      <ele>1363.119995</ele>
      <time>2020-08-15T17:19:50Z</time>
    </trkpt>
    <trkpt lat="41.274780" lon="-122.215605">
      <ele>1367.310059</ele>
      <time>2020-08-15T17:19:56Z</time>
    </trkpt>
    <trkpt lat="41.274854" lon="-122.215539">
      <ele>1367.989990</ele>
      <time>2020-08-15T17:19:57Z</time>
    </trkpt>
    <trkpt lat="41.275228" lon="-122.215048">
      <ele>1371.989990</ele>
      <time>2020-08-15T17:20:03Z</time>
    </trkpt>
    <trkpt lat="41.275396" lon="-122.214614">
      <ele>1375.260010</ele>
      <time>2020-08-15T17:20:07Z</time>
    </trkpt>
    <trkpt lat="41.275431" lon="-122.214500">
      <ele>1375.260010</ele>
      <time>2020-08-15T17:20:08Z</time>
    </trkpt>
    <trkpt lat="41.275553" lon="-122.214030">
      <ele>1378.739990</ele>
      <time>2020-08-15T17:20:12Z</time>
    </trkpt>
    <trkpt lat="41.275687" lon="-122.213551">
      <ele>1381.560059</ele>
      <time>2020-08-15T17:20:16Z</time>
    </trkpt>
    <trkpt lat="41.275978" lon="-122.213033">
      <ele>1384.469971</ele>
      <time>2020-08-15T17:20:21Z</time>
    </trkpt>
    <trkpt lat="41.276633" lon="-122.212303">
      <ele>1388.189941</ele>
      <time>2020-08-15T17:20:29Z</time>
    </trkpt>
    <trkpt lat="41.277148" lon="-122.211773">
      <ele>1391.449951</ele>
      <time>2020-08-15T17:20:35Z</time>
    </trkpt>
    <trkpt lat="41.277710" lon="-122.211378">
      <ele>1395.030029</ele>
      <time>2020-08-15T17:20:41Z</time>
    </trkpt>
    <trkpt lat="41.278178" lon="-122.211134">
      <ele>1398.109985</ele>
      <time>2020-08-15T17:20:46Z</time>
    </trkpt>
    <trkpt lat="41.278810" lon="-122.210797">
      <ele>1401.270020</ele>
      <time>2020-08-15T17:20:53Z</time>
    </trkpt>
    <trkpt lat="41.279144" lon="-122.210580">
      <ele>1402.920044</ele>
      <time>2020-08-15T17:20:57Z</time>
    </trkpt>
    <trkpt lat="41.279402" lon="-122.210267">
      <ele>1404.780029</ele>
      <time>2020-08-15T17:21:01Z</time>
    </trkpt>
    <trkpt lat="41.279806" lon="-122.209571">
      <ele>1408.199951</ele>
      <time>2020-08-15T17:21:08Z</time>
    </trkpt>
    <trkpt lat="41.280179" lon="-122.208904">
      <ele>1411.359985</ele>
      <time>2020-08-15T17:21:14Z</time>
    </trkpt>
    <trkpt lat="41.280614" lon="-122.208127">
      <ele>1414.599976</ele>
      <time>2020-08-15T17:21:21Z</time>
    </trkpt>
    <trkpt lat="41.280875" lon="-122.207640">
      <ele>1417.640015</ele>
      <time>2020-08-15T17:21:26Z</time>
    </trkpt>
    <trkpt lat="41.281081" lon="-122.207293">
      <ele>1420.800049</ele>
      <time>2020-08-15T17:21:30Z</time>
    </trkpt>
    <trkpt lat="41.281303" lon="-122.206967">
      <ele>1424.030029</ele>
      <time>2020-08-15T17:21:34Z</time>
    </trkpt>
    <trkpt lat="41.281654" lon="-122.206642">
      <ele>1427.500000</ele>
      <time>2020-08-15T17:21:39Z</time>
    </trkpt>
    <trkpt lat="41.282062" lon="-122.206380">
      <ele>1431.160034</ele>
      <time>2020-08-15T17:21:44Z</time>
    </trkpt>
    <trkpt lat="41.282492" lon="-122.206136">
      <ele>1434.260010</ele>
      <time>2020-08-15T17:21:49Z</time>
    </trkpt>
    <trkpt lat="41.282913" lon="-122.205878">
      <ele>1437.810059</ele>
      <time>2020-08-15T17:21:54Z</time>
    </trkpt>
    <trkpt lat="41.283144" lon="-122.205725">
      <ele>1439.949951</ele>
      <time>2020-08-15T17:21:57Z</time>
    </trkpt>
    <trkpt lat="41.283664" lon="-122.205329">
      <ele>1443.640015</ele>
      <time>2020-08-15T17:22:04Z</time>
    </trkpt>
    <trkpt lat="41.283804" lon="-122.205182">
      <ele>1444.369995</ele>
      <time>2020-08-15T17:22:06Z</time>
    </trkpt>
    <trkpt lat="41.284034" lon="-122.204813">
      <ele>1446.229980</ele>
      <time>2020-08-15T17:22:10Z</time>
    </trkpt>
    <trkpt lat="41.284300" lon="-122.203971">
      <ele>1449.859985</ele>
      <time>2020-08-15T17:22:18Z</time>
    </trkpt>
    <trkpt lat="41.284351" lon="-122.203747">
      <ele>1450.780029</ele>
      <time>2020-08-15T17:22:20Z</time>
    </trkpt>
    <trkpt lat="41.284509" lon="-122.203331">
      <ele>1453.270020</ele>
      <time>2020-08-15T17:22:24Z</time>
    </trkpt>
    <trkpt lat="41.284741" lon="-122.202967">
      <ele>1455.319946</ele>
      <time>2020-08-15T17:22:28Z</time>
    </trkpt>
    <trkpt lat="41.284964" lon="-122.202745">
      <ele>1456.930054</ele>
      <time>2020-08-15T17:22:31Z</time>
    </trkpt>
    <trkpt lat="41.285644" lon="-122.202500">
      <ele>1460.619995</ele>
      <time>2020-08-15T17:22:38Z</time>
    </trkpt>
    <trkpt lat="41.286299" lon="-122.202480">
      <ele>1463.760010</ele>
      <time>2020-08-15T17:22:44Z</time>
    </trkpt>
    <trkpt lat="41.286836" lon="-122.202482">
      <ele>1467.369995</ele>
      <time>2020-08-15T17:22:49Z</time>
    </trkpt>
    <trkpt lat="41.286940" lon="-122.202494">
      <ele>1467.959961</ele>
      <time>2020-08-15T17:22:50Z</time>
    </trkpt>
    <trkpt lat="41.287422" lon="-122.202725">
      <ele>1470.920044</ele>
      <time>2020-08-15T17:22:55Z</time>
    </trkpt>
    <trkpt lat="41.287955" lon="-122.203214">
      <ele>1474.609985</ele>
      <time>2020-08-15T17:23:02Z</time>
    </trkpt>
    <trkpt lat="41.288217" lon="-122.203438">
      <ele>1475.869995</ele>
      <time>2020-08-15T17:23:05Z</time>
    </trkpt>
    <trkpt lat="41.288615" lon="-122.203611">
      <ele>1477.319946</ele>
      <time>2020-08-15T17:23:09Z</time>
    </trkpt>
    <trkpt lat="41.289366" lon="-122.203708">
      <ele>1481.010010</ele>
      <time>2020-08-15T17:23:16Z</time>
    </trkpt>
    <trkpt lat="41.290300" lon="-122.203810">
      <ele>1484.339966</ele>
      <time>2020-08-15T17:23:24Z</time>
    </trkpt>
    <trkpt lat="41.290680" lon="-122.203828">
      <ele>1485.310059</ele>
      <time>2020-08-15T17:23:27Z</time>
    </trkpt>
    <trkpt lat="41.291183" lon="-122.203649">
      <ele>1486.359985</ele>
      <time>2020-08-15T17:23:31Z</time>
    </trkpt>
    <trkpt lat="41.292095" lon="-122.202885">
      <ele>1488.189941</ele>
      <time>2020-08-15T17:23:39Z</time>
    </trkpt>
    <trkpt lat="41.293419" lon="-122.202552">
      <ele>1490.270020</ele>
      <time>2020-08-15T17:23:48Z</time>
    </trkpt>
    <trkpt lat="41.295037" lon="-122.202403">
      <ele>1493.500000</ele>
      <time>2020-08-15T17:23:59Z</time>
    </trkpt>
    <trkpt lat="41.296201" lon="-122.202352">
      <ele>1496.560059</ele>
      <time>2020-08-15T17:24:07Z</time>
    </trkpt>
    <trkpt lat="41.297366" lon="-122.202284">
      <ele>1499.719971</ele>
      <time>2020-08-15T17:24:15Z</time>
    </trkpt>
    <trkpt lat="41.298980" lon="-122.202109">
      <ele>1502.650024</ele>
      <time>2020-08-15T17:24:26Z</time>
    </trkpt>
    <trkpt lat="41.299683" lon="-122.202433">
      <ele>1506.199951</ele>
      <time>2020-08-15T17:24:32Z</time>
    </trkpt>
    <trkpt lat="41.299970" lon="-122.202767">
      <ele>1507.699951</ele>
      <time>2020-08-15T17:24:35Z</time>
    </trkpt>
    <trkpt lat="41.301006" lon="-122.204311">
      <ele>1511.319946</ele>
      <time>2020-08-15T17:24:46Z</time>
    </trkpt>
    <trkpt lat="41.301916" lon="-122.205370">
      <ele>1514.770020</ele>
      <time>2020-08-15T17:24:54Z</time>
    </trkpt>
    <trkpt lat="41.302687" lon="-122.206171">
      <ele>1517.839966</ele>
      <time>2020-08-15T17:25:01Z</time>
    </trkpt>
    <trkpt lat="41.303274" lon="-122.206794">
      <ele>1520.079956</ele>
      <time>2020-08-15T17:25:07Z</time>
    </trkpt>
    <trkpt lat="41.303883" lon="-122.208032">
      <ele>1523.670044</ele>
      <time>2020-08-15T17:25:16Z</time>
    </trkpt>
    <trkpt lat="41.304247" lon="-122.208982">
      <ele>1527.150024</ele>
      <time>2020-08-15T17:25:23Z</time>
    </trkpt>
    <trkpt lat="41.304474" lon="-122.209619">
      <ele>1530.280029</ele>
      <time>2020-08-15T17:25:28Z</time>
    </trkpt>
    <trkpt lat="41.304694" lon="-122.210280">
      <ele>1533.579956</ele>
      <time>2020-08-15T17:25:33Z</time>
    </trkpt>
    <trkpt lat="41.304872" lon="-122.211000">
      <ele>1536.719971</ele>
      <time>2020-08-15T17:25:38Z</time>
    </trkpt>
    <trkpt lat="41.305034" lon="-122.211748">
      <ele>1540.640015</ele>
      <time>2020-08-15T17:25:43Z</time>
    </trkpt>
    <trkpt lat="41.305187" lon="-122.212489">
      <ele>1543.660034</ele>
      <time>2020-08-15T17:25:48Z</time>
    </trkpt>
    <trkpt lat="41.305258" lon="-122.212772">
      <ele>1544.790039</ele>
      <time>2020-08-15T17:25:50Z</time>
    </trkpt>
    <trkpt lat="41.305783" lon="-122.213528">
      <ele>1548.640015</ele>
      <time>2020-08-15T17:25:57Z</time>
    </trkpt>
    <trkpt lat="41.306564" lon="-122.213571">
      <ele>1551.469971</ele>
      <time>2020-08-15T17:26:04Z</time>
    </trkpt>
    <trkpt lat="41.306951" lon="-122.213211">
      <ele>1553.270020</ele>
      <time>2020-08-15T17:26:08Z</time>
    </trkpt>
    <trkpt lat="41.307421" lon="-122.212483">
      <ele>1557.270020</ele>
      <time>2020-08-15T17:26:16Z</time>
    </trkpt>
    <trkpt lat="41.307450" lon="-122.212423">
      <ele>1557.719971</ele>
      <time>2020-08-15T17:26:17Z</time>
    </trkpt>
    <trkpt lat="41.307792" lon="-122.212390">
      <ele>1559.760010</ele>
      <time>2020-08-15T17:26:26Z</time>
    </trkpt>
    <trkpt lat="41.307876" lon="-122.212519">
      <ele>1559.969971</ele>
      <time>2020-08-15T17:26:29Z</time>
    </trkpt>
    <trkpt lat="41.307960" lon="-122.212710">
      <ele>1560.489990</ele>
      <time>2020-08-15T17:26:33Z</time>
    </trkpt>
    <trkpt lat="41.308023" lon="-122.212875">
      <ele>1560.810059</ele>
      <time>2020-08-15T17:26:36Z</time>
    </trkpt>
    <trkpt lat="41.308083" lon="-122.213126">
      <ele>1561.349976</ele>
      <time>2020-08-15T17:26:40Z</time>
    </trkpt>
    <trkpt lat="41.308146" lon="-122.213541">
      <ele>1561.979980</ele>
      <time>2020-08-15T17:26:46Z</time>
    </trkpt>
    <trkpt lat="41.308166" lon="-122.213924">
      <ele>1562.770020</ele>
      <time>2020-08-15T17:26:51Z</time>
    </trkpt>
    <trkpt lat="41.308177" lon="-122.214231">
      <ele>1563.229980</ele>
      <time>2020-08-15T17:26:55Z</time>
    </trkpt>
    <trkpt lat="41.308210" lon="-122.214857">
      <ele>1564.069946</ele>
      <time>2020-08-15T17:27:04Z</time>
    </trkpt>
    <trkpt lat="41.308233" lon="-122.215206">
      <ele>1564.239990</ele>
      <time>2020-08-15T17:27:09Z</time>
    </trkpt>
    <trkpt lat="41.308237" lon="-122.215420">
      <ele>1564.239990</ele>
      <time>2020-08-15T17:27:12Z</time>
    </trkpt>
    <trkpt lat="41.308262" lon="-122.215744">
      <ele>1564.180054</ele>
      <time>2020-08-15T17:27:18Z</time>
    </trkpt>
    <trkpt lat="41.308286" lon="-122.216071">
      <ele>1564.160034</ele>
      <time>2020-08-15T17:27:23Z</time>
    </trkpt>
    <trkpt lat="41.308324" lon="-122.216473">
      <ele>1564.189941</ele>
      <time>2020-08-15T17:27:28Z</time>
    </trkpt>
    <trkpt lat="41.308371" lon="-122.217076">
      <ele>1564.310059</ele>
      <time>2020-08-15T17:27:34Z</time>
    </trkpt>
    <trkpt lat="41.308367" lon="-122.218286">
      <ele>1564.560059</ele>
      <time>2020-08-15T17:27:46Z</time>
    </trkpt>
    <trkpt lat="41.308558" lon="-122.218879">
      <ele>1565.030029</ele>
      <time>2020-08-15T17:27:53Z</time>
    </trkpt>
    <trkpt lat="41.308972" lon="-122.219905">
      <ele>1565.130005</ele>
      <time>2020-08-15T17:28:05Z</time>
    </trkpt>
    <trkpt lat="41.309011" lon="-122.219986">
      <ele>1565.140015</ele>
      <time>2020-08-15T17:28:06Z</time>
    </trkpt>
    <trkpt lat="41.309094" lon="-122.220144">
      <ele>1565.189941</ele>
      <time>2020-08-15T17:28:08Z</time>
    </trkpt>
    <trkpt lat="41.309833" lon="-122.220905">
      <ele>1565.569946</ele>
      <time>2020-08-15T17:28:20Z</time>
    </trkpt>
    <trkpt lat="41.310418" lon="-122.221478">
      <ele>1565.560059</ele>
      <time>2020-08-15T17:28:28Z</time>
    </trkpt>
    <trkpt lat="41.310764" lon="-122.222188">
      <ele>1564.930054</ele>
      <time>2020-08-15T17:28:38Z</time>
    </trkpt>
    <trkpt lat="41.310801" lon="-122.222210">
      <ele>1564.930054</ele>
      <time>2020-08-15T17:28:39Z</time>
    </trkpt>
    <trkpt lat="41.311013" lon="-122.222221">
      <ele>1565.050049</ele>
      <time>2020-08-15T17:28:44Z</time>
    </trkpt>
    <trkpt lat="41.311239" lon="-122.222255">
      <ele>1565.579956</ele>
      <time>2020-08-15T17:28:49Z</time>
    </trkpt>
    <trkpt lat="41.311377" lon="-122.222301">
      <ele>1566.250000</ele>
      <time>2020-08-15T17:28:52Z</time>
    </trkpt>
    <trkpt lat="41.311595" lon="-122.222232">
      <ele>1567.319946</ele>
      <time>2020-08-15T17:28:57Z</time>
    </trkpt>
    <trkpt lat="41.311899" lon="-122.221818">
      <ele>1570.739990</ele>
      <time>2020-08-15T17:29:07Z</time>
    </trkpt>
    <trkpt lat="41.312328" lon="-122.221196">
      <ele>1574.160034</ele>
      <time>2020-08-15T17:29:20Z</time>
    </trkpt>
    <trkpt lat="41.312671" lon="-122.220728">
      <ele>1577.439941</ele>
      <time>2020-08-15T17:29:29Z</time>
    </trkpt>
    <trkpt lat="41.312836" lon="-122.220550">
      <ele>1579.170044</ele>
      <time>2020-08-15T17:29:33Z</time>
    </trkpt>
    <trkpt lat="41.313020" lon="-122.220328">
      <ele>1580.479980</ele>
      <time>2020-08-15T17:29:37Z</time>
    </trkpt>
    <trkpt lat="41.313134" lon="-122.220219">
      <ele>1581.290039</ele>
      <time>2020-08-15T17:29:39Z</time>
    </trkpt>
    <trkpt lat="41.313537" lon="-122.219863">
      <ele>1584.760010</ele>
      <time>2020-08-15T17:29:46Z</time>
    </trkpt>
    <trkpt lat="41.313890" lon="-122.219527">
      <ele>1588.800049</ele>
      <time>2020-08-15T17:29:53Z</time>
    </trkpt>
    <trkpt lat="41.313928" lon="-122.219469">
      <ele>1589.209961</ele>
      <time>2020-08-15T17:29:54Z</time>
    </trkpt>
    <trkpt lat="41.313995" lon="-122.219362">
      <ele>1590.089966</ele>
      <time>2020-08-15T17:29:56Z</time>
    </trkpt>
    <trkpt lat="41.314200" lon="-122.218875">
      <ele>1593.630005</ele>
      <time>2020-08-15T17:30:03Z</time>
    </trkpt>
    <trkpt lat="41.314232" lon="-122.218800">
      <ele>1593.989990</ele>
      <time>2020-08-15T17:30:04Z</time>
    </trkpt>
    <trkpt lat="41.314373" lon="-122.218631">
      <ele>1595.050049</ele>
      <time>2020-08-15T17:30:07Z</time>
    </trkpt>
    <trkpt lat="41.314628" lon="-122.218420">
      <ele>1596.510010</ele>
      <time>2020-08-15T17:30:12Z</time>
    </trkpt>
    <trkpt lat="41.315050" lon="-122.218129">
      <ele>1600.369995</ele>
      <time>2020-08-15T17:30:20Z</time>
    </trkpt>
    <trkpt lat="41.315167" lon="-122.218042">
      <ele>1601.359985</ele>
      <time>2020-08-15T17:30:22Z</time>
    </trkpt>
    <trkpt lat="41.315498" lon="-122.217765">
      <ele>1604.030029</ele>
      <time>2020-08-15T17:30:28Z</time>
    </trkpt>
    <trkpt lat="41.315662" lon="-122.217614">
      <ele>1605.420044</ele>
      <time>2020-08-15T17:30:31Z</time>
    </trkpt>
    <trkpt lat="41.315880" lon="-122.217440">
      <ele>1607.209961</ele>
      <time>2020-08-15T17:30:35Z</time>
    </trkpt>
    <trkpt lat="41.316128" lon="-122.217273">
      <ele>1609.910034</ele>
      <time>2020-08-15T17:30:40Z</time>
    </trkpt>
    <trkpt lat="41.316265" lon="-122.217199">
      <ele>1611.489990</ele>
      <time>2020-08-15T17:30:43Z</time>
    </trkpt>
    <trkpt lat="41.316456" lon="-122.217087">
      <ele>1613.400024</ele>
      <time>2020-08-15T17:30:47Z</time>
    </trkpt>
    <trkpt lat="41.316602" lon="-122.216992">
      <ele>1614.849976</ele>
      <time>2020-08-15T17:30:50Z</time>
    </trkpt>
    <trkpt lat="41.316704" lon="-122.216925">
      <ele>1616.319946</ele>
      <time>2020-08-15T17:30:52Z</time>
    </trkpt>
    <trkpt lat="41.316807" lon="-122.216870">
      <ele>1617.209961</ele>
      <time>2020-08-15T17:30:54Z</time>
    </trkpt>
    <trkpt lat="41.317298" lon="-122.216726">
      <ele>1621.150024</ele>
      <time>2020-08-15T17:31:02Z</time>
    </trkpt>
    <trkpt lat="41.317470" lon="-122.216704">
      <ele>1622.839966</ele>
      <time>2020-08-15T17:31:05Z</time>
    </trkpt>
    <trkpt lat="41.317851" lon="-122.216693">
      <ele>1626.750000</ele>
      <time>2020-08-15T17:31:12Z</time>
    </trkpt>
    <trkpt lat="41.317950" lon="-122.216686">
      <ele>1627.819946</ele>
      <time>2020-08-15T17:31:14Z</time>
    </trkpt>
    <trkpt lat="41.318042" lon="-122.216676">
      <ele>1629.420044</ele>
      <time>2020-08-15T17:31:16Z</time>
    </trkpt>
    <trkpt lat="41.318405" lon="-122.216588">
      <ele>1633.439941</ele>
      <time>2020-08-15T17:31:24Z</time>
    </trkpt>
    <trkpt lat="41.318448" lon="-122.216574">
      <ele>1633.939941</ele>
      <time>2020-08-15T17:31:25Z</time>
    </trkpt>
    <trkpt lat="41.318626" lon="-122.216553">
      <ele>1635.790039</ele>
      <time>2020-08-15T17:31:29Z</time>
    </trkpt>
    <trkpt lat="41.319022" lon="-122.216530">
      <ele>1639.300049</ele>
      <time>2020-08-15T17:31:37Z</time>
    </trkpt>
    <trkpt lat="41.319345" lon="-122.216525">
      <ele>1642.500000</ele>
      <time>2020-08-15T17:31:44Z</time>
    </trkpt>
    <trkpt lat="41.319796" lon="-122.216608">
      <ele>1645.569946</ele>
      <time>2020-08-15T17:31:52Z</time>
    </trkpt>
    <trkpt lat="41.319970" lon="-122.216628">
      <ele>1646.829956</ele>
      <time>2020-08-15T17:31:55Z</time>
    </trkpt>
    <trkpt lat="41.320148" lon="-122.216666">
      <ele>1648.310059</ele>
      <time>2020-08-15T17:31:58Z</time>
    </trkpt>
    <trkpt lat="41.320618" lon="-122.216721">
      <ele>1652.449951</ele>
      <time>2020-08-15T17:32:05Z</time>
    </trkpt>
    <trkpt lat="41.320940" lon="-122.216715">
      <ele>1655.530029</ele>
      <time>2020-08-15T17:32:10Z</time>
    </trkpt>
    <trkpt lat="41.321059" lon="-122.216700">
      <ele>1656.900024</ele>
      <time>2020-08-15T17:32:12Z</time>
    </trkpt>
    <trkpt lat="41.321369" lon="-122.216703">
      <ele>1660.180054</ele>
      <time>2020-08-15T17:32:17Z</time>
    </trkpt>
    <trkpt lat="41.321528" lon="-122.216677">
      <ele>1661.849976</ele>
      <time>2020-08-15T17:32:20Z</time>
    </trkpt>
    <trkpt lat="41.321574" lon="-122.216670">
      <ele>1662.420044</ele>
      <time>2020-08-15T17:32:21Z</time>
    </trkpt>
    <trkpt lat="41.321759" lon="-122.216638">
      <ele>1664.890015</ele>
      <time>2020-08-15T17:32:25Z</time>
    </trkpt>
    <trkpt lat="41.322072" lon="-122.216613">
      <ele>1669.069946</ele>
      <time>2020-08-15T17:32:31Z</time>
    </trkpt>
    <trkpt lat="41.322424" lon="-122.216582">
      <ele>1672.280029</ele>
      <time>2020-08-15T17:32:37Z</time>
    </trkpt>
    <trkpt lat="41.322548" lon="-122.216586">
      <ele>1673.229980</ele>
      <time>2020-08-15T17:32:39Z</time>
    </trkpt>
    <trkpt lat="41.323026" lon="-122.216661">
      <ele>1676.880005</ele>
      <time>2020-08-15T17:32:47Z</time>
    </trkpt>
    <trkpt lat="41.323299" lon="-122.216781">
      <ele>1679.859985</ele>
      <time>2020-08-15T17:32:52Z</time>
    </trkpt>
    <trkpt lat="41.323570" lon="-122.216831">
      <ele>1682.640015</ele>
      <time>2020-08-15T17:32:57Z</time>
    </trkpt>
    <trkpt lat="41.323852" lon="-122.216746">
      <ele>1686.800049</ele>
      <time>2020-08-15T17:33:04Z</time>
    </trkpt>
    <trkpt lat="41.324111" lon="-122.216549">
      <ele>1690.160034</ele>
      <time>2020-08-15T17:33:12Z</time>
    </trkpt>
    <trkpt lat="41.324222" lon="-122.216439">
      <ele>1691.150024</ele>
      <time>2020-08-15T17:33:15Z</time>
    </trkpt>
    <trkpt lat="41.324327" lon="-122.216257">
      <ele>1692.839966</ele>
      <time>2020-08-15T17:33:19Z</time>
    </trkpt>
    <trkpt lat="41.324401" lon="-122.215996">
      <ele>1695.550049</ele>
      <time>2020-08-15T17:33:24Z</time>
    </trkpt>
    <trkpt lat="41.324556" lon="-122.215661">
      <ele>1698.069946</ele>
      <time>2020-08-15T17:33:30Z</time>
    </trkpt>
    <trkpt lat="41.324664" lon="-122.215527">
      <ele>1699.520020</ele>
      <time>2020-08-15T17:33:33Z</time>
    </trkpt>
    <trkpt lat="41.324894" lon="-122.215410">
      <ele>1702.069946</ele>
      <time>2020-08-15T17:33:38Z</time>
    </trkpt>
    <trkpt lat="41.325046" lon="-122.215388">
      <ele>1703.729980</ele>
      <time>2020-08-15T17:33:41Z</time>
    </trkpt>
    <trkpt lat="41.325292" lon="-122.215396">
      <ele>1705.959961</ele>
      <time>2020-08-15T17:33:46Z</time>
    </trkpt>
    <trkpt lat="41.325534" lon="-122.215568">
      <ele>1708.859985</ele>
      <time>2020-08-15T17:33:52Z</time>
    </trkpt>
    <trkpt lat="41.325631" lon="-122.215796">
      <ele>1710.560059</ele>
      <time>2020-08-15T17:33:56Z</time>
    </trkpt>
    <trkpt lat="41.326013" lon="-122.216628">
      <ele>1714.280029</ele>
      <time>2020-08-15T17:34:06Z</time>
    </trkpt>
    <trkpt lat="41.326201" lon="-122.216989">
      <ele>1715.310059</ele>
      <time>2020-08-15T17:34:10Z</time>
    </trkpt>
    <trkpt lat="41.326434" lon="-122.217559">
      <ele>1719.160034</ele>
      <time>2020-08-15T17:34:17Z</time>
    </trkpt>
    <trkpt lat="41.326617" lon="-122.218021">
      <ele>1722.359985</ele>
      <time>2020-08-15T17:34:23Z</time>
    </trkpt>
    <trkpt lat="41.326776" lon="-122.218366">
      <ele>1724.939941</ele>
      <time>2020-08-15T17:34:28Z</time>
    </trkpt>
    <trkpt lat="41.326966" lon="-122.218790">
      <ele>1727.069946</ele>
      <time>2020-08-15T17:34:34Z</time>
    </trkpt>
    <trkpt lat="41.327031" lon="-122.218893">
      <ele>1727.979980</ele>
      <time>2020-08-15T17:34:36Z</time>
    </trkpt>
    <trkpt lat="41.327104" lon="-122.218984">
      <ele>1729.150024</ele>
      <time>2020-08-15T17:34:38Z</time>
    </trkpt>
    <trkpt lat="41.327195" lon="-122.219062">
      <ele>1730.729980</ele>
      <time>2020-08-15T17:34:40Z</time>
    </trkpt>
    <trkpt lat="41.327384" lon="-122.219192">
      <ele>1732.449951</ele>
      <time>2020-08-15T17:34:44Z</time>
    </trkpt>
    <trkpt lat="41.327600" lon="-122.219354">
      <ele>1734.500000</ele>
      <time>2020-08-15T17:34:49Z</time>
    </trkpt>
    <trkpt lat="41.327722" lon="-122.219468">
      <ele>1735.739990</ele>
      <time>2020-08-15T17:34:52Z</time>
    </trkpt>
    <trkpt lat="41.327801" lon="-122.219824">
      <ele>1738.520020</ele>
      <time>2020-08-15T17:34:58Z</time>
    </trkpt>
    <trkpt lat="41.327784" lon="-122.219958">
      <ele>1739.280029</ele>
      <time>2020-08-15T17:35:00Z</time>
    </trkpt>
    <trkpt lat="41.327754" lon="-122.220255">
      <ele>1742.010010</ele>
      <time>2020-08-15T17:35:05Z</time>
    </trkpt>
    <trkpt lat="41.327762" lon="-122.220372">
      <ele>1742.949951</ele>
      <time>2020-08-15T17:35:07Z</time>
    </trkpt>
    <trkpt lat="41.327820" lon="-122.220610">
      <ele>1744.569946</ele>
      <time>2020-08-15T17:35:11Z</time>
    </trkpt>
    <trkpt lat="41.327937" lon="-122.220871">
      <ele>1746.489990</ele>
      <time>2020-08-15T17:35:16Z</time>
    </trkpt>
    <trkpt lat="41.327999" lon="-122.220960">
      <ele>1747.349976</ele>
      <time>2020-08-15T17:35:18Z</time>
    </trkpt>
    <trkpt lat="41.328258" lon="-122.221101">
      <ele>1750.400024</ele>
      <time>2020-08-15T17:35:25Z</time>
    </trkpt>
    <trkpt lat="41.328342" lon="-122.221101">
      <ele>1751.180054</ele>
      <time>2020-08-15T17:35:27Z</time>
    </trkpt>
    <trkpt lat="41.328780" lon="-122.221076">
      <ele>1754.589966</ele>
      <time>2020-08-15T17:35:37Z</time>
    </trkpt>
    <trkpt lat="41.329132" lon="-122.221033">
      <ele>1755.319946</ele>
      <time>2020-08-15T17:35:47Z</time>
    </trkpt>
    <trkpt lat="41.329431" lon="-122.220872">
      <ele>1754.420044</ele>
      <time>2020-08-15T17:35:57Z</time>
    </trkpt>
    <trkpt lat="41.329828" lon="-122.220989">
      <ele>1753.459961</ele>
      <time>2020-08-15T17:36:06Z</time>
    </trkpt>
    <trkpt lat="41.329879" lon="-122.221249">
      <ele>1752.900024</ele>
      <time>2020-08-15T17:36:10Z</time>
    </trkpt>
    <trkpt lat="41.329852" lon="-122.221434">
      <ele>1752.469971</ele>
      <time>2020-08-15T17:36:13Z</time>
    </trkpt>
    <trkpt lat="41.329665" lon="-122.222180">
      <ele>1754.060059</ele>
      <time>2020-08-15T17:36:26Z</time>
    </trkpt>
    <trkpt lat="41.329623" lon="-122.222406">
      <ele>1755.060059</ele>
      <time>2020-08-15T17:36:30Z</time>
    </trkpt>
    <trkpt lat="41.329679" lon="-122.222794">
      <ele>1757.739990</ele>
      <time>2020-08-15T17:36:37Z</time>
    </trkpt>
    <trkpt lat="41.329915" lon="-122.223264">
      <ele>1760.760010</ele>
      <time>2020-08-15T17:36:47Z</time>
    </trkpt>
    <trkpt lat="41.330050" lon="-122.223620">
      <ele>1762.479980</ele>
      <time>2020-08-15T17:36:54Z</time>
    </trkpt>
    <trkpt lat="41.330168" lon="-122.224067">
      <ele>1765.839966</ele>
      <time>2020-08-15T17:37:04Z</time>
    </trkpt>
    <trkpt lat="41.330413" lon="-122.224363">
      <ele>1767.800049</ele>
      <time>2020-08-15T17:37:14Z</time>
    </trkpt>
    <trkpt lat="41.330795" lon="-122.224433">
      <ele>1766.699951</ele>
      <time>2020-08-15T17:37:26Z</time>
    </trkpt>
    <trkpt lat="41.331052" lon="-122.224274">
      <ele>1766.390015</ele>
      <time>2020-08-15T17:37:34Z</time>
    </trkpt>
    <trkpt lat="41.331171" lon="-122.224528">
      <ele>1765.910034</ele>
      <time>2020-08-15T17:37:43Z</time>
    </trkpt>
    <trkpt lat="41.331156" lon="-122.224579">
      <ele>1765.869995</ele>
      <time>2020-08-15T17:37:44Z</time>
    </trkpt>
    <trkpt lat="41.331040" lon="-122.224924">
      <ele>1765.859985</ele>
      <time>2020-08-15T17:37:50Z</time>
    </trkpt>
    <trkpt lat="41.330623" lon="-122.225520">
      <ele>1769.180054</ele>
      <time>2020-08-15T17:38:04Z</time>
    </trkpt>
    <trkpt lat="41.330551" lon="-122.225599">
      <ele>1769.839966</ele>
      <time>2020-08-15T17:38:06Z</time>
    </trkpt>
    <trkpt lat="41.330329" lon="-122.225949">
      <ele>1772.180054</ele>
      <time>2020-08-15T17:38:13Z</time>
    </trkpt>
    <trkpt lat="41.330260" lon="-122.226216">
      <ele>1774.180054</ele>
      <time>2020-08-15T17:38:18Z</time>
    </trkpt>
    <trkpt lat="41.330238" lon="-122.226381">
      <ele>1775.250000</ele>
      <time>2020-08-15T17:38:21Z</time>
    </trkpt>
    <trkpt lat="41.330219" lon="-122.226578">
      <ele>1776.109985</ele>
      <time>2020-08-15T17:38:24Z</time>
    </trkpt>
    <trkpt lat="41.330274" lon="-122.226896">
      <ele>1777.449951</ele>
      <time>2020-08-15T17:38:29Z</time>
    </trkpt>
    <trkpt lat="41.330457" lon="-122.227221">
      <ele>1780.619995</ele>
      <time>2020-08-15T17:38:37Z</time>
    </trkpt>
    <trkpt lat="41.330645" lon="-122.227503">
      <ele>1782.430054</ele>
      <time>2020-08-15T17:38:43Z</time>
    </trkpt>
    <trkpt lat="41.330752" lon="-122.227718">
      <ele>1783.739990</ele>
      <time>2020-08-15T17:38:47Z</time>
    </trkpt>
    <trkpt lat="41.330833" lon="-122.227964">
      <ele>1785.250000</ele>
      <time>2020-08-15T17:38:51Z</time>
    </trkpt>
    <trkpt lat="41.330947" lon="-122.228415">
      <ele>1788.780029</ele>
      <time>2020-08-15T17:38:59Z</time>
    </trkpt>
    <trkpt lat="41.330944" lon="-122.228783">
      <ele>1791.790039</ele>
      <time>2020-08-15T17:39:06Z</time>
    </trkpt>
    <trkpt lat="41.331090" lon="-122.229296">
      <ele>1791.810059</ele>
      <time>2020-08-15T17:39:17Z</time>
    </trkpt>
    <trkpt lat="41.331292" lon="-122.229707">
      <ele>1789.630005</ele>
      <time>2020-08-15T17:39:27Z</time>
    </trkpt>
    <trkpt lat="41.331325" lon="-122.230154">
      <ele>1787.969971</ele>
      <time>2020-08-15T17:39:37Z</time>
    </trkpt>
    <trkpt lat="41.331310" lon="-122.230435">
      <ele>1787.030029</ele>
      <time>2020-08-15T17:39:42Z</time>
    </trkpt>
    <trkpt lat="41.331325" lon="-122.230669">
      <ele>1785.900024</ele>
      <time>2020-08-15T17:39:46Z</time>
    </trkpt>
    <trkpt lat="41.331349" lon="-122.231203">
      <ele>1782.430054</ele>
      <time>2020-08-15T17:39:56Z</time>
    </trkpt>
    <trkpt lat="41.331412" lon="-122.231704">
      <ele>1779.900024</ele>
      <time>2020-08-15T17:40:06Z</time>
    </trkpt>
    <trkpt lat="41.331529" lon="-122.231902">
      <ele>1778.660034</ele>
      <time>2020-08-15T17:40:11Z</time>
    </trkpt>
    <trkpt lat="41.331822" lon="-122.232107">
      <ele>1777.050049</ele>
      <time>2020-08-15T17:40:17Z</time>
    </trkpt>
    <trkpt lat="41.331915" lon="-122.232161">
      <ele>1776.260010</ele>
      <time>2020-08-15T17:40:19Z</time>
    </trkpt>
    <trkpt lat="41.332301" lon="-122.232142">
      <ele>1775.069946</ele>
      <time>2020-08-15T17:40:29Z</time>
    </trkpt>
    <trkpt lat="41.332517" lon="-122.232371">
      <ele>1773.839966</ele>
      <time>2020-08-15T17:40:36Z</time>
    </trkpt>
    <trkpt lat="41.332515" lon="-122.232556">
      <ele>1773.689941</ele>
      <time>2020-08-15T17:40:39Z</time>
    </trkpt>
    <trkpt lat="41.332446" lon="-122.232951">
      <ele>1773.510010</ele>
      <time>2020-08-15T17:40:45Z</time>
    </trkpt>
    <trkpt lat="41.332383" lon="-122.233191">
      <ele>1773.819946</ele>
      <time>2020-08-15T17:40:49Z</time>
    </trkpt>
    <trkpt lat="41.332316" lon="-122.233945">
      <ele>1773.199951</ele>
      <time>2020-08-15T17:41:02Z</time>
    </trkpt>
    <trkpt lat="41.332384" lon="-122.234169">
      <ele>1772.520020</ele>
      <time>2020-08-15T17:41:06Z</time>
    </trkpt>
    <trkpt lat="41.332786" lon="-122.234641">
      <ele>1770.880005</ele>
      <time>2020-08-15T17:41:17Z</time>
    </trkpt>
    <trkpt lat="41.332814" lon="-122.234687">
      <ele>1770.800049</ele>
      <time>2020-08-15T17:41:18Z</time>
    </trkpt>
    <trkpt lat="41.332996" lon="-122.235069">
      <ele>1770.020020</ele>
      <time>2020-08-15T17:41:25Z</time>
    </trkpt>
    <trkpt lat="41.333018" lon="-122.235362">
      <ele>1769.089966</ele>
      <time>2020-08-15T17:41:30Z</time>
    </trkpt>
    <trkpt lat="41.332699" lon="-122.235881">
      <ele>1766.459961</ele>
      <time>2020-08-15T17:41:42Z</time>
    </trkpt>
    <trkpt lat="41.332665" lon="-122.235917">
      <ele>1766.250000</ele>
      <time>2020-08-15T17:41:43Z</time>
    </trkpt>
    <trkpt lat="41.332578" lon="-122.236063">
      <ele>1765.489990</ele>
      <time>2020-08-15T17:41:46Z</time>
    </trkpt>
    <trkpt lat="41.332487" lon="-122.236231">
      <ele>1764.829956</ele>
      <time>2020-08-15T17:41:49Z</time>
    </trkpt>
    <trkpt lat="41.332414" lon="-122.236429">
      <ele>1763.800049</ele>
      <time>2020-08-15T17:41:52Z</time>
    </trkpt>
    <trkpt lat="41.332361" lon="-122.236541">
      <ele>1763.089966</ele>
      <time>2020-08-15T17:41:54Z</time>
    </trkpt>
    <trkpt lat="41.332272" lon="-122.236681">
      <ele>1762.160034</ele>
      <time>2020-08-15T17:41:57Z</time>
    </trkpt>
    <trkpt lat="41.332162" lon="-122.236822">
      <ele>1761.040039</ele>
      <time>2020-08-15T17:42:00Z</time>
    </trkpt>
    <trkpt lat="41.332057" lon="-122.236959">
      <ele>1760.300049</ele>
      <time>2020-08-15T17:42:03Z</time>
    </trkpt>
    <trkpt lat="41.331679" lon="-122.237367">
      <ele>1756.969971</ele>
      <time>2020-08-15T17:42:15Z</time>
    </trkpt>
    <trkpt lat="41.331538" lon="-122.237498">
      <ele>1756.010010</ele>
      <time>2020-08-15T17:42:20Z</time>
    </trkpt>
    <trkpt lat="41.331394" lon="-122.237631">
      <ele>1754.640015</ele>
      <time>2020-08-15T17:42:24Z</time>
    </trkpt>
    <trkpt lat="41.331158" lon="-122.237932">
      <ele>1753.000000</ele>
      <time>2020-08-15T17:42:33Z</time>
    </trkpt>
    <trkpt lat="41.331091" lon="-122.238157">
      <ele>1751.930054</ele>
      <time>2020-08-15T17:42:37Z</time>
    </trkpt>
    <trkpt lat="41.331086" lon="-122.238577">
      <ele>1749.319946</ele>
      <time>2020-08-15T17:42:45Z</time>
    </trkpt>
    <trkpt lat="41.331076" lon="-122.238712">
      <ele>1748.770020</ele>
      <time>2020-08-15T17:42:47Z</time>
    </trkpt>
    <trkpt lat="41.331076" lon="-122.239082">
      <ele>1746.920044</ele>
      <time>2020-08-15T17:42:53Z</time>
    </trkpt>
    <trkpt lat="41.331151" lon="-122.239310">
      <ele>1745.520020</ele>
      <time>2020-08-15T17:42:58Z</time>
    </trkpt>
    <trkpt lat="41.331502" lon="-122.239509">
      <ele>1743.680054</ele>
      <time>2020-08-15T17:43:06Z</time>
    </trkpt>
    <trkpt lat="41.331758" lon="-122.239661">
      <ele>1742.140015</ele>
      <time>2020-08-15T17:43:11Z</time>
    </trkpt>
    <trkpt lat="41.332172" lon="-122.239857">
      <ele>1739.119995</ele>
      <time>2020-08-15T17:43:22Z</time>
    </trkpt>
    <trkpt lat="41.332501" lon="-122.239713">
      <ele>1736.420044</ele>
      <time>2020-08-15T17:43:32Z</time>
    </trkpt>
    <trkpt lat="41.332742" lon="-122.239807">
      <ele>1734.589966</ele>
      <time>2020-08-15T17:43:39Z</time>
    </trkpt>
    <trkpt lat="41.332935" lon="-122.240363">
      <ele>1731.400024</ele>
      <time>2020-08-15T17:43:49Z</time>
    </trkpt>
    <trkpt lat="41.333136" lon="-122.240705">
      <ele>1729.130005</ele>
      <time>2020-08-15T17:43:59Z</time>
    </trkpt>
    <trkpt lat="41.333250" lon="-122.240896">
      <ele>1728.130005</ele>
      <time>2020-08-15T17:44:03Z</time>
    </trkpt>
    <trkpt lat="41.333447" lon="-122.241126">
      <ele>1725.910034</ele>
      <time>2020-08-15T17:44:11Z</time>
    </trkpt>
    <trkpt lat="41.333530" lon="-122.241147">
      <ele>1725.430054</ele>
      <time>2020-08-15T17:44:14Z</time>
    </trkpt>
    <trkpt lat="41.333704" lon="-122.241550">
      <ele>1724.709961</ele>
      <time>2020-08-15T17:44:23Z</time>
    </trkpt>
    <trkpt lat="41.333754" lon="-122.241735">
      <ele>1725.280029</ele>
      <time>2020-08-15T17:44:27Z</time>
    </trkpt>
    <trkpt lat="41.333780" lon="-122.242276">
      <ele>1724.849976</ele>
      <time>2020-08-15T17:44:37Z</time>
    </trkpt>
    <trkpt lat="41.333574" lon="-122.242419">
      <ele>1723.979980</ele>
      <time>2020-08-15T17:44:43Z</time>
    </trkpt>
    <trkpt lat="41.333317" lon="-122.242429">
      <ele>1724.260010</ele>
      <time>2020-08-15T17:44:49Z</time>
    </trkpt>
    <trkpt lat="41.333118" lon="-122.242499">
      <ele>1725.040039</ele>
      <time>2020-08-15T17:44:53Z</time>
    </trkpt>
    <trkpt lat="41.332948" lon="-122.242703">
      <ele>1726.229980</ele>
      <time>2020-08-15T17:44:59Z</time>
    </trkpt>
    <trkpt lat="41.332928" lon="-122.242944">
      <ele>1726.569946</ele>
      <time>2020-08-15T17:45:04Z</time>
    </trkpt>
    <trkpt lat="41.332949" lon="-122.243107">
      <ele>1726.199951</ele>
      <time>2020-08-15T17:45:07Z</time>
    </trkpt>
    <trkpt lat="41.333086" lon="-122.243482">
      <ele>1724.459961</ele>
      <time>2020-08-15T17:45:16Z</time>
    </trkpt>
    <trkpt lat="41.332923" lon="-122.243671">
      <ele>1723.109985</ele>
      <time>2020-08-15T17:45:24Z</time>
    </trkpt>
    <trkpt lat="41.332845" lon="-122.243671">
      <ele>1722.739990</ele>
      <time>2020-08-15T17:45:26Z</time>
    </trkpt>
    <trkpt lat="41.332750" lon="-122.243677">
      <ele>1722.430054</ele>
      <time>2020-08-15T17:45:29Z</time>
    </trkpt>
    <trkpt lat="41.332463" lon="-122.243912">
      <ele>1720.530029</ele>
      <time>2020-08-15T17:45:39Z</time>
    </trkpt>
    <trkpt lat="41.332418" lon="-122.243935">
      <ele>1720.270020</ele>
      <time>2020-08-15T17:45:40Z</time>
    </trkpt>
    <trkpt lat="41.332069" lon="-122.244096">
      <ele>1716.670044</ele>
      <time>2020-08-15T17:45:49Z</time>
    </trkpt>
    <trkpt lat="41.331874" lon="-122.244307">
      <ele>1714.339966</ele>
      <time>2020-08-15T17:45:56Z</time>
    </trkpt>
    <trkpt lat="41.331860" lon="-122.244435">
      <ele>1713.800049</ele>
      <time>2020-08-15T17:45:58Z</time>
    </trkpt>
    <trkpt lat="41.331894" lon="-122.244698">
      <ele>1712.719971</ele>
      <time>2020-08-15T17:46:02Z</time>
    </trkpt>
    <trkpt lat="41.331898" lon="-122.244834">
      <ele>1712.099976</ele>
      <time>2020-08-15T17:46:04Z</time>
    </trkpt>
    <trkpt lat="41.331868" lon="-122.245483">
      <ele>1710.180054</ele>
      <time>2020-08-15T17:46:15Z</time>
    </trkpt>
    <trkpt lat="41.331879" lon="-122.245600">
      <ele>1710.020020</ele>
      <time>2020-08-15T17:46:18Z</time>
    </trkpt>
    <trkpt lat="41.331838" lon="-122.245788">
      <ele>1709.729980</ele>
      <time>2020-08-15T17:46:22Z</time>
    </trkpt>
    <trkpt lat="41.331754" lon="-122.245928">
      <ele>1708.810059</ele>
      <time>2020-08-15T17:46:25Z</time>
    </trkpt>
    <trkpt lat="41.331741" lon="-122.246282">
      <ele>1706.829956</ele>
      <time>2020-08-15T17:46:30Z</time>
    </trkpt>
    <trkpt lat="41.331799" lon="-122.246563">
      <ele>1706.040039</ele>
      <time>2020-08-15T17:46:33Z</time>
    </trkpt>
    <trkpt lat="41.331696" lon="-122.247717">
      <ele>1707.520020</ele>
      <time>2020-08-15T17:46:43Z</time>
    </trkpt>
    <trkpt lat="41.331673" lon="-122.248405">
      <ele>1709.380005</ele>
      <time>2020-08-15T17:46:48Z</time>
    </trkpt>
    <trkpt lat="41.331696" lon="-122.248694">
      <ele>1710.390015</ele>
      <time>2020-08-15T17:46:50Z</time>
    </trkpt>
    <trkpt lat="41.331886" lon="-122.249355">
      <ele>1714.010010</ele>
      <time>2020-08-15T17:46:55Z</time>
    </trkpt>
    <trkpt lat="41.331941" lon="-122.249476">
      <ele>1714.010010</ele>
      <time>2020-08-15T17:46:56Z</time>
    </trkpt>
    <trkpt lat="41.332195" lon="-122.249954">
      <ele>1717.540039</ele>
      <time>2020-08-15T17:47:00Z</time>
    </trkpt>
    <trkpt lat="41.332321" lon="-122.250186">
      <ele>1719.099976</ele>
      <time>2020-08-15T17:47:02Z</time>
    </trkpt>
    <trkpt lat="41.332488" lon="-122.250797">
      <ele>1722.660034</ele>
      <time>2020-08-15T17:47:07Z</time>
    </trkpt>
    <trkpt lat="41.332476" lon="-122.251563">
      <ele>1726.430054</ele>
      <time>2020-08-15T17:47:13Z</time>
    </trkpt>
    <trkpt lat="41.332324" lon="-122.252208">
      <ele>1729.479980</ele>
      <time>2020-08-15T17:47:18Z</time>
    </trkpt>
    <trkpt lat="41.332259" lon="-122.252469">
      <ele>1730.750000</ele>
      <time>2020-08-15T17:47:20Z</time>
    </trkpt>
    <trkpt lat="41.332129" lon="-122.252994">
      <ele>1733.890015</ele>
      <time>2020-08-15T17:47:24Z</time>
    </trkpt>
    <trkpt lat="41.331991" lon="-122.253806">
      <ele>1737.319946</ele>
      <time>2020-08-15T17:47:30Z</time>
    </trkpt>
    <trkpt lat="41.331985" lon="-122.253944">
      <ele>1737.939941</ele>
      <time>2020-08-15T17:47:31Z</time>
    </trkpt>
    <trkpt lat="41.332079" lon="-122.254630">
      <ele>1741.449951</ele>
      <time>2020-08-15T17:47:36Z</time>
    </trkpt>
    <trkpt lat="41.332221" lon="-122.255012">
      <ele>1743.640015</ele>
      <time>2020-08-15T17:47:39Z</time>
    </trkpt>
    <trkpt lat="41.332352" lon="-122.255242">
      <ele>1745.109985</ele>
      <time>2020-08-15T17:47:41Z</time>
    </trkpt>
    <trkpt lat="41.332693" lon="-122.255613">
      <ele>1748.589966</ele>
      <time>2020-08-15T17:47:45Z</time>
    </trkpt>
    <trkpt lat="41.333435" lon="-122.255938">
      <ele>1751.609985</ele>
      <time>2020-08-15T17:47:52Z</time>
    </trkpt>
    <trkpt lat="41.333844" lon="-122.256114">
      <ele>1753.489990</ele>
      <time>2020-08-15T17:47:56Z</time>
    </trkpt>
    <trkpt lat="41.334179" lon="-122.256418">
      <ele>1755.219971</ele>
      <time>2020-08-15T17:48:00Z</time>
    </trkpt>
    <trkpt lat="41.334587" lon="-122.257037">
      <ele>1759.189941</ele>
      <time>2020-08-15T17:48:06Z</time>
    </trkpt>
    <trkpt lat="41.334664" lon="-122.257134">
      <ele>1759.839966</ele>
      <time>2020-08-15T17:48:07Z</time>
    </trkpt>
    <trkpt lat="41.335124" lon="-122.257490">
      <ele>1763.650024</ele>
      <time>2020-08-15T17:48:12Z</time>
    </trkpt>
    <trkpt lat="41.335717" lon="-122.257912">
      <ele>1766.930054</ele>
      <time>2020-08-15T17:48:18Z</time>
    </trkpt>
    <trkpt lat="41.336209" lon="-122.258264">
      <ele>1769.930054</ele>
      <time>2020-08-15T17:48:23Z</time>
    </trkpt>
    <trkpt lat="41.336724" lon="-122.258612">
      <ele>1773.369995</ele>
      <time>2020-08-15T17:48:28Z</time>
    </trkpt>
    <trkpt lat="41.337160" lon="-122.258850">
      <ele>1776.479980</ele>
      <time>2020-08-15T17:48:32Z</time>
    </trkpt>
    <trkpt lat="41.337645" lon="-122.259032">
      <ele>1780.959961</ele>
      <time>2020-08-15T17:48:37Z</time>
    </trkpt>
    <trkpt lat="41.338049" lon="-122.259308">
      <ele>1784.030029</ele>
      <time>2020-08-15T17:48:41Z</time>
    </trkpt>
    <trkpt lat="41.338478" lon="-122.259803">
      <ele>1787.050049</ele>
      <time>2020-08-15T17:48:47Z</time>
    </trkpt>
    <trkpt lat="41.339105" lon="-122.259946">
      <ele>1790.199951</ele>
      <time>2020-08-15T17:48:54Z</time>
    </trkpt>
    <trkpt lat="41.339293" lon="-122.259396">
      <ele>1792.010010</ele>
      <time>2020-08-15T17:48:59Z</time>
    </trkpt>
    <trkpt lat="41.338999" lon="-122.258892">
      <ele>1794.829956</ele>
      <time>2020-08-15T17:49:04Z</time>
    </trkpt>
    <trkpt lat="41.338900" lon="-122.258838">
      <ele>1795.439941</ele>
      <time>2020-08-15T17:49:05Z</time>
    </trkpt>
    <trkpt lat="41.338336" lon="-122.258625">
      <ele>1799.079956</ele>
      <time>2020-08-15T17:49:11Z</time>
    </trkpt>
    <trkpt lat="41.337997" lon="-122.258416">
      <ele>1802.170044</ele>
      <time>2020-08-15T17:49:15Z</time>
    </trkpt>
    <trkpt lat="41.337822" lon="-122.258281">
      <ele>1803.459961</ele>
      <time>2020-08-15T17:49:17Z</time>
    </trkpt>
    <trkpt lat="41.337496" lon="-122.257936">
      <ele>1805.920044</ele>
      <time>2020-08-15T17:49:21Z</time>
    </trkpt>
    <trkpt lat="41.337132" lon="-122.257351">
      <ele>1808.520020</ele>
      <time>2020-08-15T17:49:26Z</time>
    </trkpt>
    <trkpt lat="41.337070" lon="-122.257216">
      <ele>1809.369995</ele>
      <time>2020-08-15T17:49:27Z</time>
    </trkpt>
    <trkpt lat="41.336727" lon="-122.256033">
      <ele>1813.219971</ele>
      <time>2020-08-15T17:49:35Z</time>
    </trkpt>
    <trkpt lat="41.336684" lon="-122.255892">
      <ele>1813.670044</ele>
      <time>2020-08-15T17:49:36Z</time>
    </trkpt>
    <trkpt lat="41.336415" lon="-122.255386">
      <ele>1815.650024</ele>
      <time>2020-08-15T17:49:40Z</time>
    </trkpt>
    <trkpt lat="41.335915" lon="-122.254785">
      <ele>1819.420044</ele>
      <time>2020-08-15T17:49:46Z</time>
    </trkpt>
    <trkpt lat="41.335648" lon="-122.254296">
      <ele>1822.479980</ele>
      <time>2020-08-15T17:49:50Z</time>
    </trkpt>
    <trkpt lat="41.335410" lon="-122.253749">
      <ele>1825.750000</ele>
      <time>2020-08-15T17:49:54Z</time>
    </trkpt>
    <trkpt lat="41.335220" lon="-122.253185">
      <ele>1827.900024</ele>
      <time>2020-08-15T17:49:58Z</time>
    </trkpt>
    <trkpt lat="41.335388" lon="-122.251977">
      <ele>1830.719971</ele>
      <time>2020-08-15T17:50:06Z</time>
    </trkpt>
    <trkpt lat="41.335449" lon="-122.251839">
      <ele>1831.060059</ele>
      <time>2020-08-15T17:50:07Z</time>
    </trkpt>
    <trkpt lat="41.335937" lon="-122.251186">
      <ele>1834.609985</ele>
      <time>2020-08-15T17:50:13Z</time>
    </trkpt>
    <trkpt lat="41.336357" lon="-122.250933">
      <ele>1838.939941</ele>
      <time>2020-08-15T17:50:17Z</time>
    </trkpt>
    <trkpt lat="41.336838" lon="-122.250820">
      <ele>1842.449951</ele>
      <time>2020-08-15T17:50:21Z</time>
    </trkpt>
    <trkpt lat="41.337282" lon="-122.250758">
      <ele>1846.500000</ele>
      <time>2020-08-15T17:50:25Z</time>
    </trkpt>
    <trkpt lat="41.337581" lon="-122.250734">
      <ele>1849.939941</ele>
      <time>2020-08-15T17:50:28Z</time>
    </trkpt>
    <trkpt lat="41.338047" lon="-122.250688">
      <ele>1853.030029</ele>
      <time>2020-08-15T17:50:32Z</time>
    </trkpt>
    <trkpt lat="41.339301" lon="-122.250507">
      <ele>1855.380005</ele>
      <time>2020-08-15T17:50:41Z</time>
    </trkpt>
    <trkpt lat="41.339613" lon="-122.250403">
      <ele>1858.819946</ele>
      <time>2020-08-15T17:50:44Z</time>
    </trkpt>
    <trkpt lat="41.340040" lon="-122.250335">
      <ele>1863.430054</ele>
      <time>2020-08-15T17:50:48Z</time>
    </trkpt>
    <trkpt lat="41.340256" lon="-122.250298">
      <ele>1865.359985</ele>
      <time>2020-08-15T17:50:50Z</time>
    </trkpt>
    <trkpt lat="41.340579" lon="-122.250237">
      <ele>1868.650024</ele>
      <time>2020-08-15T17:50:53Z</time>
    </trkpt>
    <trkpt lat="41.340888" lon="-122.250162">
      <ele>1870.780029</ele>
      <time>2020-08-15T17:50:56Z</time>
    </trkpt>
    <trkpt lat="41.341382" lon="-122.249554">
      <ele>1874.819946</ele>
      <time>2020-08-15T17:51:03Z</time>
    </trkpt>
    <trkpt lat="41.341400" lon="-122.248859">
      <ele>1878.270020</ele>
      <time>2020-08-15T17:51:08Z</time>
    </trkpt>
    <trkpt lat="41.341365" lon="-122.248721">
      <ele>1879.040039</ele>
      <time>2020-08-15T17:51:09Z</time>
    </trkpt>
    <trkpt lat="41.341276" lon="-122.248318">
      <ele>1881.250000</ele>
      <time>2020-08-15T17:51:12Z</time>
    </trkpt>
    <trkpt lat="41.341264" lon="-122.248042">
      <ele>1882.699951</ele>
      <time>2020-08-15T17:51:14Z</time>
    </trkpt>
    <trkpt lat="41.341467" lon="-122.247577">
      <ele>1886.349976</ele>
      <time>2020-08-15T17:51:18Z</time>
    </trkpt>
    <trkpt lat="41.342029" lon="-122.247526">
      <ele>1889.420044</ele>
      <time>2020-08-15T17:51:23Z</time>
    </trkpt>
    <trkpt lat="41.342271" lon="-122.248095">
      <ele>1892.130005</ele>
      <time>2020-08-15T17:51:27Z</time>
    </trkpt>
    <trkpt lat="41.342286" lon="-122.248254">
      <ele>1892.829956</ele>
      <time>2020-08-15T17:51:28Z</time>
    </trkpt>
    <trkpt lat="41.342380" lon="-122.249044">
      <ele>1896.589966</ele>
      <time>2020-08-15T17:51:33Z</time>
    </trkpt>
    <trkpt lat="41.342601" lon="-122.249751">
      <ele>1900.939941</ele>
      <time>2020-08-15T17:51:38Z</time>
    </trkpt>
    <trkpt lat="41.342808" lon="-122.250291">
      <ele>1903.939941</ele>
      <time>2020-08-15T17:51:42Z</time>
    </trkpt>
    <trkpt lat="41.342966" lon="-122.250699">
      <ele>1907.050049</ele>
      <time>2020-08-15T17:51:45Z</time>
    </trkpt>
    <trkpt lat="41.343242" lon="-122.251384">
      <ele>1910.680054</ele>
      <time>2020-08-15T17:51:50Z</time>
    </trkpt>
    <trkpt lat="41.343515" lon="-122.252069">
      <ele>1914.150024</ele>
      <time>2020-08-15T17:51:55Z</time>
    </trkpt>
    <trkpt lat="41.343801" lon="-122.252720">
      <ele>1917.670044</ele>
      <time>2020-08-15T17:52:00Z</time>
    </trkpt>
    <trkpt lat="41.344224" lon="-122.253123">
      <ele>1921.920044</ele>
      <time>2020-08-15T17:52:05Z</time>
    </trkpt>
    <trkpt lat="41.344528" lon="-122.253194">
      <ele>1924.270020</ele>
      <time>2020-08-15T17:52:08Z</time>
    </trkpt>
    <trkpt lat="41.344735" lon="-122.253180">
      <ele>1925.910034</ele>
      <time>2020-08-15T17:52:10Z</time>
    </trkpt>
    <trkpt lat="41.345101" lon="-122.252957">
      <ele>1927.239990</ele>
      <time>2020-08-15T17:52:14Z</time>
    </trkpt>
    <trkpt lat="41.345367" lon="-122.252543">
      <ele>1930.599976</ele>
      <time>2020-08-15T17:52:19Z</time>
    </trkpt>
    <trkpt lat="41.345435" lon="-122.252338">
      <ele>1932.209961</ele>
      <time>2020-08-15T17:52:21Z</time>
    </trkpt>
    <trkpt lat="41.345507" lon="-122.251518">
      <ele>1936.390015</ele>
      <time>2020-08-15T17:52:28Z</time>
    </trkpt>
    <trkpt lat="41.345496" lon="-122.250551">
      <ele>1939.839966</ele>
      <time>2020-08-15T17:52:36Z</time>
    </trkpt>
    <trkpt lat="41.345496" lon="-122.250304">
      <ele>1941.150024</ele>
      <time>2020-08-15T17:52:38Z</time>
    </trkpt>
    <trkpt lat="41.345658" lon="-122.249391">
      <ele>1945.660034</ele>
      <time>2020-08-15T17:52:45Z</time>
    </trkpt>
    <trkpt lat="41.345994" lon="-122.248817">
      <ele>1949.750000</ele>
      <time>2020-08-15T17:52:50Z</time>
    </trkpt>
    <trkpt lat="41.346116" lon="-122.248580">
      <ele>1951.189941</ele>
      <time>2020-08-15T17:52:52Z</time>
    </trkpt>
    <trkpt lat="41.346229" lon="-122.248186">
      <ele>1953.050049</ele>
      <time>2020-08-15T17:52:55Z</time>
    </trkpt>
    <trkpt lat="41.346188" lon="-122.247623">
      <ele>1956.579956</ele>
      <time>2020-08-15T17:52:59Z</time>
    </trkpt>
    <trkpt lat="41.345983" lon="-122.247245">
      <ele>1958.939941</ele>
      <time>2020-08-15T17:53:02Z</time>
    </trkpt>
    <trkpt lat="41.345728" lon="-122.246896">
      <ele>1960.900024</ele>
      <time>2020-08-15T17:53:05Z</time>
    </trkpt>
    <trkpt lat="41.345576" lon="-122.246650">
      <ele>1962.290039</ele>
      <time>2020-08-15T17:53:07Z</time>
    </trkpt>
    <trkpt lat="41.345411" lon="-122.245928">
      <ele>1966.900024</ele>
      <time>2020-08-15T17:53:12Z</time>
    </trkpt>
    <trkpt lat="41.345426" lon="-122.245766">
      <ele>1967.819946</ele>
      <time>2020-08-15T17:53:13Z</time>
    </trkpt>
    <trkpt lat="41.345457" lon="-122.245444">
      <ele>1969.180054</ele>
      <time>2020-08-15T17:53:15Z</time>
    </trkpt>
    <trkpt lat="41.345388" lon="-122.244804">
      <ele>1971.079956</ele>
      <time>2020-08-15T17:53:20Z</time>
    </trkpt>
    <trkpt lat="41.345299" lon="-122.244603">
      <ele>1976.939941</ele>
      <time>2020-08-15T17:53:24Z</time>
    </trkpt>
    <trkpt lat="41.345262" lon="-122.244498">
      <ele>1980.979980</ele>
      <time>2020-08-15T17:53:27Z</time>
    </trkpt>
    <trkpt lat="41.345279" lon="-122.244337">
      <ele>1984.280029</ele>
      <time>2020-08-15T17:53:31Z</time>
    </trkpt>
    <trkpt lat="41.345331" lon="-122.244006">
      <ele>1987.599976</ele>
      <time>2020-08-15T17:53:38Z</time>
    </trkpt>
    <trkpt lat="41.345341" lon="-122.243959">
      <ele>1987.959961</ele>
      <time>2020-08-15T17:53:39Z</time>
    </trkpt>
    <trkpt lat="41.345453" lon="-122.243698">
      <ele>1989.790039</ele>
      <time>2020-08-15T17:53:44Z</time>
    </trkpt>
    <trkpt lat="41.345572" lon="-122.243532">
      <ele>1990.650024</ele>
      <time>2020-08-15T17:53:47Z</time>
    </trkpt>
    <trkpt lat="41.346003" lon="-122.243319">
      <ele>1993.239990</ele>
      <time>2020-08-15T17:53:54Z</time>
    </trkpt>
    <trkpt lat="41.346857" lon="-122.243441">
      <ele>1996.869995</ele>
      <time>2020-08-15T17:54:04Z</time>
    </trkpt>
    <trkpt lat="41.347285" lon="-122.243355">
      <ele>1999.109985</ele>
      <time>2020-08-15T17:54:09Z</time>
    </trkpt>
    <trkpt lat="41.347519" lon="-122.243214">
      <ele>2000.640015</ele>
      <time>2020-08-15T17:54:12Z</time>
    </trkpt>
    <trkpt lat="41.347785" lon="-122.242934">
      <ele>2003.900024</ele>
      <time>2020-08-15T17:54:16Z</time>
    </trkpt>
    <trkpt lat="41.348314" lon="-122.242127">
      <ele>2007.609985</ele>
      <time>2020-08-15T17:54:25Z</time>
    </trkpt>
    <trkpt lat="41.348968" lon="-122.241116">
      <ele>2010.680054</ele>
      <time>2020-08-15T17:54:36Z</time>
    </trkpt>
    <trkpt lat="41.349076" lon="-122.240948">
      <ele>2012.199951</ele>
      <time>2020-08-15T17:54:38Z</time>
    </trkpt>
    <trkpt lat="41.349320" lon="-122.240624">
      <ele>2015.949951</ele>
      <time>2020-08-15T17:54:42Z</time>
    </trkpt>
    <trkpt lat="41.349678" lon="-122.240300">
      <ele>2019.839966</ele>
      <time>2020-08-15T17:54:47Z</time>
    </trkpt>
    <trkpt lat="41.350130" lon="-122.239928">
      <ele>2023.300049</ele>
      <time>2020-08-15T17:54:53Z</time>
    </trkpt>
    <trkpt lat="41.350545" lon="-122.239466">
      <ele>2026.489990</ele>
      <time>2020-08-15T17:54:59Z</time>
    </trkpt>
    <trkpt lat="41.351178" lon="-122.238707">
      <ele>2029.689941</ele>
      <time>2020-08-15T17:55:08Z</time>
    </trkpt>
    <trkpt lat="41.351585" lon="-122.237820">
      <ele>2032.890015</ele>
      <time>2020-08-15T17:55:16Z</time>
    </trkpt>
    <trkpt lat="41.351703" lon="-122.237014">
      <ele>2036.489990</ele>
      <time>2020-08-15T17:55:22Z</time>
    </trkpt>
    <trkpt lat="41.351743" lon="-122.236440">
      <ele>2039.819946</ele>
      <time>2020-08-15T17:55:26Z</time>
    </trkpt>
    <trkpt lat="41.351862" lon="-122.235890">
      <ele>2042.920044</ele>
      <time>2020-08-15T17:55:30Z</time>
    </trkpt>
    <trkpt lat="41.352061" lon="-122.235384">
      <ele>2046.290039</ele>
      <time>2020-08-15T17:55:34Z</time>
    </trkpt>
    <trkpt lat="41.352193" lon="-122.235158">
      <ele>2047.729980</ele>
      <time>2020-08-15T17:55:36Z</time>
    </trkpt>
    <trkpt lat="41.352500" lon="-122.234783">
      <ele>2049.879883</ele>
      <time>2020-08-15T17:55:40Z</time>
    </trkpt>
    <trkpt lat="41.353025" lon="-122.234358">
      <ele>2054.129883</ele>
      <time>2020-08-15T17:55:46Z</time>
    </trkpt>
    <trkpt lat="41.353542" lon="-122.233994">
      <ele>2056.939941</ele>
      <time>2020-08-15T17:55:52Z</time>
    </trkpt>
    <trkpt lat="41.353887" lon="-122.233480">
      <ele>2061.370117</ele>
      <time>2020-08-15T17:55:58Z</time>
    </trkpt>
    <trkpt lat="41.353920" lon="-122.233381">
      <ele>2062.139893</ele>
      <time>2020-08-15T17:55:59Z</time>
    </trkpt>
    <trkpt lat="41.353988" lon="-122.232767">
      <ele>2066.760010</ele>
      <time>2020-08-15T17:56:05Z</time>
    </trkpt>
    <trkpt lat="41.353823" lon="-122.232245">
      <ele>2069.159912</ele>
      <time>2020-08-15T17:56:10Z</time>
    </trkpt>
    <trkpt lat="41.353289" lon="-122.231579">
      <ele>2072.699951</ele>
      <time>2020-08-15T17:56:18Z</time>
    </trkpt>
    <trkpt lat="41.353007" lon="-122.231258">
      <ele>2074.409912</ele>
      <time>2020-08-15T17:56:22Z</time>
    </trkpt>
    <trkpt lat="41.352773" lon="-122.230511">
      <ele>2078.429932</ele>
      <time>2020-08-15T17:56:29Z</time>
    </trkpt>
    <trkpt lat="41.353010" lon="-122.229861">
      <ele>2081.540039</ele>
      <time>2020-08-15T17:56:35Z</time>
    </trkpt>
    <trkpt lat="41.353407" lon="-122.229286">
      <ele>2085.939941</ele>
      <time>2020-08-15T17:56:41Z</time>
    </trkpt>
    <trkpt lat="41.353460" lon="-122.229178">
      <ele>2086.939941</ele>
      <time>2020-08-15T17:56:42Z</time>
    </trkpt>
    <trkpt lat="41.353618" lon="-122.228501">
      <ele>2091.780029</ele>
      <time>2020-08-15T17:56:48Z</time>
    </trkpt>
    <trkpt lat="41.353657" lon="-122.227935">
      <ele>2094.879883</ele>
      <time>2020-08-15T17:56:53Z</time>
    </trkpt>
    <trkpt lat="41.353682" lon="-122.227354">
      <ele>2098.050049</ele>
      <time>2020-08-15T17:56:58Z</time>
    </trkpt>
    <trkpt lat="41.353779" lon="-122.226554">
      <ele>2101.189941</ele>
      <time>2020-08-15T17:57:05Z</time>
    </trkpt>
    <trkpt lat="41.353806" lon="-122.226446">
      <ele>2101.860107</ele>
      <time>2020-08-15T17:57:06Z</time>
    </trkpt>
    <trkpt lat="41.353929" lon="-122.226146">
      <ele>2104.360107</ele>
      <time>2020-08-15T17:57:09Z</time>
    </trkpt>
    <trkpt lat="41.354332" lon="-122.225691">
      <ele>2108.000000</ele>
      <time>2020-08-15T17:57:15Z</time>
    </trkpt>
    <trkpt lat="41.354874" lon="-122.225438">
      <ele>2112.419922</ele>
      <time>2020-08-15T17:57:21Z</time>
    </trkpt>
    <trkpt lat="41.355249" lon="-122.225263">
      <ele>2115.409912</ele>
      <time>2020-08-15T17:57:25Z</time>
    </trkpt>
    <trkpt lat="41.355650" lon="-122.224729">
      <ele>2119.709961</ele>
      <time>2020-08-15T17:57:31Z</time>
    </trkpt>
    <trkpt lat="41.355694" lon="-122.224615">
      <ele>2119.709961</ele>
      <time>2020-08-15T17:57:32Z</time>
    </trkpt>
    <trkpt lat="41.355732" lon="-122.224496">
      <ele>2120.830078</ele>
      <time>2020-08-15T17:57:33Z</time>
    </trkpt>
    <trkpt lat="41.355917" lon="-122.223634">
      <ele>2124.389893</ele>
      <time>2020-08-15T17:57:40Z</time>
    </trkpt>
    <trkpt lat="41.356333" lon="-122.222625">
      <ele>2128.040039</ele>
      <time>2020-08-15T17:57:49Z</time>
    </trkpt>
    <trkpt lat="41.356631" lon="-122.222007">
      <ele>2131.389893</ele>
      <time>2020-08-15T17:57:55Z</time>
    </trkpt>
    <trkpt lat="41.356681" lon="-122.221909">
      <ele>2131.389893</ele>
      <time>2020-08-15T17:57:56Z</time>
    </trkpt>
    <trkpt lat="41.356867" lon="-122.221492">
      <ele>2134.489990</ele>
      <time>2020-08-15T17:58:00Z</time>
    </trkpt>
    <trkpt lat="41.357111" lon="-122.220841">
      <ele>2137.850098</ele>
      <time>2020-08-15T17:58:06Z</time>
    </trkpt>
    <trkpt lat="41.357125" lon="-122.220227">
      <ele>2141.209961</ele>
      <time>2020-08-15T17:58:11Z</time>
    </trkpt>
    <trkpt lat="41.356987" lon="-122.219489">
      <ele>2144.919922</ele>
      <time>2020-08-15T17:58:17Z</time>
    </trkpt>
    <trkpt lat="41.356840" lon="-122.218806">
      <ele>2148.270020</ele>
      <time>2020-08-15T17:58:23Z</time>
    </trkpt>
    <trkpt lat="41.356656" lon="-122.217899">
      <ele>2151.669922</ele>
      <time>2020-08-15T17:58:31Z</time>
    </trkpt>
    <trkpt lat="41.356508" lon="-122.217178">
      <ele>2154.969971</ele>
      <time>2020-08-15T17:58:37Z</time>
    </trkpt>
    <trkpt lat="41.356459" lon="-122.216933">
      <ele>2156.300049</ele>
      <time>2020-08-15T17:58:39Z</time>
    </trkpt>
    <trkpt lat="41.356428" lon="-122.216690">
      <ele>2157.580078</ele>
      <time>2020-08-15T17:58:41Z</time>
    </trkpt>
    <trkpt lat="41.356422" lon="-122.215842">
      <ele>2161.669922</ele>
      <time>2020-08-15T17:58:48Z</time>
    </trkpt>
    <trkpt lat="41.356430" lon="-122.215122">
      <ele>2165.050049</ele>
      <time>2020-08-15T17:58:54Z</time>
    </trkpt>
    <trkpt lat="41.356417" lon="-122.215000">
      <ele>2165.699951</ele>
      <time>2020-08-15T17:58:55Z</time>
    </trkpt>
    <trkpt lat="41.356262" lon="-122.214409">
      <ele>2169.350098</ele>
      <time>2020-08-15T17:59:00Z</time>
    </trkpt>
    <trkpt lat="41.356131" lon="-122.214053">
      <ele>2170.969971</ele>
      <time>2020-08-15T17:59:03Z</time>
    </trkpt>
    <trkpt lat="41.356036" lon="-122.213416">
      <ele>2173.750000</ele>
      <time>2020-08-15T17:59:08Z</time>
    </trkpt>
    <trkpt lat="41.356044" lon="-122.212730">
      <ele>2177.489990</ele>
      <time>2020-08-15T17:59:13Z</time>
    </trkpt>
    <trkpt lat="41.356093" lon="-122.212039">
      <ele>2181.090088</ele>
      <time>2020-08-15T17:59:18Z</time>
    </trkpt>
    <trkpt lat="41.356115" lon="-122.211525">
      <ele>2184.120117</ele>
      <time>2020-08-15T17:59:22Z</time>
    </trkpt>
    <trkpt lat="41.356151" lon="-122.211077">
      <ele>2187.189941</ele>
      <time>2020-08-15T17:59:26Z</time>
    </trkpt>
    <trkpt lat="41.356178" lon="-122.210638">
      <ele>2190.310059</ele>
      <time>2020-08-15T17:59:30Z</time>
    </trkpt>
    <trkpt lat="41.356236" lon="-122.210086">
      <ele>2193.320068</ele>
      <time>2020-08-15T17:59:35Z</time>
    </trkpt>
    <trkpt lat="41.356281" lon="-122.209505">
      <ele>2196.389893</ele>
      <time>2020-08-15T17:59:40Z</time>
    </trkpt>
    <trkpt lat="41.356314" lon="-122.209019">
      <ele>2197.570068</ele>
      <time>2020-08-15T17:59:44Z</time>
    </trkpt>
    <trkpt lat="41.355995" lon="-122.208093">
      <ele>2200.469971</ele>
      <time>2020-08-15T17:59:52Z</time>
    </trkpt>
    <trkpt lat="41.355927" lon="-122.207993">
      <ele>2200.899902</ele>
      <time>2020-08-15T17:59:53Z</time>
    </trkpt>
    <trkpt lat="41.355742" lon="-122.207697">
      <ele>2202.110107</ele>
      <time>2020-08-15T17:59:56Z</time>
    </trkpt>
    <trkpt lat="41.355555" lon="-122.207123">
      <ele>2205.500000</ele>
      <time>2020-08-15T18:00:01Z</time>
    </trkpt>
    <trkpt lat="41.355535" lon="-122.206188">
      <ele>2208.719971</ele>
      <time>2020-08-15T18:00:08Z</time>
    </trkpt>
    <trkpt lat="41.355305" lon="-122.205070">
      <ele>2212.399902</ele>
      <time>2020-08-15T18:00:17Z</time>
    </trkpt>
    <trkpt lat="41.355129" lon="-122.204515">
      <ele>2215.860107</ele>
      <time>2020-08-15T18:00:22Z</time>
    </trkpt>
    <trkpt lat="41.355105" lon="-122.204400">
      <ele>2216.350098</ele>
      <time>2020-08-15T18:00:23Z</time>
    </trkpt>
    <trkpt lat="41.355093" lon="-122.204050">
      <ele>2217.919922</ele>
      <time>2020-08-15T18:00:26Z</time>
    </trkpt>
    <trkpt lat="41.355099" lon="-122.203931">
      <ele>2219.129883</ele>
      <time>2020-08-15T18:00:27Z</time>
    </trkpt>
    <trkpt lat="41.355275" lon="-122.203134">
      <ele>2223.120117</ele>
      <time>2020-08-15T18:00:34Z</time>
    </trkpt>
    <trkpt lat="41.355341" lon="-122.202794">
      <ele>2224.669922</ele>
      <time>2020-08-15T18:00:37Z</time>
    </trkpt>
    <trkpt lat="41.355293" lon="-122.201827">
      <ele>2228.600098</ele>
      <time>2020-08-15T18:00:46Z</time>
    </trkpt>
    <trkpt lat="41.355281" lon="-122.201723">
      <ele>2229.419922</ele>
      <time>2020-08-15T18:00:47Z</time>
    </trkpt>
    <trkpt lat="41.355292" lon="-122.201405">
      <ele>2231.850098</ele>
      <time>2020-08-15T18:00:50Z</time>
    </trkpt>
    <trkpt lat="41.355306" lon="-122.201298">
      <ele>2233.459961</ele>
      <time>2020-08-15T18:00:51Z</time>
    </trkpt>
    <trkpt lat="41.355603" lon="-122.200796">
      <ele>2237.169922</ele>
      <time>2020-08-15T18:00:57Z</time>
    </trkpt>
    <trkpt lat="41.356042" lon="-122.200772">
      <ele>2240.080078</ele>
      <time>2020-08-15T18:01:02Z</time>
    </trkpt>
    <trkpt lat="41.356409" lon="-122.201166">
      <ele>2243.110107</ele>
      <time>2020-08-15T18:01:07Z</time>
    </trkpt>
    <trkpt lat="41.356473" lon="-122.201411">
      <ele>2244.189941</ele>
      <time>2020-08-15T18:01:09Z</time>
    </trkpt>
    <trkpt lat="41.356643" lon="-122.202322">
      <ele>2246.719971</ele>
      <time>2020-08-15T18:01:16Z</time>
    </trkpt>
    <trkpt lat="41.356941" lon="-122.202829">
      <ele>2249.489990</ele>
      <time>2020-08-15T18:01:21Z</time>
    </trkpt>
    <trkpt lat="41.357342" lon="-122.203161">
      <ele>2253.659912</ele>
      <time>2020-08-15T18:01:26Z</time>
    </trkpt>
    <trkpt lat="41.357415" lon="-122.203227">
      <ele>2254.399902</ele>
      <time>2020-08-15T18:01:27Z</time>
    </trkpt>
    <trkpt lat="41.357668" lon="-122.203703">
      <ele>2257.340088</ele>
      <time>2020-08-15T18:01:32Z</time>
    </trkpt>
    <trkpt lat="41.357769" lon="-122.204406">
      <ele>2260.449951</ele>
      <time>2020-08-15T18:01:38Z</time>
    </trkpt>
    <trkpt lat="41.357834" lon="-122.204829">
      <ele>2262.120117</ele>
      <time>2020-08-15T18:01:41Z</time>
    </trkpt>
    <trkpt lat="41.358302" lon="-122.205512">
      <ele>2265.659912</ele>
      <time>2020-08-15T18:01:48Z</time>
    </trkpt>
    <trkpt lat="41.358645" lon="-122.205561">
      <ele>2269.340088</ele>
      <time>2020-08-15T18:01:52Z</time>
    </trkpt>
    <trkpt lat="41.358980" lon="-122.205424">
      <ele>2272.770020</ele>
      <time>2020-08-15T18:01:56Z</time>
    </trkpt>
    <trkpt lat="41.359238" lon="-122.205101">
      <ele>2275.850098</ele>
      <time>2020-08-15T18:02:00Z</time>
    </trkpt>
    <trkpt lat="41.359384" lon="-122.204479">
      <ele>2279.610107</ele>
      <time>2020-08-15T18:02:06Z</time>
    </trkpt>
    <trkpt lat="41.359383" lon="-122.204284">
      <ele>2280.469971</ele>
      <time>2020-08-15T18:02:08Z</time>
    </trkpt>
    <trkpt lat="41.359276" lon="-122.203718">
      <ele>2284.030029</ele>
      <time>2020-08-15T18:02:14Z</time>
    </trkpt>
    <trkpt lat="41.359100" lon="-122.202753">
      <ele>2287.530029</ele>
      <time>2020-08-15T18:02:23Z</time>
    </trkpt>
    <trkpt lat="41.359243" lon="-122.202219">
      <ele>2291.540039</ele>
      <time>2020-08-15T18:02:28Z</time>
    </trkpt>
    <trkpt lat="41.359308" lon="-122.202149">
      <ele>2291.540039</ele>
      <time>2020-08-15T18:02:29Z</time>
    </trkpt>
    <trkpt lat="41.359530" lon="-122.202019">
      <ele>2294.540039</ele>
      <time>2020-08-15T18:02:32Z</time>
    </trkpt>
    <trkpt lat="41.359757" lon="-122.202035">
      <ele>2296.290039</ele>
      <time>2020-08-15T18:02:35Z</time>
    </trkpt>
    <trkpt lat="41.359951" lon="-122.202177">
      <ele>2298.709961</ele>
      <time>2020-08-15T18:02:38Z</time>
    </trkpt>
    <trkpt lat="41.360163" lon="-122.202422">
      <ele>2302.280029</ele>
      <time>2020-08-15T18:02:42Z</time>
    </trkpt>
    <trkpt lat="41.360238" lon="-122.202561">
      <ele>2303.570068</ele>
      <time>2020-08-15T18:02:44Z</time>
    </trkpt>
    <trkpt lat="41.360477" lon="-122.203069">
      <ele>2307.739990</ele>
      <time>2020-08-15T18:02:51Z</time>
    </trkpt>
    <trkpt lat="41.360585" lon="-122.203271">
      <ele>2309.550049</ele>
      <time>2020-08-15T18:02:54Z</time>
    </trkpt>
    <trkpt lat="41.360907" lon="-122.203291">
      <ele>2313.020020</ele>
      <time>2020-08-15T18:03:00Z</time>
    </trkpt>
    <trkpt lat="41.360940" lon="-122.202873">
      <ele>2316.320068</ele>
      <time>2020-08-15T18:03:05Z</time>
    </trkpt>
    <trkpt lat="41.360738" lon="-122.202016">
      <ele>2319.540039</ele>
      <time>2020-08-15T18:03:14Z</time>
    </trkpt>
    <trkpt lat="41.360649" lon="-122.201282">
      <ele>2322.840088</ele>
      <time>2020-08-15T18:03:22Z</time>
    </trkpt>
    <trkpt lat="41.360649" lon="-122.201187">
      <ele>2323.280029</ele>
      <time>2020-08-15T18:03:23Z</time>
    </trkpt>
    <trkpt lat="41.360788" lon="-122.200460">
      <ele>2327.250000</ele>
      <time>2020-08-15T18:03:31Z</time>
    </trkpt>
    <trkpt lat="41.360873" lon="-122.200037">
      <ele>2330.239990</ele>
      <time>2020-08-15T18:03:36Z</time>
    </trkpt>
    <trkpt lat="41.361252" lon="-122.199816">
      <ele>2334.750000</ele>
      <time>2020-08-15T18:03:45Z</time>
    </trkpt>
    <trkpt lat="41.361386" lon="-122.200132">
      <ele>2338.050049</ele>
      <time>2020-08-15T18:03:50Z</time>
    </trkpt>
    <trkpt lat="41.361426" lon="-122.200492">
      <ele>2340.870117</ele>
      <time>2020-08-15T18:03:55Z</time>
    </trkpt>
    <trkpt lat="41.361540" lon="-122.200832">
      <ele>2343.560059</ele>
      <time>2020-08-15T18:04:04Z</time>
    </trkpt>
    <trkpt lat="41.361427" lon="-122.200806">
      <ele>2344.300049</ele>
      <time>2020-08-15T18:04:11Z</time>
    </trkpt>
    <trkpt lat="41.361429" lon="-122.200763">
      <ele>2344.260010</ele>
      <time>2020-08-15T18:04:12Z</time>
    </trkpt>
    <trkpt lat="41.361378" lon="-122.200299">
      <ele>2343.310059</ele>
      <time>2020-08-15T18:04:23Z</time>
    </trkpt>
    <trkpt lat="41.361320" lon="-122.200078">
      <ele>2343.739990</ele>
      <time>2020-08-15T18:04:29Z</time>
    </trkpt>
    <trkpt lat="41.361003" lon="-122.199904">
      <ele>2342.030029</ele>
      <time>2020-08-15T18:04:37Z</time>
    </trkpt>
    <trkpt lat="41.360888" lon="-122.200123">
      <ele>2340.580078</ele>
      <time>2020-08-15T18:04:41Z</time>
    </trkpt>
    <trkpt lat="41.360810" lon="-122.200571">
      <ele>2338.669922</ele>
      <time>2020-08-15T18:04:47Z</time>
    </trkpt>
    <trkpt lat="41.360678" lon="-122.201223">
      <ele>2335.330078</ele>
      <time>2020-08-15T18:04:56Z</time>
    </trkpt>
    <trkpt lat="41.360680" lon="-122.201370">
      <ele>2334.500000</ele>
      <time>2020-08-15T18:04:58Z</time>
    </trkpt>
    <trkpt lat="41.360734" lon="-122.201940">
      <ele>2331.280029</ele>
      <time>2020-08-15T18:05:05Z</time>
    </trkpt>
    <trkpt lat="41.360887" lon="-122.202631">
      <ele>2327.989990</ele>
      <time>2020-08-15T18:05:13Z</time>
    </trkpt>
    <trkpt lat="41.360960" lon="-122.202973">
      <ele>2325.879883</ele>
      <time>2020-08-15T18:05:17Z</time>
    </trkpt>
    <trkpt lat="41.360801" lon="-122.203455">
      <ele>2322.830078</ele>
      <time>2020-08-15T18:05:25Z</time>
    </trkpt>
    <trkpt lat="41.360471" lon="-122.203218">
      <ele>2319.270020</ele>
      <time>2020-08-15T18:05:31Z</time>
    </trkpt>
    <trkpt lat="41.360144" lon="-122.202504">
      <ele>2314.639893</ele>
      <time>2020-08-15T18:05:40Z</time>
    </trkpt>
    <trkpt lat="41.360104" lon="-122.202430">
      <ele>2314.250000</ele>
      <time>2020-08-15T18:05:41Z</time>
    </trkpt>
    <trkpt lat="41.359857" lon="-122.202201">
      <ele>2311.360107</ele>
      <time>2020-08-15T18:05:46Z</time>
    </trkpt>
    <trkpt lat="41.359649" lon="-122.202099">
      <ele>2308.129883</ele>
      <time>2020-08-15T18:05:50Z</time>
    </trkpt>
    <trkpt lat="41.359205" lon="-122.202311">
      <ele>2304.449951</ele>
      <time>2020-08-15T18:05:59Z</time>
    </trkpt>
    <trkpt lat="41.359104" lon="-122.202887">
      <ele>2301.449951</ele>
      <time>2020-08-15T18:06:06Z</time>
    </trkpt>
    <trkpt lat="41.359122" lon="-122.203004">
      <ele>2301.159912</ele>
      <time>2020-08-15T18:06:07Z</time>
    </trkpt>
    <trkpt lat="41.359288" lon="-122.203801">
      <ele>2296.949951</ele>
      <time>2020-08-15T18:06:13Z</time>
    </trkpt>
    <trkpt lat="41.359384" lon="-122.204482">
      <ele>2293.639893</ele>
      <time>2020-08-15T18:06:18Z</time>
    </trkpt>
    <trkpt lat="41.359180" lon="-122.205256">
      <ele>2289.810059</ele>
      <time>2020-08-15T18:06:24Z</time>
    </trkpt>
    <trkpt lat="41.358719" lon="-122.205614">
      <ele>2285.939941</ele>
      <time>2020-08-15T18:06:29Z</time>
    </trkpt>
    <trkpt lat="41.358305" lon="-122.205591">
      <ele>2282.639893</ele>
      <time>2020-08-15T18:06:33Z</time>
    </trkpt>
    <trkpt lat="41.357955" lon="-122.205290">
      <ele>2278.919922</ele>
      <time>2020-08-15T18:06:37Z</time>
    </trkpt>
    <trkpt lat="41.357888" lon="-122.205180">
      <ele>2278.919922</ele>
      <time>2020-08-15T18:06:38Z</time>
    </trkpt>
    <trkpt lat="41.357742" lon="-122.204790">
      <ele>2275.770020</ele>
      <time>2020-08-15T18:06:41Z</time>
    </trkpt>
    <trkpt lat="41.357712" lon="-122.204647">
      <ele>2274.979980</ele>
      <time>2020-08-15T18:06:42Z</time>
    </trkpt>
    <trkpt lat="41.357591" lon="-122.203771">
      <ele>2270.439941</ele>
      <time>2020-08-15T18:06:48Z</time>
    </trkpt>
    <trkpt lat="41.357304" lon="-122.203192">
      <ele>2267.600098</ele>
      <time>2020-08-15T18:06:53Z</time>
    </trkpt>
    <trkpt lat="41.356780" lon="-122.202739">
      <ele>2264.929932</ele>
      <time>2020-08-15T18:06:59Z</time>
    </trkpt>
    <trkpt lat="41.356583" lon="-122.202446">
      <ele>2263.020020</ele>
      <time>2020-08-15T18:07:02Z</time>
    </trkpt>
    <trkpt lat="41.356431" lon="-122.201959">
      <ele>2259.580078</ele>
      <time>2020-08-15T18:07:06Z</time>
    </trkpt>
    <trkpt lat="41.356333" lon="-122.201358">
      <ele>2256.459961</ele>
      <time>2020-08-15T18:07:11Z</time>
    </trkpt>
    <trkpt lat="41.355919" lon="-122.200823">
      <ele>2253.989990</ele>
      <time>2020-08-15T18:07:18Z</time>
    </trkpt>
    <trkpt lat="41.355567" lon="-122.200884">
      <ele>2250.979980</ele>
      <time>2020-08-15T18:07:22Z</time>
    </trkpt>
    <trkpt lat="41.355304" lon="-122.201588">
      <ele>2248.570068</ele>
      <time>2020-08-15T18:07:28Z</time>
    </trkpt>
    <trkpt lat="41.355337" lon="-122.201885">
      <ele>2247.570068</ele>
      <time>2020-08-15T18:07:30Z</time>
    </trkpt>
    <trkpt lat="41.355400" lon="-122.202608">
      <ele>2244.909912</ele>
      <time>2020-08-15T18:07:35Z</time>
    </trkpt>
    <trkpt lat="41.355295" lon="-122.203281">
      <ele>2240.889893</ele>
      <time>2020-08-15T18:07:40Z</time>
    </trkpt>
    <trkpt lat="41.355161" lon="-122.203823">
      <ele>2237.570068</ele>
      <time>2020-08-15T18:07:45Z</time>
    </trkpt>
    <trkpt lat="41.355143" lon="-122.203926">
      <ele>2237.129883</ele>
      <time>2020-08-15T18:07:46Z</time>
    </trkpt>
    <trkpt lat="41.355155" lon="-122.204504">
      <ele>2235.840088</ele>
      <time>2020-08-15T18:07:51Z</time>
    </trkpt>
    <trkpt lat="41.355364" lon="-122.205244">
      <ele>2232.219971</ele>
      <time>2020-08-15T18:07:57Z</time>
    </trkpt>
    <trkpt lat="41.355524" lon="-122.205762">
      <ele>2230.649902</ele>
      <time>2020-08-15T18:08:01Z</time>
    </trkpt>
    <trkpt lat="41.355579" lon="-122.206887">
      <ele>2227.110107</ele>
      <time>2020-08-15T18:08:09Z</time>
    </trkpt>
    <trkpt lat="41.355606" lon="-122.207306">
      <ele>2225.250000</ele>
      <time>2020-08-15T18:08:12Z</time>
    </trkpt>
    <trkpt lat="41.355902" lon="-122.208013">
      <ele>2222.270020</ele>
      <time>2020-08-15T18:08:18Z</time>
    </trkpt>
    <trkpt lat="41.356247" lon="-122.208535">
      <ele>2219.820068</ele>
      <time>2020-08-15T18:08:23Z</time>
    </trkpt>
    <trkpt lat="41.356386" lon="-122.209359">
      <ele>2216.429932</ele>
      <time>2020-08-15T18:08:29Z</time>
    </trkpt>
    <trkpt lat="41.356310" lon="-122.210420">
      <ele>2212.340088</ele>
      <time>2020-08-15T18:08:36Z</time>
    </trkpt>
    <trkpt lat="41.356244" lon="-122.211195">
      <ele>2208.709961</ele>
      <time>2020-08-15T18:08:41Z</time>
    </trkpt>
    <trkpt lat="41.356162" lon="-122.211989">
      <ele>2205.479980</ele>
      <time>2020-08-15T18:08:46Z</time>
    </trkpt>
    <trkpt lat="41.356080" lon="-122.212949">
      <ele>2201.610107</ele>
      <time>2020-08-15T18:08:52Z</time>
    </trkpt>
    <trkpt lat="41.356065" lon="-122.213447">
      <ele>2199.360107</ele>
      <time>2020-08-15T18:08:55Z</time>
    </trkpt>
    <trkpt lat="41.356202" lon="-122.214268">
      <ele>2195.250000</ele>
      <time>2020-08-15T18:09:00Z</time>
    </trkpt>
    <trkpt lat="41.356406" lon="-122.214918">
      <ele>2191.590088</ele>
      <time>2020-08-15T18:09:04Z</time>
    </trkpt>
    <trkpt lat="41.356446" lon="-122.215076">
      <ele>2190.709961</ele>
      <time>2020-08-15T18:09:05Z</time>
    </trkpt>
    <trkpt lat="41.356498" lon="-122.215707">
      <ele>2185.659912</ele>
      <time>2020-08-15T18:09:09Z</time>
    </trkpt>
    <trkpt lat="41.356489" lon="-122.215862">
      <ele>2184.409912</ele>
      <time>2020-08-15T18:09:10Z</time>
    </trkpt>
    <trkpt lat="41.356444" lon="-122.216632">
      <ele>2180.280029</ele>
      <time>2020-08-15T18:09:15Z</time>
    </trkpt>
    <trkpt lat="41.356617" lon="-122.217719">
      <ele>2176.909912</ele>
      <time>2020-08-15T18:09:22Z</time>
    </trkpt>
    <trkpt lat="41.356780" lon="-122.218505">
      <ele>2173.790039</ele>
      <time>2020-08-15T18:09:27Z</time>
    </trkpt>
    <trkpt lat="41.356899" lon="-122.219139">
      <ele>2170.699951</ele>
      <time>2020-08-15T18:09:31Z</time>
    </trkpt>
    <trkpt lat="41.356935" lon="-122.219295">
      <ele>2170.699951</ele>
      <time>2020-08-15T18:09:32Z</time>
    </trkpt>
    <trkpt lat="41.357053" lon="-122.219915">
      <ele>2167.090088</ele>
      <time>2020-08-15T18:09:36Z</time>
    </trkpt>
    <trkpt lat="41.357124" lon="-122.220368">
      <ele>2164.770020</ele>
      <time>2020-08-15T18:09:39Z</time>
    </trkpt>
    <trkpt lat="41.357017" lon="-122.221231">
      <ele>2160.760010</ele>
      <time>2020-08-15T18:09:45Z</time>
    </trkpt>
    <trkpt lat="41.356962" lon="-122.221368">
      <ele>2160.219971</ele>
      <time>2020-08-15T18:09:46Z</time>
    </trkpt>
    <trkpt lat="41.356578" lon="-122.222206">
      <ele>2156.139893</ele>
      <time>2020-08-15T18:09:52Z</time>
    </trkpt>
    <trkpt lat="41.356379" lon="-122.222646">
      <ele>2152.169922</ele>
      <time>2020-08-15T18:09:55Z</time>
    </trkpt>
    <trkpt lat="41.356313" lon="-122.222795">
      <ele>2152.169922</ele>
      <time>2020-08-15T18:09:56Z</time>
    </trkpt>
    <trkpt lat="41.356118" lon="-122.223239">
      <ele>2149.149902</ele>
      <time>2020-08-15T18:09:59Z</time>
    </trkpt>
    <trkpt lat="41.355808" lon="-122.224157">
      <ele>2145.870117</ele>
      <time>2020-08-15T18:10:05Z</time>
    </trkpt>
    <trkpt lat="41.355652" lon="-122.224776">
      <ele>2143.389893</ele>
      <time>2020-08-15T18:10:09Z</time>
    </trkpt>
    <trkpt lat="41.355164" lon="-122.225463">
      <ele>2139.350098</ele>
      <time>2020-08-15T18:10:15Z</time>
    </trkpt>
    <trkpt lat="41.354938" lon="-122.225582">
      <ele>2137.760010</ele>
      <time>2020-08-15T18:10:17Z</time>
    </trkpt>
    <trkpt lat="41.354352" lon="-122.225856">
      <ele>2134.629883</ele>
      <time>2020-08-15T18:10:22Z</time>
    </trkpt>
    <trkpt lat="41.353842" lon="-122.226530">
      <ele>2129.989990</ele>
      <time>2020-08-15T18:10:28Z</time>
    </trkpt>
    <trkpt lat="41.353741" lon="-122.227008">
      <ele>2128.179932</ele>
      <time>2020-08-15T18:10:31Z</time>
    </trkpt>
    <trkpt lat="41.353653" lon="-122.227888">
      <ele>2124.229980</ele>
      <time>2020-08-15T18:10:36Z</time>
    </trkpt>
    <trkpt lat="41.353614" lon="-122.228422">
      <ele>2120.800049</ele>
      <time>2020-08-15T18:10:39Z</time>
    </trkpt>
    <trkpt lat="41.353563" lon="-122.228926">
      <ele>2117.330078</ele>
      <time>2020-08-15T18:10:42Z</time>
    </trkpt>
    <trkpt lat="41.353313" lon="-122.229634">
      <ele>2113.050049</ele>
      <time>2020-08-15T18:10:47Z</time>
    </trkpt>
    <trkpt lat="41.353227" lon="-122.229755">
      <ele>2111.659912</ele>
      <time>2020-08-15T18:10:48Z</time>
    </trkpt>
    <trkpt lat="41.352978" lon="-122.230115">
      <ele>2108.830078</ele>
      <time>2020-08-15T18:10:51Z</time>
    </trkpt>
    <trkpt lat="41.352839" lon="-122.230985">
      <ele>2104.669922</ele>
      <time>2020-08-15T18:10:57Z</time>
    </trkpt>
    <trkpt lat="41.353140" lon="-122.231504">
      <ele>2102.219971</ele>
      <time>2020-08-15T18:11:01Z</time>
    </trkpt>
    <trkpt lat="41.353623" lon="-122.232051">
      <ele>2098.379883</ele>
      <time>2020-08-15T18:11:06Z</time>
    </trkpt>
    <trkpt lat="41.353781" lon="-122.232265">
      <ele>2096.590088</ele>
      <time>2020-08-15T18:11:08Z</time>
    </trkpt>
    <trkpt lat="41.353946" lon="-122.232715">
      <ele>2094.270020</ele>
      <time>2020-08-15T18:11:12Z</time>
    </trkpt>
    <trkpt lat="41.353932" lon="-122.233421">
      <ele>2091.770020</ele>
      <time>2020-08-15T18:11:19Z</time>
    </trkpt>
    <trkpt lat="41.353828" lon="-122.233714">
      <ele>2090.330078</ele>
      <time>2020-08-15T18:11:23Z</time>
    </trkpt>
    <trkpt lat="41.353770" lon="-122.233819">
      <ele>2089.600098</ele>
      <time>2020-08-15T18:11:25Z</time>
    </trkpt>
    <trkpt lat="41.353623" lon="-122.234006">
      <ele>2088.520020</ele>
      <time>2020-08-15T18:11:28Z</time>
    </trkpt>
    <trkpt lat="41.353008" lon="-122.234483">
      <ele>2084.590088</ele>
      <time>2020-08-15T18:11:35Z</time>
    </trkpt>
    <trkpt lat="41.352716" lon="-122.234711">
      <ele>2081.290039</ele>
      <time>2020-08-15T18:11:38Z</time>
    </trkpt>
    <trkpt lat="41.352361" lon="-122.235069">
      <ele>2077.820068</ele>
      <time>2020-08-15T18:11:42Z</time>
    </trkpt>
    <trkpt lat="41.352065" lon="-122.235498">
      <ele>2074.199951</ele>
      <time>2020-08-15T18:11:46Z</time>
    </trkpt>
    <trkpt lat="41.351844" lon="-122.235996">
      <ele>2070.530029</ele>
      <time>2020-08-15T18:11:50Z</time>
    </trkpt>
    <trkpt lat="41.351680" lon="-122.236713">
      <ele>2067.310059</ele>
      <time>2020-08-15T18:11:55Z</time>
    </trkpt>
    <trkpt lat="41.351631" lon="-122.237492">
      <ele>2064.229980</ele>
      <time>2020-08-15T18:12:00Z</time>
    </trkpt>
    <trkpt lat="41.351578" lon="-122.237802">
      <ele>2063.139893</ele>
      <time>2020-08-15T18:12:02Z</time>
    </trkpt>
    <trkpt lat="41.351295" lon="-122.238547">
      <ele>2060.030029</ele>
      <time>2020-08-15T18:12:07Z</time>
    </trkpt>
    <trkpt lat="41.351064" lon="-122.238974">
      <ele>2057.610107</ele>
      <time>2020-08-15T18:12:10Z</time>
    </trkpt>
    <trkpt lat="41.350443" lon="-122.239705">
      <ele>2053.600098</ele>
      <time>2020-08-15T18:12:16Z</time>
    </trkpt>
    <trkpt lat="41.349863" lon="-122.240255">
      <ele>2050.409912</ele>
      <time>2020-08-15T18:12:21Z</time>
    </trkpt>
    <trkpt lat="41.349382" lon="-122.240660">
      <ele>2045.550049</ele>
      <time>2020-08-15T18:12:25Z</time>
    </trkpt>
    <trkpt lat="41.349270" lon="-122.240776">
      <ele>2045.550049</ele>
      <time>2020-08-15T18:12:26Z</time>
    </trkpt>
    <trkpt lat="41.348803" lon="-122.241447">
      <ele>2039.469971</ele>
      <time>2020-08-15T18:12:31Z</time>
    </trkpt>
    <trkpt lat="41.348055" lon="-122.242594">
      <ele>2035.989990</ele>
      <time>2020-08-15T18:12:40Z</time>
    </trkpt>
    <trkpt lat="41.347691" lon="-122.243109">
      <ele>2032.650024</ele>
      <time>2020-08-15T18:12:44Z</time>
    </trkpt>
    <trkpt lat="41.347100" lon="-122.243526">
      <ele>2027.699951</ele>
      <time>2020-08-15T18:12:49Z</time>
    </trkpt>
    <trkpt lat="41.346965" lon="-122.243556">
      <ele>2027.699951</ele>
      <time>2020-08-15T18:12:50Z</time>
    </trkpt>
    <trkpt lat="41.346699" lon="-122.243567">
      <ele>2023.500000</ele>
      <time>2020-08-15T18:12:52Z</time>
    </trkpt>
    <trkpt lat="41.346567" lon="-122.243554">
      <ele>2022.050049</ele>
      <time>2020-08-15T18:12:53Z</time>
    </trkpt>
    <trkpt lat="41.346177" lon="-122.243469">
      <ele>2018.500000</ele>
      <time>2020-08-15T18:12:56Z</time>
    </trkpt>
    <trkpt lat="41.345503" lon="-122.243685">
      <ele>2014.400024</ele>
      <time>2020-08-15T18:13:02Z</time>
    </trkpt>
    <trkpt lat="41.345323" lon="-122.244490">
      <ele>2012.260010</ele>
      <time>2020-08-15T18:13:07Z</time>
    </trkpt>
    <trkpt lat="41.345403" lon="-122.244835">
      <ele>2010.959961</ele>
      <time>2020-08-15T18:13:09Z</time>
    </trkpt>
    <trkpt lat="41.345500" lon="-122.245947">
      <ele>2006.359985</ele>
      <time>2020-08-15T18:13:15Z</time>
    </trkpt>
    <trkpt lat="41.345484" lon="-122.246134">
      <ele>2006.359985</ele>
      <time>2020-08-15T18:13:16Z</time>
    </trkpt>
    <trkpt lat="41.345539" lon="-122.246656">
      <ele>2002.650024</ele>
      <time>2020-08-15T18:13:19Z</time>
    </trkpt>
    <trkpt lat="41.345686" lon="-122.246947">
      <ele>2000.459961</ele>
      <time>2020-08-15T18:13:21Z</time>
    </trkpt>
    <trkpt lat="41.345968" lon="-122.247343">
      <ele>1997.260010</ele>
      <time>2020-08-15T18:13:24Z</time>
    </trkpt>
    <trkpt lat="41.346254" lon="-122.247938">
      <ele>1992.829956</ele>
      <time>2020-08-15T18:13:28Z</time>
    </trkpt>
    <trkpt lat="41.346196" lon="-122.248771">
      <ele>1988.099976</ele>
      <time>2020-08-15T18:13:33Z</time>
    </trkpt>
    <trkpt lat="41.345858" lon="-122.249376">
      <ele>1983.319946</ele>
      <time>2020-08-15T18:13:37Z</time>
    </trkpt>
    <trkpt lat="41.345714" lon="-122.249671">
      <ele>1980.819946</ele>
      <time>2020-08-15T18:13:39Z</time>
    </trkpt>
    <trkpt lat="41.345561" lon="-122.250345">
      <ele>1976.239990</ele>
      <time>2020-08-15T18:13:43Z</time>
    </trkpt>
    <trkpt lat="41.345485" lon="-122.251458">
      <ele>1971.760010</ele>
      <time>2020-08-15T18:13:49Z</time>
    </trkpt>
    <trkpt lat="41.345453" lon="-122.252003">
      <ele>1969.189941</ele>
      <time>2020-08-15T18:13:52Z</time>
    </trkpt>
    <trkpt lat="41.345077" lon="-122.253030">
      <ele>1965.109985</ele>
      <time>2020-08-15T18:13:59Z</time>
    </trkpt>
    <trkpt lat="41.344653" lon="-122.253307">
      <ele>1962.020020</ele>
      <time>2020-08-15T18:14:03Z</time>
    </trkpt>
    <trkpt lat="41.344304" lon="-122.253298">
      <ele>1958.300049</ele>
      <time>2020-08-15T18:14:06Z</time>
    </trkpt>
    <trkpt lat="41.343836" lon="-122.253003">
      <ele>1954.989990</ele>
      <time>2020-08-15T18:14:11Z</time>
    </trkpt>
    <trkpt lat="41.343706" lon="-122.252809">
      <ele>1954.020020</ele>
      <time>2020-08-15T18:14:13Z</time>
    </trkpt>
    <trkpt lat="41.343564" lon="-122.252562">
      <ele>1953.050049</ele>
      <time>2020-08-15T18:14:15Z</time>
    </trkpt>
    <trkpt lat="41.343280" lon="-122.251921">
      <ele>1949.280029</ele>
      <time>2020-08-15T18:14:20Z</time>
    </trkpt>
    <trkpt lat="41.343055" lon="-122.251351">
      <ele>1945.449951</ele>
      <time>2020-08-15T18:14:24Z</time>
    </trkpt>
    <trkpt lat="41.342863" lon="-122.250874">
      <ele>1941.890015</ele>
      <time>2020-08-15T18:14:28Z</time>
    </trkpt>
    <trkpt lat="41.342617" lon="-122.250242">
      <ele>1941.670044</ele>
      <time>2020-08-15T18:14:36Z</time>
    </trkpt>
    <trkpt lat="41.342318" lon="-122.249398">
      <ele>1939.300049</ele>
      <time>2020-08-15T18:14:46Z</time>
    </trkpt>
    <trkpt lat="41.342224" lon="-122.249057">
      <ele>1936.579956</ele>
      <time>2020-08-15T18:14:49Z</time>
    </trkpt>
    <trkpt lat="41.342147" lon="-122.248279">
      <ele>1932.140015</ele>
      <time>2020-08-15T18:14:55Z</time>
    </trkpt>
    <trkpt lat="41.342118" lon="-122.248027">
      <ele>1930.989990</ele>
      <time>2020-08-15T18:14:57Z</time>
    </trkpt>
    <trkpt lat="41.341736" lon="-122.247504">
      <ele>1927.949951</ele>
      <time>2020-08-15T18:15:03Z</time>
    </trkpt>
    <trkpt lat="41.341299" lon="-122.247726">
      <ele>1925.640015</ele>
      <time>2020-08-15T18:15:08Z</time>
    </trkpt>
    <trkpt lat="41.341229" lon="-122.248458">
      <ele>1922.650024</ele>
      <time>2020-08-15T18:15:13Z</time>
    </trkpt>
    <trkpt lat="41.341259" lon="-122.248607">
      <ele>1922.020020</ele>
      <time>2020-08-15T18:15:14Z</time>
    </trkpt>
    <trkpt lat="41.341327" lon="-122.248915">
      <ele>1920.760010</ele>
      <time>2020-08-15T18:15:16Z</time>
    </trkpt>
    <trkpt lat="41.341365" lon="-122.249538">
      <ele>1917.770020</ele>
      <time>2020-08-15T18:15:20Z</time>
    </trkpt>
    <trkpt lat="41.341146" lon="-122.250130">
      <ele>1914.339966</ele>
      <time>2020-08-15T18:15:24Z</time>
    </trkpt>
    <trkpt lat="41.340732" lon="-122.250496">
      <ele>1910.439941</ele>
      <time>2020-08-15T18:15:28Z</time>
    </trkpt>
    <trkpt lat="41.340484" lon="-122.250572">
      <ele>1908.410034</ele>
      <time>2020-08-15T18:15:30Z</time>
    </trkpt>
    <trkpt lat="41.339843" lon="-122.250684">
      <ele>1903.689941</ele>
      <time>2020-08-15T18:15:35Z</time>
    </trkpt>
    <trkpt lat="41.339192" lon="-122.250778">
      <ele>1900.099976</ele>
      <time>2020-08-15T18:15:40Z</time>
    </trkpt>
    <trkpt lat="41.338778" lon="-122.250796">
      <ele>1897.030029</ele>
      <time>2020-08-15T18:15:43Z</time>
    </trkpt>
    <trkpt lat="41.338378" lon="-122.250836">
      <ele>1893.310059</ele>
      <time>2020-08-15T18:15:46Z</time>
    </trkpt>
    <trkpt lat="41.337851" lon="-122.250887">
      <ele>1889.479980</ele>
      <time>2020-08-15T18:15:50Z</time>
    </trkpt>
    <trkpt lat="41.337335" lon="-122.250942">
      <ele>1886.449951</ele>
      <time>2020-08-15T18:15:54Z</time>
    </trkpt>
    <trkpt lat="41.336822" lon="-122.250993">
      <ele>1882.800049</ele>
      <time>2020-08-15T18:15:58Z</time>
    </trkpt>
    <trkpt lat="41.336312" lon="-122.251098">
      <ele>1879.819946</ele>
      <time>2020-08-15T18:16:02Z</time>
    </trkpt>
    <trkpt lat="41.335949" lon="-122.251344">
      <ele>1877.569946</ele>
      <time>2020-08-15T18:16:05Z</time>
    </trkpt>
    <trkpt lat="41.335487" lon="-122.252067">
      <ele>1873.280029</ele>
      <time>2020-08-15T18:16:10Z</time>
    </trkpt>
    <trkpt lat="41.335344" lon="-122.252633">
      <ele>1869.410034</ele>
      <time>2020-08-15T18:16:13Z</time>
    </trkpt>
    <trkpt lat="41.335334" lon="-122.253405">
      <ele>1866.020020</ele>
      <time>2020-08-15T18:16:17Z</time>
    </trkpt>
    <trkpt lat="41.335491" lon="-122.253957">
      <ele>1863.880005</ele>
      <time>2020-08-15T18:16:20Z</time>
    </trkpt>
    <trkpt lat="41.335691" lon="-122.254453">
      <ele>1862.140015</ele>
      <time>2020-08-15T18:16:23Z</time>
    </trkpt>
    <trkpt lat="41.336031" lon="-122.255011">
      <ele>1859.209961</ele>
      <time>2020-08-15T18:16:27Z</time>
    </trkpt>
    <trkpt lat="41.336497" lon="-122.255556">
      <ele>1854.869995</ele>
      <time>2020-08-15T18:16:32Z</time>
    </trkpt>
    <trkpt lat="41.336691" lon="-122.255865">
      <ele>1853.719971</ele>
      <time>2020-08-15T18:16:35Z</time>
    </trkpt>
    <trkpt lat="41.337227" lon="-122.257442">
      <ele>1850.400024</ele>
      <time>2020-08-15T18:16:47Z</time>
    </trkpt>
    <trkpt lat="41.337285" lon="-122.257574">
      <ele>1849.829956</ele>
      <time>2020-08-15T18:16:48Z</time>
    </trkpt>
    <trkpt lat="41.337669" lon="-122.258144">
      <ele>1846.910034</ele>
      <time>2020-08-15T18:16:53Z</time>
    </trkpt>
    <trkpt lat="41.337852" lon="-122.258331">
      <ele>1845.900024</ele>
      <time>2020-08-15T18:16:55Z</time>
    </trkpt>
    <trkpt lat="41.338391" lon="-122.258660">
      <ele>1842.689941</ele>
      <time>2020-08-15T18:17:00Z</time>
    </trkpt>
    <trkpt lat="41.338843" lon="-122.258803">
      <ele>1839.489990</ele>
      <time>2020-08-15T18:17:04Z</time>
    </trkpt>
    <trkpt lat="41.339307" lon="-122.259399">
      <ele>1835.280029</ele>
      <time>2020-08-15T18:17:10Z</time>
    </trkpt>
    <trkpt lat="41.339262" lon="-122.259793">
      <ele>1832.109985</ele>
      <time>2020-08-15T18:17:13Z</time>
    </trkpt>
    <trkpt lat="41.338916" lon="-122.260113">
      <ele>1828.680054</ele>
      <time>2020-08-15T18:17:17Z</time>
    </trkpt>
    <trkpt lat="41.338543" lon="-122.260028">
      <ele>1825.400024</ele>
      <time>2020-08-15T18:17:21Z</time>
    </trkpt>
    <trkpt lat="41.338454" lon="-122.259952">
      <ele>1824.829956</ele>
      <time>2020-08-15T18:17:22Z</time>
    </trkpt>
    <trkpt lat="41.337774" lon="-122.259282">
      <ele>1821.130005</ele>
      <time>2020-08-15T18:17:31Z</time>
    </trkpt>
    <trkpt lat="41.337117" lon="-122.258949">
      <ele>1818.010010</ele>
      <time>2020-08-15T18:17:38Z</time>
    </trkpt>
    <trkpt lat="41.336796" lon="-122.258792">
      <ele>1813.849976</ele>
      <time>2020-08-15T18:17:41Z</time>
    </trkpt>
    <trkpt lat="41.336408" lon="-122.258570">
      <ele>1810.020020</ele>
      <time>2020-08-15T18:17:45Z</time>
    </trkpt>
    <trkpt lat="41.336209" lon="-122.258439">
      <ele>1808.930054</ele>
      <time>2020-08-15T18:17:48Z</time>
    </trkpt>
    <trkpt lat="41.335886" lon="-122.258225">
      <ele>1810.630005</ele>
      <time>2020-08-15T18:17:57Z</time>
    </trkpt>
    <trkpt lat="41.335511" lon="-122.257949">
      <ele>1808.829956</ele>
      <time>2020-08-15T18:18:02Z</time>
    </trkpt>
    <trkpt lat="41.335114" lon="-122.257659">
      <ele>1805.729980</ele>
      <time>2020-08-15T18:18:06Z</time>
    </trkpt>
    <trkpt lat="41.334785" lon="-122.257410">
      <ele>1802.680054</ele>
      <time>2020-08-15T18:18:09Z</time>
    </trkpt>
    <trkpt lat="41.334677" lon="-122.257320">
      <ele>1801.479980</ele>
      <time>2020-08-15T18:18:10Z</time>
    </trkpt>
    <trkpt lat="41.334214" lon="-122.256678">
      <ele>1796.469971</ele>
      <time>2020-08-15T18:18:15Z</time>
    </trkpt>
    <trkpt lat="41.334021" lon="-122.256419">
      <ele>1794.510010</ele>
      <time>2020-08-15T18:18:17Z</time>
    </trkpt>
    <trkpt lat="41.333406" lon="-122.256045">
      <ele>1789.520020</ele>
      <time>2020-08-15T18:18:22Z</time>
    </trkpt>
    <trkpt lat="41.332886" lon="-122.255801">
      <ele>1785.750000</ele>
      <time>2020-08-15T18:18:26Z</time>
    </trkpt>
    <trkpt lat="41.332547" lon="-122.255534">
      <ele>1780.510010</ele>
      <time>2020-08-15T18:18:29Z</time>
    </trkpt>
    <trkpt lat="41.332352" lon="-122.255343">
      <ele>1779.189941</ele>
      <time>2020-08-15T18:18:32Z</time>
    </trkpt>
    <trkpt lat="41.332264" lon="-122.255241">
      <ele>1779.729980</ele>
      <time>2020-08-15T18:18:34Z</time>
    </trkpt>
    <trkpt lat="41.332127" lon="-122.254976">
      <ele>1781.099976</ele>
      <time>2020-08-15T18:18:38Z</time>
    </trkpt>
    <trkpt lat="41.332064" lon="-122.254813">
      <ele>1781.319946</ele>
      <time>2020-08-15T18:18:40Z</time>
    </trkpt>
    <trkpt lat="41.332002" lon="-122.254601">
      <ele>1781.199951</ele>
      <time>2020-08-15T18:18:42Z</time>
    </trkpt>
    <trkpt lat="41.331920" lon="-122.253716">
      <ele>1777.489990</ele>
      <time>2020-08-15T18:18:48Z</time>
    </trkpt>
    <trkpt lat="41.332024" lon="-122.252816">
      <ele>1773.060059</ele>
      <time>2020-08-15T18:18:53Z</time>
    </trkpt>
    <trkpt lat="41.332111" lon="-122.252458">
      <ele>1769.579956</ele>
      <time>2020-08-15T18:18:55Z</time>
    </trkpt>
    <trkpt lat="41.332263" lon="-122.251917">
      <ele>1766.359985</ele>
      <time>2020-08-15T18:18:58Z</time>
    </trkpt>
    <trkpt lat="41.332406" lon="-122.251169">
      <ele>1762.530029</ele>
      <time>2020-08-15T18:19:02Z</time>
    </trkpt>
    <trkpt lat="41.332428" lon="-122.250791">
      <ele>1760.660034</ele>
      <time>2020-08-15T18:19:04Z</time>
    </trkpt>
    <trkpt lat="41.332209" lon="-122.249940">
      <ele>1755.989990</ele>
      <time>2020-08-15T18:19:09Z</time>
    </trkpt>
    <trkpt lat="41.331790" lon="-122.249138">
      <ele>1751.229980</ele>
      <time>2020-08-15T18:19:14Z</time>
    </trkpt>
    <trkpt lat="41.331724" lon="-122.248968">
      <ele>1750.339966</ele>
      <time>2020-08-15T18:19:15Z</time>
    </trkpt>
    <trkpt lat="41.331593" lon="-122.248253">
      <ele>1745.439941</ele>
      <time>2020-08-15T18:19:19Z</time>
    </trkpt>
    <trkpt lat="41.331585" lon="-122.248065">
      <ele>1744.280029</ele>
      <time>2020-08-15T18:19:20Z</time>
    </trkpt>
    <trkpt lat="41.331632" lon="-122.247220">
      <ele>1740.069946</ele>
      <time>2020-08-15T18:19:25Z</time>
    </trkpt>
    <trkpt lat="41.331694" lon="-122.246525">
      <ele>1736.959961</ele>
      <time>2020-08-15T18:19:31Z</time>
    </trkpt>
    <trkpt lat="41.331639" lon="-122.245993">
      <ele>1737.380005</ele>
      <time>2020-08-15T18:19:39Z</time>
    </trkpt>
    <trkpt lat="41.331801" lon="-122.245580">
      <ele>1740.780029</ele>
      <time>2020-08-15T18:19:48Z</time>
    </trkpt>
    <trkpt lat="41.331780" lon="-122.245473">
      <ele>1742.219971</ele>
      <time>2020-08-15T18:19:52Z</time>
    </trkpt>
    <trkpt lat="41.331849" lon="-122.245457">
      <ele>1743.709961</ele>
      <time>2020-08-15T18:19:59Z</time>
    </trkpt>
    <trkpt lat="41.331810" lon="-122.245496">
      <ele>1744.390015</ele>
      <time>2020-08-15T18:20:22Z</time>
    </trkpt>
    <trkpt lat="41.331869" lon="-122.245362">
      <ele>1744.050049</ele>
      <time>2020-08-15T18:20:43Z</time>
    </trkpt>
    <trkpt lat="41.331827" lon="-122.245333">
      <ele>1743.380005</ele>
      <time>2020-08-15T18:21:14Z</time>
    </trkpt>
    <trkpt lat="41.331782" lon="-122.245375">
      <ele>1743.099976</ele>
      <time>2020-08-15T18:21:48Z</time>
    </trkpt>
    <trkpt lat="41.331778" lon="-122.245421">
      <ele>1743.060059</ele>
      <time>2020-08-15T18:21:58Z</time>
    </trkpt>
    <trkpt lat="41.331830" lon="-122.245505">
      <ele>1742.640015</ele>
      <time>2020-08-15T18:22:18Z</time>
    </trkpt>
    <trkpt lat="41.331907" lon="-122.245449">
      <ele>1742.599976</ele>
      <time>2020-08-15T18:22:45Z</time>
    </trkpt>
    <trkpt lat="41.331937" lon="-122.245511">
      <ele>1742.479980</ele>
      <time>2020-08-15T18:23:19Z</time>
    </trkpt>
    <trkpt lat="41.331904" lon="-122.245474">
      <ele>1742.660034</ele>
      <time>2020-08-15T18:23:33Z</time>
    </trkpt>
    <trkpt lat="41.331932" lon="-122.245455">
      <ele>1742.530029</ele>
      <time>2020-08-15T18:23:40Z</time>
    </trkpt>
    <trkpt lat="41.331993" lon="-122.245498">
      <ele>1742.449951</ele>
      <time>2020-08-15T18:24:02Z</time>
    </trkpt>
    <trkpt lat="41.331872" lon="-122.245841">
      <ele>1741.260010</ele>
      <time>2020-08-15T18:24:10Z</time>
    </trkpt>
    <trkpt lat="41.331696" lon="-122.246023">
      <ele>1739.459961</ele>
      <time>2020-08-15T18:24:15Z</time>
    </trkpt>
    <trkpt lat="41.331463" lon="-122.246108">
      <ele>1737.479980</ele>
      <time>2020-08-15T18:24:19Z</time>
    </trkpt>
    <trkpt lat="41.330980" lon="-122.246444">
      <ele>1732.979980</ele>
      <time>2020-08-15T18:24:26Z</time>
    </trkpt>
    <trkpt lat="41.330922" lon="-122.246633">
      <ele>1732.109985</ele>
      <time>2020-08-15T18:24:28Z</time>
    </trkpt>
    <trkpt lat="41.330746" lon="-122.247407">
      <ele>1728.650024</ele>
      <time>2020-08-15T18:24:35Z</time>
    </trkpt>
    <trkpt lat="41.330636" lon="-122.247884">
      <ele>1726.050049</ele>
      <time>2020-08-15T18:24:39Z</time>
    </trkpt>
    <trkpt lat="41.330519" lon="-122.248663">
      <ele>1721.910034</ele>
      <time>2020-08-15T18:24:45Z</time>
    </trkpt>
    <trkpt lat="41.330473" lon="-122.249347">
      <ele>1718.410034</ele>
      <time>2020-08-15T18:24:50Z</time>
    </trkpt>
    <trkpt lat="41.330407" lon="-122.250101">
      <ele>1714.920044</ele>
      <time>2020-08-15T18:24:55Z</time>
    </trkpt>
    <trkpt lat="41.330255" lon="-122.250716">
      <ele>1711.430054</ele>
      <time>2020-08-15T18:24:59Z</time>
    </trkpt>
    <trkpt lat="41.329993" lon="-122.251504">
      <ele>1708.270020</ele>
      <time>2020-08-15T18:25:04Z</time>
    </trkpt>
    <trkpt lat="41.329778" lon="-122.252130">
      <ele>1704.260010</ele>
      <time>2020-08-15T18:25:08Z</time>
    </trkpt>
    <trkpt lat="41.329756" lon="-122.252809">
      <ele>1699.530029</ele>
      <time>2020-08-15T18:25:12Z</time>
    </trkpt>
    <trkpt lat="41.329835" lon="-122.253317">
      <ele>1697.510010</ele>
      <time>2020-08-15T18:25:15Z</time>
    </trkpt>
    <trkpt lat="41.329918" lon="-122.253634">
      <ele>1696.310059</ele>
      <time>2020-08-15T18:25:17Z</time>
    </trkpt>
    <trkpt lat="41.329986" lon="-122.253952">
      <ele>1695.079956</ele>
      <time>2020-08-15T18:25:19Z</time>
    </trkpt>
    <trkpt lat="41.329912" lon="-122.255022">
      <ele>1690.630005</ele>
      <time>2020-08-15T18:25:25Z</time>
    </trkpt>
    <trkpt lat="41.329560" lon="-122.255615">
      <ele>1687.140015</ele>
      <time>2020-08-15T18:25:29Z</time>
    </trkpt>
    <trkpt lat="41.329310" lon="-122.255821">
      <ele>1685.369995</ele>
      <time>2020-08-15T18:25:31Z</time>
    </trkpt>
    <trkpt lat="41.328785" lon="-122.256133">
      <ele>1681.920044</ele>
      <time>2020-08-15T18:25:35Z</time>
    </trkpt>
    <trkpt lat="41.328319" lon="-122.256495">
      <ele>1678.130005</ele>
      <time>2020-08-15T18:25:39Z</time>
    </trkpt>
    <trkpt lat="41.327981" lon="-122.257019">
      <ele>1675.810059</ele>
      <time>2020-08-15T18:25:43Z</time>
    </trkpt>
    <trkpt lat="41.327760" lon="-122.257856">
      <ele>1673.170044</ele>
      <time>2020-08-15T18:25:48Z</time>
    </trkpt>
    <trkpt lat="41.327679" lon="-122.259143">
      <ele>1669.489990</ele>
      <time>2020-08-15T18:25:55Z</time>
    </trkpt>
    <trkpt lat="41.327619" lon="-122.260274">
      <ele>1665.750000</ele>
      <time>2020-08-15T18:26:01Z</time>
    </trkpt>
    <trkpt lat="41.327566" lon="-122.261224">
      <ele>1662.359985</ele>
      <time>2020-08-15T18:26:06Z</time>
    </trkpt>
    <trkpt lat="41.327511" lon="-122.262015">
      <ele>1659.250000</ele>
      <time>2020-08-15T18:26:10Z</time>
    </trkpt>
    <trkpt lat="41.327436" lon="-122.263028">
      <ele>1655.660034</ele>
      <time>2020-08-15T18:26:15Z</time>
    </trkpt>
    <trkpt lat="41.327398" lon="-122.264050">
      <ele>1652.270020</ele>
      <time>2020-08-15T18:26:20Z</time>
    </trkpt>
    <trkpt lat="41.327371" lon="-122.264998">
      <ele>1648.089966</ele>
      <time>2020-08-15T18:26:25Z</time>
    </trkpt>
    <trkpt lat="41.327373" lon="-122.265182">
      <ele>1647.270020</ele>
      <time>2020-08-15T18:26:26Z</time>
    </trkpt>
    <trkpt lat="41.327562" lon="-122.266055">
      <ele>1643.680054</ele>
      <time>2020-08-15T18:26:31Z</time>
    </trkpt>
    <trkpt lat="41.328133" lon="-122.266929">
      <ele>1638.890015</ele>
      <time>2020-08-15T18:26:37Z</time>
    </trkpt>
    <trkpt lat="41.328768" lon="-122.267325">
      <ele>1634.589966</ele>
      <time>2020-08-15T18:26:42Z</time>
    </trkpt>
    <trkpt lat="41.328903" lon="-122.267364">
      <ele>1633.819946</ele>
      <time>2020-08-15T18:26:43Z</time>
    </trkpt>
    <trkpt lat="41.329743" lon="-122.267277">
      <ele>1628.430054</ele>
      <time>2020-08-15T18:26:49Z</time>
    </trkpt>
    <trkpt lat="41.330145" lon="-122.267101">
      <ele>1625.380005</ele>
      <time>2020-08-15T18:26:52Z</time>
    </trkpt>
    <trkpt lat="41.330552" lon="-122.266919">
      <ele>1622.209961</ele>
      <time>2020-08-15T18:26:55Z</time>
    </trkpt>
    <trkpt lat="41.330829" lon="-122.266840">
      <ele>1619.920044</ele>
      <time>2020-08-15T18:26:57Z</time>
    </trkpt>
    <trkpt lat="41.331352" lon="-122.267039">
      <ele>1615.540039</ele>
      <time>2020-08-15T18:27:01Z</time>
    </trkpt>
    <trkpt lat="41.331822" lon="-122.267452">
      <ele>1610.790039</ele>
      <time>2020-08-15T18:27:05Z</time>
    </trkpt>
    <trkpt lat="41.331935" lon="-122.267531">
      <ele>1609.790039</ele>
      <time>2020-08-15T18:27:06Z</time>
    </trkpt>
    <trkpt lat="41.332662" lon="-122.267564">
      <ele>1605.530029</ele>
      <time>2020-08-15T18:27:12Z</time>
    </trkpt>
    <trkpt lat="41.332795" lon="-122.267509">
      <ele>1604.469971</ele>
      <time>2020-08-15T18:27:13Z</time>
    </trkpt>
    <trkpt lat="41.333067" lon="-122.267387">
      <ele>1603.469971</ele>
      <time>2020-08-15T18:27:15Z</time>
    </trkpt>
    <trkpt lat="41.333595" lon="-122.267351">
      <ele>1599.739990</ele>
      <time>2020-08-15T18:27:19Z</time>
    </trkpt>
    <trkpt lat="41.333941" lon="-122.267611">
      <ele>1596.439941</ele>
      <time>2020-08-15T18:27:22Z</time>
    </trkpt>
    <trkpt lat="41.334046" lon="-122.267731">
      <ele>1595.569946</ele>
      <time>2020-08-15T18:27:23Z</time>
    </trkpt>
    <trkpt lat="41.334598" lon="-122.268237">
      <ele>1592.670044</ele>
      <time>2020-08-15T18:27:28Z</time>
    </trkpt>
    <trkpt lat="41.334855" lon="-122.268349">
      <ele>1591.869995</ele>
      <time>2020-08-15T18:27:30Z</time>
    </trkpt>
    <trkpt lat="41.335667" lon="-122.268510">
      <ele>1587.739990</ele>
      <time>2020-08-15T18:27:36Z</time>
    </trkpt>
    <trkpt lat="41.336103" lon="-122.268896">
      <ele>1585.160034</ele>
      <time>2020-08-15T18:27:40Z</time>
    </trkpt>
    <trkpt lat="41.336308" lon="-122.269423">
      <ele>1582.300049</ele>
      <time>2020-08-15T18:27:43Z</time>
    </trkpt>
    <trkpt lat="41.336573" lon="-122.270346">
      <ele>1577.959961</ele>
      <time>2020-08-15T18:27:48Z</time>
    </trkpt>
    <trkpt lat="41.336643" lon="-122.270514">
      <ele>1577.270020</ele>
      <time>2020-08-15T18:27:49Z</time>
    </trkpt>
    <trkpt lat="41.337085" lon="-122.271029">
      <ele>1573.189941</ele>
      <time>2020-08-15T18:27:53Z</time>
    </trkpt>
    <trkpt lat="41.337636" lon="-122.271202">
      <ele>1569.959961</ele>
      <time>2020-08-15T18:27:57Z</time>
    </trkpt>
    <trkpt lat="41.338320" lon="-122.271316">
      <ele>1566.890015</ele>
      <time>2020-08-15T18:28:02Z</time>
    </trkpt>
    <trkpt lat="41.338887" lon="-122.271752">
      <ele>1563.050049</ele>
      <time>2020-08-15T18:28:07Z</time>
    </trkpt>
    <trkpt lat="41.339421" lon="-122.272361">
      <ele>1559.930054</ele>
      <time>2020-08-15T18:28:12Z</time>
    </trkpt>
    <trkpt lat="41.339897" lon="-122.272698">
      <ele>1557.660034</ele>
      <time>2020-08-15T18:28:16Z</time>
    </trkpt>
    <trkpt lat="41.340508" lon="-122.273462">
      <ele>1553.810059</ele>
      <time>2020-08-15T18:28:22Z</time>
    </trkpt>
    <trkpt lat="41.340862" lon="-122.274038">
      <ele>1551.050049</ele>
      <time>2020-08-15T18:28:26Z</time>
    </trkpt>
    <trkpt lat="41.341161" lon="-122.274398">
      <ele>1549.180054</ele>
      <time>2020-08-15T18:28:29Z</time>
    </trkpt>
    <trkpt lat="41.341542" lon="-122.274611">
      <ele>1547.020020</ele>
      <time>2020-08-15T18:28:32Z</time>
    </trkpt>
    <trkpt lat="41.342083" lon="-122.274643">
      <ele>1544.619995</ele>
      <time>2020-08-15T18:28:36Z</time>
    </trkpt>
    <trkpt lat="41.342722" lon="-122.274447">
      <ele>1542.119995</ele>
      <time>2020-08-15T18:28:41Z</time>
    </trkpt>
    <trkpt lat="41.343271" lon="-122.274325">
      <ele>1539.380005</ele>
      <time>2020-08-15T18:28:45Z</time>
    </trkpt>
    <trkpt lat="41.343550" lon="-122.274319">
      <ele>1537.400024</ele>
      <time>2020-08-15T18:28:47Z</time>
    </trkpt>
    <trkpt lat="41.344111" lon="-122.274446">
      <ele>1533.250000</ele>
      <time>2020-08-15T18:28:51Z</time>
    </trkpt>
    <trkpt lat="41.344388" lon="-122.274586">
      <ele>1530.869995</ele>
      <time>2020-08-15T18:28:53Z</time>
    </trkpt>
    <trkpt lat="41.344876" lon="-122.275026">
      <ele>1526.439941</ele>
      <time>2020-08-15T18:28:57Z</time>
    </trkpt>
    <trkpt lat="41.345436" lon="-122.275688">
      <ele>1523.189941</ele>
      <time>2020-08-15T18:29:02Z</time>
    </trkpt>
    <trkpt lat="41.345988" lon="-122.276354">
      <ele>1520.010010</ele>
      <time>2020-08-15T18:29:07Z</time>
    </trkpt>
    <trkpt lat="41.346428" lon="-122.276851">
      <ele>1516.189941</ele>
      <time>2020-08-15T18:29:11Z</time>
    </trkpt>
    <trkpt lat="41.347046" lon="-122.277335">
      <ele>1512.630005</ele>
      <time>2020-08-15T18:29:16Z</time>
    </trkpt>
    <trkpt lat="41.347572" lon="-122.277629">
      <ele>1509.900024</ele>
      <time>2020-08-15T18:29:20Z</time>
    </trkpt>
    <trkpt lat="41.348734" lon="-122.278309">
      <ele>1506.819946</ele>
      <time>2020-08-15T18:29:29Z</time>
    </trkpt>
    <trkpt lat="41.349564" lon="-122.279429">
      <ele>1506.209961</ele>
      <time>2020-08-15T18:29:37Z</time>
    </trkpt>
    <trkpt lat="41.350742" lon="-122.281474">
      <ele>1503.339966</ele>
      <time>2020-08-15T18:29:50Z</time>
    </trkpt>
    <trkpt lat="41.350957" lon="-122.282491">
      <ele>1499.619995</ele>
      <time>2020-08-15T18:29:55Z</time>
    </trkpt>
    <trkpt lat="41.351092" lon="-122.283314">
      <ele>1496.579956</ele>
      <time>2020-08-15T18:29:59Z</time>
    </trkpt>
    <trkpt lat="41.351324" lon="-122.284569">
      <ele>1493.540039</ele>
      <time>2020-08-15T18:30:05Z</time>
    </trkpt>
    <trkpt lat="41.351474" lon="-122.285383">
      <ele>1490.339966</ele>
      <time>2020-08-15T18:30:09Z</time>
    </trkpt>
    <trkpt lat="41.351580" lon="-122.285966">
      <ele>1487.250000</ele>
      <time>2020-08-15T18:30:12Z</time>
    </trkpt>
    <trkpt lat="41.351723" lon="-122.286751">
      <ele>1483.020020</ele>
      <time>2020-08-15T18:30:16Z</time>
    </trkpt>
    <trkpt lat="41.351838" lon="-122.287342">
      <ele>1479.979980</ele>
      <time>2020-08-15T18:30:19Z</time>
    </trkpt>
    <trkpt lat="41.352034" lon="-122.288346">
      <ele>1476.770020</ele>
      <time>2020-08-15T18:30:24Z</time>
    </trkpt>
    <trkpt lat="41.352194" lon="-122.289174">
      <ele>1473.380005</ele>
      <time>2020-08-15T18:30:28Z</time>
    </trkpt>
    <trkpt lat="41.352362" lon="-122.290016">
      <ele>1470.310059</ele>
      <time>2020-08-15T18:30:32Z</time>
    </trkpt>
    <trkpt lat="41.352548" lon="-122.290875">
      <ele>1465.869995</ele>
      <time>2020-08-15T18:30:36Z</time>
    </trkpt>
    <trkpt lat="41.352690" lon="-122.291542">
      <ele>1462.839966</ele>
      <time>2020-08-15T18:30:39Z</time>
    </trkpt>
    <trkpt lat="41.352845" lon="-122.292218">
      <ele>1459.770020</ele>
      <time>2020-08-15T18:30:42Z</time>
    </trkpt>
    <trkpt lat="41.352984" lon="-122.292898">
      <ele>1456.000000</ele>
      <time>2020-08-15T18:30:45Z</time>
    </trkpt>
    <trkpt lat="41.353126" lon="-122.293572">
      <ele>1451.729980</ele>
      <time>2020-08-15T18:30:48Z</time>
    </trkpt>
    <trkpt lat="41.353259" lon="-122.294221">
      <ele>1447.810059</ele>
      <time>2020-08-15T18:30:51Z</time>
    </trkpt>
    <trkpt lat="41.353331" lon="-122.294646">
      <ele>1444.790039</ele>
      <time>2020-08-15T18:30:53Z</time>
    </trkpt>
    <trkpt lat="41.353405" lon="-122.295285">
      <ele>1440.520020</ele>
      <time>2020-08-15T18:30:56Z</time>
    </trkpt>
    <trkpt lat="41.353450" lon="-122.295896">
      <ele>1436.560059</ele>
      <time>2020-08-15T18:30:59Z</time>
    </trkpt>
    <trkpt lat="41.353489" lon="-122.296474">
      <ele>1433.010010</ele>
      <time>2020-08-15T18:31:02Z</time>
    </trkpt>
    <trkpt lat="41.353414" lon="-122.298478">
      <ele>1430.390015</ele>
      <time>2020-08-15T18:31:12Z</time>
    </trkpt>
    <trkpt lat="41.353268" lon="-122.299530">
      <ele>1427.329956</ele>
      <time>2020-08-15T18:31:17Z</time>
    </trkpt>
    <trkpt lat="41.353090" lon="-122.300369">
      <ele>1423.869995</ele>
      <time>2020-08-15T18:31:21Z</time>
    </trkpt>
    <trkpt lat="41.352883" lon="-122.301188">
      <ele>1419.189941</ele>
      <time>2020-08-15T18:31:25Z</time>
    </trkpt>
    <trkpt lat="41.352753" lon="-122.301803">
      <ele>1415.819946</ele>
      <time>2020-08-15T18:31:28Z</time>
    </trkpt>
    <trkpt lat="41.352670" lon="-122.302432">
      <ele>1412.069946</ele>
      <time>2020-08-15T18:31:31Z</time>
    </trkpt>
    <trkpt lat="41.352641" lon="-122.303288">
      <ele>1408.300049</ele>
      <time>2020-08-15T18:31:35Z</time>
    </trkpt>
    <trkpt lat="41.352710" lon="-122.304137">
      <ele>1404.680054</ele>
      <time>2020-08-15T18:31:39Z</time>
    </trkpt>
    <trkpt lat="41.352834" lon="-122.305021">
      <ele>1400.839966</ele>
      <time>2020-08-15T18:31:43Z</time>
    </trkpt>
    <trkpt lat="41.352918" lon="-122.305735">
      <ele>1396.550049</ele>
      <time>2020-08-15T18:31:46Z</time>
    </trkpt>
    <trkpt lat="41.352940" lon="-122.306498">
      <ele>1391.510010</ele>
      <time>2020-08-15T18:31:49Z</time>
    </trkpt>
    <trkpt lat="41.352933" lon="-122.306755">
      <ele>1391.510010</ele>
      <time>2020-08-15T18:31:50Z</time>
    </trkpt>
    <trkpt lat="41.352919" lon="-122.307014">
      <ele>1388.010010</ele>
      <time>2020-08-15T18:31:51Z</time>
    </trkpt>
    <trkpt lat="41.352896" lon="-122.307270">
      <ele>1386.130005</ele>
      <time>2020-08-15T18:31:52Z</time>
    </trkpt>
    <trkpt lat="41.352750" lon="-122.308038">
      <ele>1380.819946</ele>
      <time>2020-08-15T18:31:55Z</time>
    </trkpt>
    <trkpt lat="41.352539" lon="-122.308774">
      <ele>1377.280029</ele>
      <time>2020-08-15T18:31:58Z</time>
    </trkpt>
    <trkpt lat="41.352301" lon="-122.309452">
      <ele>1373.729980</ele>
      <time>2020-08-15T18:32:01Z</time>
    </trkpt>
    <trkpt lat="41.352093" lon="-122.310088">
      <ele>1369.839966</ele>
      <time>2020-08-15T18:32:04Z</time>
    </trkpt>
    <trkpt lat="41.351860" lon="-122.310713">
      <ele>1366.410034</ele>
      <time>2020-08-15T18:32:07Z</time>
    </trkpt>
    <trkpt lat="41.351479" lon="-122.311553">
      <ele>1363.040039</ele>
      <time>2020-08-15T18:32:11Z</time>
    </trkpt>
    <trkpt lat="41.351177" lon="-122.312188">
      <ele>1359.520020</ele>
      <time>2020-08-15T18:32:14Z</time>
    </trkpt>
    <trkpt lat="41.350979" lon="-122.312603">
      <ele>1356.239990</ele>
      <time>2020-08-15T18:32:16Z</time>
    </trkpt>
    <trkpt lat="41.350785" lon="-122.312990">
      <ele>1352.959961</ele>
      <time>2020-08-15T18:32:18Z</time>
    </trkpt>
    <trkpt lat="41.350470" lon="-122.313500">
      <ele>1348.949951</ele>
      <time>2020-08-15T18:32:21Z</time>
    </trkpt>
    <trkpt lat="41.350077" lon="-122.313906">
      <ele>1344.869995</ele>
      <time>2020-08-15T18:32:24Z</time>
    </trkpt>
    <trkpt lat="41.349456" lon="-122.314264">
      <ele>1339.760010</ele>
      <time>2020-08-15T18:32:28Z</time>
    </trkpt>
    <trkpt lat="41.348886" lon="-122.314383">
      <ele>1334.829956</ele>
      <time>2020-08-15T18:32:33Z</time>
    </trkpt>
    <trkpt lat="41.348213" lon="-122.314283">
      <ele>1331.439941</ele>
      <time>2020-08-15T18:32:38Z</time>
    </trkpt>
    <trkpt lat="41.347747" lon="-122.314183">
      <ele>1327.640015</ele>
      <time>2020-08-15T18:32:41Z</time>
    </trkpt>
    <trkpt lat="41.347458" lon="-122.314116">
      <ele>1324.510010</ele>
      <time>2020-08-15T18:32:43Z</time>
    </trkpt>
    <trkpt lat="41.347024" lon="-122.314015">
      <ele>1321.400024</ele>
      <time>2020-08-15T18:32:46Z</time>
    </trkpt>
    <trkpt lat="41.346580" lon="-122.313912">
      <ele>1318.349976</ele>
      <time>2020-08-15T18:32:49Z</time>
    </trkpt>
    <trkpt lat="41.346430" lon="-122.313869">
      <ele>1318.349976</ele>
      <time>2020-08-15T18:32:50Z</time>
    </trkpt>
    <trkpt lat="41.345982" lon="-122.313703">
      <ele>1315.310059</ele>
      <time>2020-08-15T18:32:53Z</time>
    </trkpt>
    <trkpt lat="41.345391" lon="-122.313438">
      <ele>1311.619995</ele>
      <time>2020-08-15T18:32:57Z</time>
    </trkpt>
    <trkpt lat="41.344957" lon="-122.313216">
      <ele>1307.949951</ele>
      <time>2020-08-15T18:33:00Z</time>
    </trkpt>
    <trkpt lat="41.344532" lon="-122.312997">
      <ele>1304.650024</ele>
      <time>2020-08-15T18:33:03Z</time>
    </trkpt>
    <trkpt lat="41.343957" lon="-122.312702">
      <ele>1300.829956</ele>
      <time>2020-08-15T18:33:07Z</time>
    </trkpt>
    <trkpt lat="41.343366" lon="-122.312413">
      <ele>1296.810059</ele>
      <time>2020-08-15T18:33:11Z</time>
    </trkpt>
    <trkpt lat="41.342900" lon="-122.312205">
      <ele>1293.329956</ele>
      <time>2020-08-15T18:33:14Z</time>
    </trkpt>
    <trkpt lat="41.342581" lon="-122.312109">
      <ele>1290.069946</ele>
      <time>2020-08-15T18:33:16Z</time>
    </trkpt>
    <trkpt lat="41.342095" lon="-122.312065">
      <ele>1286.199951</ele>
      <time>2020-08-15T18:33:19Z</time>
    </trkpt>
    <trkpt lat="41.341601" lon="-122.312050">
      <ele>1282.829956</ele>
      <time>2020-08-15T18:33:22Z</time>
    </trkpt>
    <trkpt lat="41.341161" lon="-122.312084">
      <ele>1279.219971</ele>
      <time>2020-08-15T18:33:25Z</time>
    </trkpt>
    <trkpt lat="41.340726" lon="-122.312078">
      <ele>1275.829956</ele>
      <time>2020-08-15T18:33:28Z</time>
    </trkpt>
    <trkpt lat="41.339996" lon="-122.311800">
      <ele>1271.359985</ele>
      <time>2020-08-15T18:33:33Z</time>
    </trkpt>
    <trkpt lat="41.339475" lon="-122.311540">
      <ele>1268.329956</ele>
      <time>2020-08-15T18:33:37Z</time>
    </trkpt>
    <trkpt lat="41.339121" lon="-122.311354">
      <ele>1264.630005</ele>
      <time>2020-08-15T18:33:40Z</time>
    </trkpt>
    <trkpt lat="41.338885" lon="-122.311222">
      <ele>1261.609985</ele>
      <time>2020-08-15T18:33:42Z</time>
    </trkpt>
    <trkpt lat="41.338361" lon="-122.310944">
      <ele>1258.270020</ele>
      <time>2020-08-15T18:33:46Z</time>
    </trkpt>
    <trkpt lat="41.337793" lon="-122.310617">
      <ele>1255.199951</ele>
      <time>2020-08-15T18:33:50Z</time>
    </trkpt>
    <trkpt lat="41.337230" lon="-122.310316">
      <ele>1251.969971</ele>
      <time>2020-08-15T18:33:54Z</time>
    </trkpt>
    <trkpt lat="41.336511" lon="-122.309945">
      <ele>1248.829956</ele>
      <time>2020-08-15T18:33:59Z</time>
    </trkpt>
    <trkpt lat="41.335784" lon="-122.309566">
      <ele>1245.390015</ele>
      <time>2020-08-15T18:34:04Z</time>
    </trkpt>
    <trkpt lat="41.335195" lon="-122.309263">
      <ele>1241.869995</ele>
      <time>2020-08-15T18:34:08Z</time>
    </trkpt>
    <trkpt lat="41.334473" lon="-122.308885">
      <ele>1238.310059</ele>
      <time>2020-08-15T18:34:13Z</time>
    </trkpt>
    <trkpt lat="41.333749" lon="-122.308499">
      <ele>1234.579956</ele>
      <time>2020-08-15T18:34:18Z</time>
    </trkpt>
    <trkpt lat="41.333169" lon="-122.308200">
      <ele>1230.949951</ele>
      <time>2020-08-15T18:34:22Z</time>
    </trkpt>
    <trkpt lat="41.332460" lon="-122.307833">
      <ele>1227.250000</ele>
      <time>2020-08-15T18:34:27Z</time>
    </trkpt>
    <trkpt lat="41.331900" lon="-122.307535">
      <ele>1223.560059</ele>
      <time>2020-08-15T18:34:31Z</time>
    </trkpt>
    <trkpt lat="41.331220" lon="-122.307179">
      <ele>1219.839966</ele>
      <time>2020-08-15T18:34:36Z</time>
    </trkpt>
    <trkpt lat="41.330453" lon="-122.306795">
      <ele>1216.219971</ele>
      <time>2020-08-15T18:34:42Z</time>
    </trkpt>
    <trkpt lat="41.329666" lon="-122.306477">
      <ele>1212.709961</ele>
      <time>2020-08-15T18:34:48Z</time>
    </trkpt>
    <trkpt lat="41.329014" lon="-122.306409">
      <ele>1209.229980</ele>
      <time>2020-08-15T18:34:53Z</time>
    </trkpt>
    <trkpt lat="41.328361" lon="-122.306375">
      <ele>1205.729980</ele>
      <time>2020-08-15T18:34:58Z</time>
    </trkpt>
    <trkpt lat="41.327823" lon="-122.306354">
      <ele>1202.680054</ele>
      <time>2020-08-15T18:35:02Z</time>
    </trkpt>
    <trkpt lat="41.327125" lon="-122.306311">
      <ele>1198.989990</ele>
      <time>2020-08-15T18:35:07Z</time>
    </trkpt>
    <trkpt lat="41.326581" lon="-122.306283">
      <ele>1195.719971</ele>
      <time>2020-08-15T18:35:11Z</time>
    </trkpt>
    <trkpt lat="41.326027" lon="-122.306242">
      <ele>1191.890015</ele>
      <time>2020-08-15T18:35:15Z</time>
    </trkpt>
    <trkpt lat="41.325487" lon="-122.306217">
      <ele>1188.619995</ele>
      <time>2020-08-15T18:35:19Z</time>
    </trkpt>
    <trkpt lat="41.325356" lon="-122.306213">
      <ele>1188.619995</ele>
      <time>2020-08-15T18:35:20Z</time>
    </trkpt>
    <trkpt lat="41.324847" lon="-122.306227">
      <ele>1184.910034</ele>
      <time>2020-08-15T18:35:24Z</time>
    </trkpt>
    <trkpt lat="41.324210" lon="-122.306223">
      <ele>1181.469971</ele>
      <time>2020-08-15T18:35:29Z</time>
    </trkpt>
    <trkpt lat="41.323457" lon="-122.306219">
      <ele>1177.859985</ele>
      <time>2020-08-15T18:35:35Z</time>
    </trkpt>
    <trkpt lat="41.322824" lon="-122.306196">
      <ele>1174.650024</ele>
      <time>2020-08-15T18:35:40Z</time>
    </trkpt>
    <trkpt lat="41.322215" lon="-122.306187">
      <ele>1170.910034</ele>
      <time>2020-08-15T18:35:45Z</time>
    </trkpt>
    <trkpt lat="41.321269" lon="-122.306179">
      <ele>1167.770020</ele>
      <time>2020-08-15T18:35:53Z</time>
    </trkpt>
    <trkpt lat="41.320373" lon="-122.306185">
      <ele>1164.560059</ele>
      <time>2020-08-15T18:36:02Z</time>
    </trkpt>
    <trkpt lat="41.319897" lon="-122.306246">
      <ele>1163.920044</ele>
      <time>2020-08-15T18:36:12Z</time>
    </trkpt>
    <trkpt lat="41.319736" lon="-122.306258">
      <ele>1164.329956</ele>
      <time>2020-08-15T18:36:18Z</time>
    </trkpt>
    <trkpt lat="41.319642" lon="-122.306262">
      <ele>1164.280029</ele>
      <time>2020-08-15T18:36:20Z</time>
    </trkpt>
    <trkpt lat="41.318796" lon="-122.306287">
      <ele>1161.219971</ele>
      <time>2020-08-15T18:36:33Z</time>
    </trkpt>
    <trkpt lat="41.318054" lon="-122.306290">
      <ele>1158.199951</ele>
      <time>2020-08-15T18:36:41Z</time>
    </trkpt>
    <trkpt lat="41.317960" lon="-122.306294">
      <ele>1157.930054</ele>
      <time>2020-08-15T18:36:42Z</time>
    </trkpt>
    <trkpt lat="41.317536" lon="-122.306571">
      <ele>1156.810059</ele>
      <time>2020-08-15T18:36:47Z</time>
    </trkpt>
    <trkpt lat="41.316527" lon="-122.307963">
      <ele>1153.219971</ele>
      <time>2020-08-15T18:37:00Z</time>
    </trkpt>
    <trkpt lat="41.316235" lon="-122.308387">
      <ele>1150.079956</ele>
      <time>2020-08-15T18:37:04Z</time>
    </trkpt>
    <trkpt lat="41.315747" lon="-122.309050">
      <ele>1147.050049</ele>
      <time>2020-08-15T18:37:11Z</time>
    </trkpt>
    <trkpt lat="41.314555" lon="-122.310622">
      <ele>1143.930054</ele>
      <time>2020-08-15T18:37:28Z</time>
    </trkpt>
    <trkpt lat="41.314136" lon="-122.311146">
      <ele>1140.489990</ele>
      <time>2020-08-15T18:37:35Z</time>
    </trkpt>
    <trkpt lat="41.313950" lon="-122.311393">
      <ele>1137.869995</ele>
      <time>2020-08-15T18:37:39Z</time>
    </trkpt>
    <trkpt lat="41.313622" lon="-122.311315">
      <ele>1135.199951</ele>
      <time>2020-08-15T18:37:45Z</time>
    </trkpt>
    <trkpt lat="41.313138" lon="-122.311059">
      <ele>1133.069946</ele>
      <time>2020-08-15T18:37:51Z</time>
    </trkpt>
    <trkpt lat="41.312564" lon="-122.311083">
      <ele>1134.089966</ele>
      <time>2020-08-15T18:38:01Z</time>
    </trkpt>
    <trkpt lat="41.312521" lon="-122.311105">
      <ele>1134.770020</ele>
      <time>2020-08-15T18:38:10Z</time>
    </trkpt>
    <trkpt lat="41.312520" lon="-122.311107">
      <ele>1134.790039</ele>
      <time>2020-08-15T18:38:15Z</time>
    </trkpt>
    <trkpt lat="41.312346" lon="-122.311121">
      <ele>1134.569946</ele>
      <time>2020-08-15T18:38:20Z</time>
    </trkpt>
    <trkpt lat="41.311487" lon="-122.311064">
      <ele>1132.900024</ele>
      <time>2020-08-15T18:38:32Z</time>
    </trkpt>
    <trkpt lat="41.310103" lon="-122.311072">
      <ele>1130.920044</ele>
      <time>2020-08-15T18:38:46Z</time>
    </trkpt>
    <trkpt lat="41.309100" lon="-122.311089">
      <ele>1131.800049</ele>
      <time>2020-08-15T18:38:59Z</time>
    </trkpt>
    <trkpt lat="41.308075" lon="-122.311044">
      <ele>1132.410034</ele>
      <time>2020-08-15T18:39:12Z</time>
    </trkpt>
    <trkpt lat="41.306846" lon="-122.311029">
      <ele>1129.099976</ele>
      <time>2020-08-15T18:39:24Z</time>
    </trkpt>
    <trkpt lat="41.306522" lon="-122.310992">
      <ele>1127.459961</ele>
      <time>2020-08-15T18:39:27Z</time>
    </trkpt>
    <trkpt lat="41.306108" lon="-122.310787">
      <ele>1125.209961</ele>
      <time>2020-08-15T18:39:31Z</time>
    </trkpt>
    <trkpt lat="41.305043" lon="-122.309684">
      <ele>1122.689941</ele>
      <time>2020-08-15T18:39:44Z</time>
    </trkpt>
    <trkpt lat="41.304209" lon="-122.308814">
      <ele>1119.400024</ele>
      <time>2020-08-15T18:39:54Z</time>
    </trkpt>
    <trkpt lat="41.303701" lon="-122.308258">
      <ele>1116.369995</ele>
      <time>2020-08-15T18:40:00Z</time>
    </trkpt>
    <trkpt lat="41.303074" lon="-122.307583">
      <ele>1113.239990</ele>
      <time>2020-08-15T18:40:08Z</time>
    </trkpt>
    <trkpt lat="41.302389" lon="-122.306837">
      <ele>1110.750000</ele>
      <time>2020-08-15T18:40:19Z</time>
    </trkpt>
    <trkpt lat="41.302300" lon="-122.306730">
      <ele>1111.609985</ele>
      <time>2020-08-15T18:40:23Z</time>
    </trkpt>
    <trkpt lat="41.302347" lon="-122.306465">
      <ele>1112.250000</ele>
      <time>2020-08-15T18:40:28Z</time>
    </trkpt>
    <trkpt lat="41.302880" lon="-122.305565">
      <ele>1112.670044</ele>
      <time>2020-08-15T18:40:39Z</time>
    </trkpt>
    <trkpt lat="41.302964" lon="-122.305242">
      <ele>1116.130005</ele>
      <time>2020-08-15T18:40:47Z</time>
    </trkpt>
    <trkpt lat="41.303146" lon="-122.304665">
      <ele>1117.430054</ele>
      <time>2020-08-15T18:40:57Z</time>
    </trkpt>
    <trkpt lat="41.303289" lon="-122.304202">
      <ele>1117.859985</ele>
      <time>2020-08-15T18:41:03Z</time>
    </trkpt>
    <trkpt lat="41.303449" lon="-122.303977">
      <ele>1119.250000</ele>
      <time>2020-08-15T18:41:08Z</time>
    </trkpt>
    <trkpt lat="41.303466" lon="-122.303596">
      <ele>1121.790039</ele>
      <time>2020-08-15T18:41:15Z</time>
    </trkpt>
    <trkpt lat="41.302544" lon="-122.302708">
      <ele>1121.640015</ele>
      <time>2020-08-15T18:41:30Z</time>
    </trkpt>
    <trkpt lat="41.302391" lon="-122.302573">
      <ele>1122.300049</ele>
      <time>2020-08-15T18:41:33Z</time>
    </trkpt>
    <trkpt lat="41.302160" lon="-122.302641">
      <ele>1124.560059</ele>
      <time>2020-08-15T18:41:38Z</time>
    </trkpt>
    <trkpt lat="41.302036" lon="-122.303140">
      <ele>1124.959961</ele>
      <time>2020-08-15T18:41:43Z</time>
    </trkpt>
    <trkpt lat="41.302042" lon="-122.304058">
      <ele>1121.520020</ele>
      <time>2020-08-15T18:41:51Z</time>
    </trkpt>
    <trkpt lat="41.302065" lon="-122.304658">
      <ele>1119.349976</ele>
      <time>2020-08-15T18:41:57Z</time>
    </trkpt>
    <trkpt lat="41.302385" lon="-122.305268">
      <ele>1116.579956</ele>
      <time>2020-08-15T18:42:04Z</time>
    </trkpt>
    <trkpt lat="41.302739" lon="-122.305470">
      <ele>1114.069946</ele>
      <time>2020-08-15T18:42:09Z</time>
    </trkpt>
    <trkpt lat="41.302856" lon="-122.305534">
      <ele>1113.969971</ele>
      <time>2020-08-15T18:42:13Z</time>
    </trkpt>
    <trkpt lat="41.302845" lon="-122.305758">
      <ele>1114.089966</ele>
      <time>2020-08-15T18:42:17Z</time>
    </trkpt>
    <trkpt lat="41.302472" lon="-122.306410">
      <ele>1112.469971</ele>
      <time>2020-08-15T18:42:29Z</time>
    </trkpt>
    <trkpt lat="41.302324" lon="-122.306637">
      <ele>1111.910034</ele>
      <time>2020-08-15T18:42:39Z</time>
    </trkpt>
    <trkpt lat="41.302275" lon="-122.306681">
      <ele>1111.760010</ele>
      <time>2020-08-15T18:42:41Z</time>
    </trkpt>
    <trkpt lat="41.302061" lon="-122.306598">
      <ele>1111.079956</ele>
      <time>2020-08-15T18:42:45Z</time>
    </trkpt>
    <trkpt lat="41.301935" lon="-122.306480">
      <ele>1110.520020</ele>
      <time>2020-08-15T18:42:47Z</time>
    </trkpt>
    <trkpt lat="41.301446" lon="-122.306270">
      <ele>1108.849976</ele>
      <time>2020-08-15T18:42:53Z</time>
    </trkpt>
    <trkpt lat="41.300038" lon="-122.306250">
      <ele>1106.459961</ele>
      <time>2020-08-15T18:43:06Z</time>
    </trkpt>
    <trkpt lat="41.299751" lon="-122.306246">
      <ele>1105.930054</ele>
      <time>2020-08-15T18:43:10Z</time>
    </trkpt>
    <trkpt lat="41.299617" lon="-122.305907">
      <ele>1108.040039</ele>
      <time>2020-08-15T18:43:15Z</time>
    </trkpt>
    <trkpt lat="41.299598" lon="-122.305053">
      <ele>1111.780029</ele>
      <time>2020-08-15T18:43:24Z</time>
    </trkpt>
    <trkpt lat="41.299578" lon="-122.304455">
      <ele>1114.959961</ele>
      <time>2020-08-15T18:43:31Z</time>
    </trkpt>
    <trkpt lat="41.299554" lon="-122.303506">
      <ele>1118.189941</ele>
      <time>2020-08-15T18:43:39Z</time>
    </trkpt>
    <trkpt lat="41.299526" lon="-122.302918">
      <ele>1121.859985</ele>
      <time>2020-08-15T18:43:44Z</time>
    </trkpt>
    <trkpt lat="41.299524" lon="-122.302809">
      <ele>1122.739990</ele>
      <time>2020-08-15T18:43:45Z</time>
    </trkpt>
    <trkpt lat="41.299497" lon="-122.302447">
      <ele>1126.619995</ele>
      <time>2020-08-15T18:43:49Z</time>
    </trkpt>
    <trkpt lat="41.299467" lon="-122.302215">
      <ele>1131.130005</ele>
      <time>2020-08-15T18:43:54Z</time>
    </trkpt>
    <trkpt lat="41.299503" lon="-122.302223">
      <ele>1134.520020</ele>
      <time>2020-08-15T18:43:59Z</time>
    </trkpt>
    <trkpt lat="41.299506" lon="-122.302530">
      <ele>1135.349976</ele>
      <time>2020-08-15T18:44:05Z</time>
    </trkpt>
    <trkpt lat="41.299575" lon="-122.303068">
      <ele>1131.969971</ele>
      <time>2020-08-15T18:44:12Z</time>
    </trkpt>
    <trkpt lat="41.299603" lon="-122.303566">
      <ele>1128.829956</ele>
      <time>2020-08-15T18:44:18Z</time>
    </trkpt>
    <trkpt lat="41.299624" lon="-122.304017">
      <ele>1125.650024</ele>
      <time>2020-08-15T18:44:23Z</time>
    </trkpt>
    <trkpt lat="41.299661" lon="-122.304431">
      <ele>1122.630005</ele>
      <time>2020-08-15T18:44:28Z</time>
    </trkpt>
    <trkpt lat="41.299665" lon="-122.304814">
      <ele>1119.569946</ele>
      <time>2020-08-15T18:44:33Z</time>
    </trkpt>
    <trkpt lat="41.299679" lon="-122.305312">
      <ele>1116.290039</ele>
      <time>2020-08-15T18:44:40Z</time>
    </trkpt>
    <trkpt lat="41.299683" lon="-122.305868">
      <ele>1113.050049</ele>
      <time>2020-08-15T18:44:48Z</time>
    </trkpt>
    <trkpt lat="41.299674" lon="-122.306089">
      <ele>1110.449951</ele>
      <time>2020-08-15T18:44:55Z</time>
    </trkpt>
    <trkpt lat="41.299650" lon="-122.306130">
      <ele>1109.800049</ele>
      <time>2020-08-15T18:44:59Z</time>
    </trkpt>
    <trkpt lat="41.299237" lon="-122.306295">
      <ele>1108.640015</ele>
      <time>2020-08-15T18:45:07Z</time>
    </trkpt>
    <trkpt lat="41.298140" lon="-122.306282">
      <ele>1106.900024</ele>
      <time>2020-08-15T18:45:18Z</time>
    </trkpt>
    <trkpt lat="41.296951" lon="-122.306316">
      <ele>1106.420044</ele>
      <time>2020-08-15T18:45:29Z</time>
    </trkpt>
    <trkpt lat="41.295676" lon="-122.306343">
      <ele>1103.569946</ele>
      <time>2020-08-15T18:45:38Z</time>
    </trkpt>
    <trkpt lat="41.295019" lon="-122.306494">
      <ele>1100.560059</ele>
      <time>2020-08-15T18:45:42Z</time>
    </trkpt>
    <trkpt lat="41.294704" lon="-122.306574">
      <ele>1099.800049</ele>
      <time>2020-08-15T18:45:44Z</time>
    </trkpt>
    <trkpt lat="41.293476" lon="-122.306895">
      <ele>1103.339966</ele>
      <time>2020-08-15T18:45:52Z</time>
    </trkpt>
    <trkpt lat="41.292221" lon="-122.307233">
      <ele>1106.670044</ele>
      <time>2020-08-15T18:46:01Z</time>
    </trkpt>
    <trkpt lat="41.291812" lon="-122.307310">
      <ele>1108.000000</ele>
      <time>2020-08-15T18:46:04Z</time>
    </trkpt>
    <trkpt lat="41.291291" lon="-122.307261">
      <ele>1109.130005</ele>
      <time>2020-08-15T18:46:08Z</time>
    </trkpt>
    <trkpt lat="41.290346" lon="-122.307043">
      <ele>1112.630005</ele>
      <time>2020-08-15T18:46:17Z</time>
    </trkpt>
    <trkpt lat="41.290187" lon="-122.306996">
      <ele>1113.160034</ele>
      <time>2020-08-15T18:46:19Z</time>
    </trkpt>
    <trkpt lat="41.289876" lon="-122.306507">
      <ele>1115.260010</ele>
      <time>2020-08-15T18:46:25Z</time>
    </trkpt>
    <trkpt lat="41.289652" lon="-122.306252">
      <ele>1115.739990</ele>
      <time>2020-08-15T18:46:28Z</time>
    </trkpt>
    <trkpt lat="41.289374" lon="-122.306007">
      <ele>1115.709961</ele>
      <time>2020-08-15T18:46:31Z</time>
    </trkpt>
    <trkpt lat="41.288074" lon="-122.304352">
      <ele>1118.670044</ele>
      <time>2020-08-15T18:46:46Z</time>
    </trkpt>
    <trkpt lat="41.287321" lon="-122.302855">
      <ele>1117.469971</ele>
      <time>2020-08-15T18:46:57Z</time>
    </trkpt>
    <trkpt lat="41.286758" lon="-122.301142">
      <ele>1114.069946</ele>
      <time>2020-08-15T18:47:07Z</time>
    </trkpt>
    <trkpt lat="41.286530" lon="-122.300162">
      <ele>1111.829956</ele>
      <time>2020-08-15T18:47:14Z</time>
    </trkpt>
    <trkpt lat="41.286695" lon="-122.299520">
      <ele>1111.890015</ele>
      <time>2020-08-15T18:47:19Z</time>
    </trkpt>
    <trkpt lat="41.286990" lon="-122.299043">
      <ele>1113.869995</ele>
      <time>2020-08-15T18:47:23Z</time>
    </trkpt>
    <trkpt lat="41.287305" lon="-122.298802">
      <ele>1116.099976</ele>
      <time>2020-08-15T18:47:27Z</time>
    </trkpt>
    <trkpt lat="41.287558" lon="-122.298521">
      <ele>1121.050049</ele>
      <time>2020-08-15T18:47:34Z</time>
    </trkpt>
    <trkpt lat="41.287494" lon="-122.298330">
      <ele>1121.489990</ele>
      <time>2020-08-15T18:47:38Z</time>
    </trkpt>
    <trkpt lat="41.287450" lon="-122.298275">
      <ele>1121.619995</ele>
      <time>2020-08-15T18:47:48Z</time>
    </trkpt>
    <trkpt lat="41.287444" lon="-122.298263">
      <ele>1122.089966</ele>
      <time>2020-08-15T18:48:12Z</time>
    </trkpt>
    <trkpt lat="41.287398" lon="-122.298217">
      <ele>1121.790039</ele>
      <time>2020-08-15T18:48:20Z</time>
    </trkpt>
    <trkpt lat="41.287463" lon="-122.297800">
      <ele>1121.420044</ele>
      <time>2020-08-15T18:48:26Z</time>
    </trkpt>
    <trkpt lat="41.287917" lon="-122.296373">
      <ele>1121.569946</ele>
      <time>2020-08-15T18:48:33Z</time>
    </trkpt>
    <trkpt lat="41.288125" lon="-122.294736">
      <ele>1124.959961</ele>
      <time>2020-08-15T18:48:39Z</time>
    </trkpt>
    <trkpt lat="41.288172" lon="-122.293550">
      <ele>1128.479980</ele>
      <time>2020-08-15T18:48:43Z</time>
    </trkpt>
    <trkpt lat="41.288212" lon="-122.292329">
      <ele>1131.660034</ele>
      <time>2020-08-15T18:48:47Z</time>
    </trkpt>
    <trkpt lat="41.288254" lon="-122.291100">
      <ele>1135.050049</ele>
      <time>2020-08-15T18:48:51Z</time>
    </trkpt>
    <trkpt lat="41.288320" lon="-122.289852">
      <ele>1138.390015</ele>
      <time>2020-08-15T18:48:55Z</time>
    </trkpt>
    <trkpt lat="41.288381" lon="-122.288323">
      <ele>1141.609985</ele>
      <time>2020-08-15T18:49:00Z</time>
    </trkpt>
    <trkpt lat="41.288424" lon="-122.287125">
      <ele>1144.719971</ele>
      <time>2020-08-15T18:49:04Z</time>
    </trkpt>
    <trkpt lat="41.288458" lon="-122.285970">
      <ele>1147.729980</ele>
      <time>2020-08-15T18:49:08Z</time>
    </trkpt>
    <trkpt lat="41.288517" lon="-122.284320">
      <ele>1151.030029</ele>
      <time>2020-08-15T18:49:14Z</time>
    </trkpt>
    <trkpt lat="41.288604" lon="-122.282143">
      <ele>1154.560059</ele>
      <time>2020-08-15T18:49:22Z</time>
    </trkpt>
    <trkpt lat="41.288665" lon="-122.280726">
      <ele>1157.729980</ele>
      <time>2020-08-15T18:49:27Z</time>
    </trkpt>
    <trkpt lat="41.288725" lon="-122.279278">
      <ele>1161.489990</ele>
      <time>2020-08-15T18:49:32Z</time>
    </trkpt>
    <trkpt lat="41.288689" lon="-122.278109">
      <ele>1164.530029</ele>
      <time>2020-08-15T18:49:36Z</time>
    </trkpt>
    <trkpt lat="41.288396" lon="-122.276721">
      <ele>1167.780029</ele>
      <time>2020-08-15T18:49:41Z</time>
    </trkpt>
    <trkpt lat="41.287810" lon="-122.275487">
      <ele>1170.890015</ele>
      <time>2020-08-15T18:49:46Z</time>
    </trkpt>
    <trkpt lat="41.287038" lon="-122.274489">
      <ele>1175.500000</ele>
      <time>2020-08-15T18:49:51Z</time>
    </trkpt>
    <trkpt lat="41.286435" lon="-122.273717">
      <ele>1178.660034</ele>
      <time>2020-08-15T18:49:55Z</time>
    </trkpt>
    <trkpt lat="41.285386" lon="-122.272357">
      <ele>1181.760010</ele>
      <time>2020-08-15T18:50:02Z</time>
    </trkpt>
    <trkpt lat="41.284183" lon="-122.270767">
      <ele>1184.869995</ele>
      <time>2020-08-15T18:50:10Z</time>
    </trkpt>
    <trkpt lat="41.282938" lon="-122.269162">
      <ele>1187.969971</ele>
      <time>2020-08-15T18:50:18Z</time>
    </trkpt>
    <trkpt lat="41.281559" lon="-122.267336">
      <ele>1191.180054</ele>
      <time>2020-08-15T18:50:27Z</time>
    </trkpt>
    <trkpt lat="41.280343" lon="-122.265748">
      <ele>1194.510010</ele>
      <time>2020-08-15T18:50:35Z</time>
    </trkpt>
    <trkpt lat="41.279548" lon="-122.264729">
      <ele>1197.599976</ele>
      <time>2020-08-15T18:50:40Z</time>
    </trkpt>
    <trkpt lat="41.279060" lon="-122.264088">
      <ele>1200.800049</ele>
      <time>2020-08-15T18:50:43Z</time>
    </trkpt>
    <trkpt lat="41.278560" lon="-122.263414">
      <ele>1203.859985</ele>
      <time>2020-08-15T18:50:46Z</time>
    </trkpt>
    <trkpt lat="41.277885" lon="-122.262518">
      <ele>1206.959961</ele>
      <time>2020-08-15T18:50:50Z</time>
    </trkpt>
    <trkpt lat="41.277095" lon="-122.261453">
      <ele>1209.959961</ele>
      <time>2020-08-15T18:50:55Z</time>
    </trkpt>
    <trkpt lat="41.276373" lon="-122.260470">
      <ele>1213.219971</ele>
      <time>2020-08-15T18:51:00Z</time>
    </trkpt>
    <trkpt lat="41.275674" lon="-122.259449">
      <ele>1216.660034</ele>
      <time>2020-08-15T18:51:05Z</time>
    </trkpt>
    <trkpt lat="41.275150" lon="-122.258553">
      <ele>1220.010010</ele>
      <time>2020-08-15T18:51:09Z</time>
    </trkpt>
    <trkpt lat="41.274569" lon="-122.257337">
      <ele>1223.880005</ele>
      <time>2020-08-15T18:51:14Z</time>
    </trkpt>
    <trkpt lat="41.274270" lon="-122.256579">
      <ele>1226.969971</ele>
      <time>2020-08-15T18:51:17Z</time>
    </trkpt>
    <trkpt lat="41.274009" lon="-122.255801">
      <ele>1230.229980</ele>
      <time>2020-08-15T18:51:20Z</time>
    </trkpt>
    <trkpt lat="41.273779" lon="-122.254953">
      <ele>1234.219971</ele>
      <time>2020-08-15T18:51:23Z</time>
    </trkpt>
    <trkpt lat="41.273561" lon="-122.254051">
      <ele>1238.449951</ele>
      <time>2020-08-15T18:51:26Z</time>
    </trkpt>
    <trkpt lat="41.273351" lon="-122.253131">
      <ele>1242.530029</ele>
      <time>2020-08-15T18:51:29Z</time>
    </trkpt>
    <trkpt lat="41.273123" lon="-122.252200">
      <ele>1246.260010</ele>
      <time>2020-08-15T18:51:32Z</time>
    </trkpt>
    <trkpt lat="41.272969" lon="-122.251585">
      <ele>1249.949951</ele>
      <time>2020-08-15T18:51:34Z</time>
    </trkpt>
    <trkpt lat="41.272753" lon="-122.250666">
      <ele>1253.739990</ele>
      <time>2020-08-15T18:51:37Z</time>
    </trkpt>
    <trkpt lat="41.272546" lon="-122.249769">
      <ele>1257.660034</ele>
      <time>2020-08-15T18:51:40Z</time>
    </trkpt>
    <trkpt lat="41.272331" lon="-122.248908">
      <ele>1261.619995</ele>
      <time>2020-08-15T18:51:43Z</time>
    </trkpt>
    <trkpt lat="41.272081" lon="-122.248068">
      <ele>1264.959961</ele>
      <time>2020-08-15T18:51:46Z</time>
    </trkpt>
    <trkpt lat="41.271695" lon="-122.246996">
      <ele>1268.880005</ele>
      <time>2020-08-15T18:51:50Z</time>
    </trkpt>
    <trkpt lat="41.271362" lon="-122.246101">
      <ele>1271.910034</ele>
      <time>2020-08-15T18:51:53Z</time>
    </trkpt>
    <trkpt lat="41.270992" lon="-122.245114">
      <ele>1275.400024</ele>
      <time>2020-08-15T18:51:56Z</time>
    </trkpt>
    <trkpt lat="41.270874" lon="-122.244779">
      <ele>1278.650024</ele>
      <time>2020-08-15T18:51:57Z</time>
    </trkpt>
    <trkpt lat="41.270638" lon="-122.244122">
      <ele>1281.969971</ele>
      <time>2020-08-15T18:51:59Z</time>
    </trkpt>
    <trkpt lat="41.270402" lon="-122.243489">
      <ele>1285.449951</ele>
      <time>2020-08-15T18:52:01Z</time>
    </trkpt>
    <trkpt lat="41.270192" lon="-122.242897">
      <ele>1288.599976</ele>
      <time>2020-08-15T18:52:03Z</time>
    </trkpt>
    <trkpt lat="41.269898" lon="-122.242088">
      <ele>1292.500000</ele>
      <time>2020-08-15T18:52:06Z</time>
    </trkpt>
    <trkpt lat="41.269637" lon="-122.241366">
      <ele>1296.209961</ele>
      <time>2020-08-15T18:52:09Z</time>
    </trkpt>
    <trkpt lat="41.269379" lon="-122.240691">
      <ele>1299.420044</ele>
      <time>2020-08-15T18:52:12Z</time>
    </trkpt>
    <trkpt lat="41.269090" lon="-122.240038">
      <ele>1302.719971</ele>
      <time>2020-08-15T18:52:15Z</time>
    </trkpt>
    <trkpt lat="41.268655" lon="-122.239191">
      <ele>1306.540039</ele>
      <time>2020-08-15T18:52:19Z</time>
    </trkpt>
    <trkpt lat="41.268302" lon="-122.238578">
      <ele>1310.349976</ele>
      <time>2020-08-15T18:52:22Z</time>
    </trkpt>
    <trkpt lat="41.267931" lon="-122.237991">
      <ele>1313.410034</ele>
      <time>2020-08-15T18:52:25Z</time>
    </trkpt>
    <trkpt lat="41.267555" lon="-122.237400">
      <ele>1316.819946</ele>
      <time>2020-08-15T18:52:28Z</time>
    </trkpt>
    <trkpt lat="41.267182" lon="-122.236816">
      <ele>1319.880005</ele>
      <time>2020-08-15T18:52:31Z</time>
    </trkpt>
    <trkpt lat="41.266691" lon="-122.236038">
      <ele>1323.489990</ele>
      <time>2020-08-15T18:52:35Z</time>
    </trkpt>
    <trkpt lat="41.266178" lon="-122.235239">
      <ele>1327.079956</ele>
      <time>2020-08-15T18:52:39Z</time>
    </trkpt>
    <trkpt lat="41.265804" lon="-122.234623">
      <ele>1330.199951</ele>
      <time>2020-08-15T18:52:42Z</time>
    </trkpt>
    <trkpt lat="41.265357" lon="-122.233758">
      <ele>1333.729980</ele>
      <time>2020-08-15T18:52:46Z</time>
    </trkpt>
    <trkpt lat="41.265034" lon="-122.232500">
      <ele>1338.660034</ele>
      <time>2020-08-15T18:52:51Z</time>
    </trkpt>
    <trkpt lat="41.264982" lon="-122.231409">
      <ele>1341.699951</ele>
      <time>2020-08-15T18:52:55Z</time>
    </trkpt>
    <trkpt lat="41.265189" lon="-122.230005">
      <ele>1345.400024</ele>
      <time>2020-08-15T18:53:00Z</time>
    </trkpt>
    <trkpt lat="41.265430" lon="-122.228904">
      <ele>1349.189941</ele>
      <time>2020-08-15T18:53:04Z</time>
    </trkpt>
    <trkpt lat="41.265792" lon="-122.227271">
      <ele>1352.290039</ele>
      <time>2020-08-15T18:53:10Z</time>
    </trkpt>
    <trkpt lat="41.266097" lon="-122.225891">
      <ele>1355.359985</ele>
      <time>2020-08-15T18:53:15Z</time>
    </trkpt>
    <trkpt lat="41.266455" lon="-122.224181">
      <ele>1358.530029</ele>
      <time>2020-08-15T18:53:21Z</time>
    </trkpt>
    <trkpt lat="41.267186" lon="-122.220912">
      <ele>1361.439941</ele>
      <time>2020-08-15T18:53:33Z</time>
    </trkpt>
    <trkpt lat="41.267688" lon="-122.218979">
      <ele>1364.760010</ele>
      <time>2020-08-15T18:53:40Z</time>
    </trkpt>
    <trkpt lat="41.268408" lon="-122.215676">
      <ele>1368.010010</ele>
      <time>2020-08-15T18:53:52Z</time>
    </trkpt>
    <trkpt lat="41.268897" lon="-122.212542">
      <ele>1371.000000</ele>
      <time>2020-08-15T18:54:04Z</time>
    </trkpt>
    <trkpt lat="41.269559" lon="-122.211135">
      <ele>1369.469971</ele>
      <time>2020-08-15T18:54:11Z</time>
    </trkpt>
    <trkpt lat="41.270232" lon="-122.210251">
      <ele>1366.140015</ele>
      <time>2020-08-15T18:54:16Z</time>
    </trkpt>
    <trkpt lat="41.270628" lon="-122.209744">
      <ele>1362.469971</ele>
      <time>2020-08-15T18:54:19Z</time>
    </trkpt>
    <trkpt lat="41.271020" lon="-122.209214">
      <ele>1358.550049</ele>
      <time>2020-08-15T18:54:22Z</time>
    </trkpt>
    <trkpt lat="41.271347" lon="-122.208581">
      <ele>1355.050049</ele>
      <time>2020-08-15T18:54:25Z</time>
    </trkpt>
    <trkpt lat="41.271512" lon="-122.208105">
      <ele>1351.280029</ele>
      <time>2020-08-15T18:54:27Z</time>
    </trkpt>
    <trkpt lat="41.271679" lon="-122.207331">
      <ele>1347.630005</ele>
      <time>2020-08-15T18:54:30Z</time>
    </trkpt>
    <trkpt lat="41.271731" lon="-122.206502">
      <ele>1343.540039</ele>
      <time>2020-08-15T18:54:33Z</time>
    </trkpt>
    <trkpt lat="41.271728" lon="-122.206217">
      <ele>1342.209961</ele>
      <time>2020-08-15T18:54:34Z</time>
    </trkpt>
    <trkpt lat="41.271633" lon="-122.204786">
      <ele>1336.930054</ele>
      <time>2020-08-15T18:54:39Z</time>
    </trkpt>
    <trkpt lat="41.271569" lon="-122.203935">
      <ele>1333.689941</ele>
      <time>2020-08-15T18:54:42Z</time>
    </trkpt>
    <trkpt lat="41.271519" lon="-122.203113">
      <ele>1329.709961</ele>
      <time>2020-08-15T18:54:45Z</time>
    </trkpt>
    <trkpt lat="41.271467" lon="-122.202599">
      <ele>1326.500000</ele>
      <time>2020-08-15T18:54:47Z</time>
    </trkpt>
    <trkpt lat="41.271299" lon="-122.201874">
      <ele>1322.689941</ele>
      <time>2020-08-15T18:54:50Z</time>
    </trkpt>
    <trkpt lat="41.271147" lon="-122.201415">
      <ele>1319.099976</ele>
      <time>2020-08-15T18:54:52Z</time>
    </trkpt>
    <trkpt lat="41.270847" lon="-122.200765">
      <ele>1315.439941</ele>
      <time>2020-08-15T18:54:55Z</time>
    </trkpt>
    <trkpt lat="41.270460" lon="-122.200141">
      <ele>1311.989990</ele>
      <time>2020-08-15T18:54:58Z</time>
    </trkpt>
    <trkpt lat="41.270041" lon="-122.199504">
      <ele>1308.780029</ele>
      <time>2020-08-15T18:55:01Z</time>
    </trkpt>
    <trkpt lat="41.269625" lon="-122.198883">
      <ele>1305.420044</ele>
      <time>2020-08-15T18:55:04Z</time>
    </trkpt>
    <trkpt lat="41.269240" lon="-122.198257">
      <ele>1301.260010</ele>
      <time>2020-08-15T18:55:07Z</time>
    </trkpt>
    <trkpt lat="41.269014" lon="-122.197796">
      <ele>1298.500000</ele>
      <time>2020-08-15T18:55:09Z</time>
    </trkpt>
    <trkpt lat="41.268792" lon="-122.197006">
      <ele>1295.400024</ele>
      <time>2020-08-15T18:55:12Z</time>
    </trkpt>
    <trkpt lat="41.268670" lon="-122.195859">
      <ele>1290.750000</ele>
      <time>2020-08-15T18:55:16Z</time>
    </trkpt>
    <trkpt lat="41.268707" lon="-122.194709">
      <ele>1287.459961</ele>
      <time>2020-08-15T18:55:20Z</time>
    </trkpt>
    <trkpt lat="41.268774" lon="-122.193296">
      <ele>1284.369995</ele>
      <time>2020-08-15T18:55:25Z</time>
    </trkpt>
    <trkpt lat="41.268834" lon="-122.192149">
      <ele>1281.160034</ele>
      <time>2020-08-15T18:55:29Z</time>
    </trkpt>
    <trkpt lat="41.268871" lon="-122.191283">
      <ele>1278.020020</ele>
      <time>2020-08-15T18:55:32Z</time>
    </trkpt>
    <trkpt lat="41.268928" lon="-122.190421">
      <ele>1274.650024</ele>
      <time>2020-08-15T18:55:35Z</time>
    </trkpt>
    <trkpt lat="41.268963" lon="-122.189564">
      <ele>1271.310059</ele>
      <time>2020-08-15T18:55:38Z</time>
    </trkpt>
    <trkpt lat="41.268996" lon="-122.188714">
      <ele>1267.510010</ele>
      <time>2020-08-15T18:55:41Z</time>
    </trkpt>
    <trkpt lat="41.269028" lon="-122.187867">
      <ele>1264.390015</ele>
      <time>2020-08-15T18:55:44Z</time>
    </trkpt>
    <trkpt lat="41.269082" lon="-122.187023">
      <ele>1260.380005</ele>
      <time>2020-08-15T18:55:47Z</time>
    </trkpt>
    <trkpt lat="41.269144" lon="-122.186186">
      <ele>1256.390015</ele>
      <time>2020-08-15T18:55:50Z</time>
    </trkpt>
    <trkpt lat="41.269267" lon="-122.185364">
      <ele>1252.719971</ele>
      <time>2020-08-15T18:55:53Z</time>
    </trkpt>
    <trkpt lat="41.269406" lon="-122.184531">
      <ele>1249.680054</ele>
      <time>2020-08-15T18:55:56Z</time>
    </trkpt>
    <trkpt lat="41.269562" lon="-122.183698">
      <ele>1246.160034</ele>
      <time>2020-08-15T18:55:59Z</time>
    </trkpt>
    <trkpt lat="41.269689" lon="-122.182865">
      <ele>1242.170044</ele>
      <time>2020-08-15T18:56:02Z</time>
    </trkpt>
    <trkpt lat="41.269720" lon="-122.182025">
      <ele>1237.800049</ele>
      <time>2020-08-15T18:56:05Z</time>
    </trkpt>
    <trkpt lat="41.269671" lon="-122.181463">
      <ele>1233.760010</ele>
      <time>2020-08-15T18:56:07Z</time>
    </trkpt>
    <trkpt lat="41.269503" lon="-122.180639">
      <ele>1229.329956</ele>
      <time>2020-08-15T18:56:10Z</time>
    </trkpt>
    <trkpt lat="41.269230" lon="-122.179864">
      <ele>1225.140015</ele>
      <time>2020-08-15T18:56:13Z</time>
    </trkpt>
    <trkpt lat="41.268860" lon="-122.179178">
      <ele>1221.030029</ele>
      <time>2020-08-15T18:56:16Z</time>
    </trkpt>
    <trkpt lat="41.268435" lon="-122.178564">
      <ele>1217.630005</ele>
      <time>2020-08-15T18:56:19Z</time>
    </trkpt>
    <trkpt lat="41.268032" lon="-122.177946">
      <ele>1214.010010</ele>
      <time>2020-08-15T18:56:22Z</time>
    </trkpt>
    <trkpt lat="41.267645" lon="-122.177304">
      <ele>1210.589966</ele>
      <time>2020-08-15T18:56:25Z</time>
    </trkpt>
    <trkpt lat="41.267281" lon="-122.176615">
      <ele>1206.930054</ele>
      <time>2020-08-15T18:56:28Z</time>
    </trkpt>
    <trkpt lat="41.266936" lon="-122.175888">
      <ele>1202.810059</ele>
      <time>2020-08-15T18:56:31Z</time>
    </trkpt>
    <trkpt lat="41.266594" lon="-122.175131">
      <ele>1198.449951</ele>
      <time>2020-08-15T18:56:34Z</time>
    </trkpt>
    <trkpt lat="41.266260" lon="-122.174363">
      <ele>1194.369995</ele>
      <time>2020-08-15T18:56:37Z</time>
    </trkpt>
    <trkpt lat="41.265940" lon="-122.173604">
      <ele>1190.489990</ele>
      <time>2020-08-15T18:56:40Z</time>
    </trkpt>
    <trkpt lat="41.265632" lon="-122.172841">
      <ele>1187.069946</ele>
      <time>2020-08-15T18:56:43Z</time>
    </trkpt>
    <trkpt lat="41.265209" lon="-122.171816">
      <ele>1184.030029</ele>
      <time>2020-08-15T18:56:47Z</time>
    </trkpt>
    <trkpt lat="41.264780" lon="-122.170784">
      <ele>1180.750000</ele>
      <time>2020-08-15T18:56:51Z</time>
    </trkpt>
    <trkpt lat="41.264403" lon="-122.169768">
      <ele>1177.099976</ele>
      <time>2020-08-15T18:56:55Z</time>
    </trkpt>
    <trkpt lat="41.264126" lon="-122.168674">
      <ele>1173.699951</ele>
      <time>2020-08-15T18:56:59Z</time>
    </trkpt>
    <trkpt lat="41.263806" lon="-122.166856">
      <ele>1170.469971</ele>
      <time>2020-08-15T18:57:05Z</time>
    </trkpt>
    <trkpt lat="41.263572" lon="-122.165406">
      <ele>1167.040039</ele>
      <time>2020-08-15T18:57:10Z</time>
    </trkpt>
    <trkpt lat="41.263435" lon="-122.164572">
      <ele>1163.660034</ele>
      <time>2020-08-15T18:57:13Z</time>
    </trkpt>
    <trkpt lat="41.263275" lon="-122.163719">
      <ele>1160.219971</ele>
      <time>2020-08-15T18:57:16Z</time>
    </trkpt>
    <trkpt lat="41.263119" lon="-122.162846">
      <ele>1157.119995</ele>
      <time>2020-08-15T18:57:19Z</time>
    </trkpt>
    <trkpt lat="41.263015" lon="-122.162263">
      <ele>1153.719971</ele>
      <time>2020-08-15T18:57:21Z</time>
    </trkpt>
    <trkpt lat="41.262864" lon="-122.161395">
      <ele>1150.280029</ele>
      <time>2020-08-15T18:57:24Z</time>
    </trkpt>
    <trkpt lat="41.262703" lon="-122.160551">
      <ele>1147.020020</ele>
      <time>2020-08-15T18:57:27Z</time>
    </trkpt>
    <trkpt lat="41.262565" lon="-122.159714">
      <ele>1143.930054</ele>
      <time>2020-08-15T18:57:30Z</time>
    </trkpt>
    <trkpt lat="41.262374" lon="-122.158565">
      <ele>1140.060059</ele>
      <time>2020-08-15T18:57:34Z</time>
    </trkpt>
    <trkpt lat="41.262189" lon="-122.157423">
      <ele>1136.229980</ele>
      <time>2020-08-15T18:57:38Z</time>
    </trkpt>
    <trkpt lat="41.262050" lon="-122.156592">
      <ele>1132.410034</ele>
      <time>2020-08-15T18:57:41Z</time>
    </trkpt>
    <trkpt lat="41.261923" lon="-122.155859">
      <ele>1127.900024</ele>
      <time>2020-08-15T18:57:44Z</time>
    </trkpt>
    <trkpt lat="41.261853" lon="-122.155389">
      <ele>1123.890015</ele>
      <time>2020-08-15T18:57:46Z</time>
    </trkpt>
    <trkpt lat="41.261730" lon="-122.154679">
      <ele>1120.140015</ele>
      <time>2020-08-15T18:57:49Z</time>
    </trkpt>
    <trkpt lat="41.261650" lon="-122.154214">
      <ele>1117.069946</ele>
      <time>2020-08-15T18:57:51Z</time>
    </trkpt>
    <trkpt lat="41.261540" lon="-122.153540">
      <ele>1113.099976</ele>
      <time>2020-08-15T18:57:54Z</time>
    </trkpt>
    <trkpt lat="41.261429" lon="-122.152926">
      <ele>1109.890015</ele>
      <time>2020-08-15T18:57:57Z</time>
    </trkpt>
    <trkpt lat="41.261341" lon="-122.152301">
      <ele>1106.479980</ele>
      <time>2020-08-15T18:58:01Z</time>
    </trkpt>
    <trkpt lat="41.261319" lon="-122.152184">
      <ele>1105.780029</ele>
      <time>2020-08-15T18:58:02Z</time>
    </trkpt>
    <trkpt lat="41.261623" lon="-122.151766">
      <ele>1102.790039</ele>
      <time>2020-08-15T18:58:08Z</time>
    </trkpt>
    <trkpt lat="41.261914" lon="-122.151153">
      <ele>1100.349976</ele>
      <time>2020-08-15T18:58:13Z</time>
    </trkpt>
    <trkpt lat="41.261876" lon="-122.151004">
      <ele>1099.900024</ele>
      <time>2020-08-15T18:58:14Z</time>
    </trkpt>
    <trkpt lat="41.261186" lon="-122.149512">
      <ele>1096.439941</ele>
      <time>2020-08-15T18:58:23Z</time>
    </trkpt>
    <trkpt lat="41.260965" lon="-122.148834">
      <ele>1093.089966</ele>
      <time>2020-08-15T18:58:27Z</time>
    </trkpt>
    <trkpt lat="41.260774" lon="-122.147801">
      <ele>1089.619995</ele>
      <time>2020-08-15T18:58:32Z</time>
    </trkpt>
    <trkpt lat="41.260645" lon="-122.147186">
      <ele>1085.790039</ele>
      <time>2020-08-15T18:58:35Z</time>
    </trkpt>
    <trkpt lat="41.260533" lon="-122.146577">
      <ele>1082.150024</ele>
      <time>2020-08-15T18:58:38Z</time>
    </trkpt>
    <trkpt lat="41.260328" lon="-122.146013">
      <ele>1078.780029</ele>
      <time>2020-08-15T18:58:41Z</time>
    </trkpt>
    <trkpt lat="41.260066" lon="-122.145513">
      <ele>1075.550049</ele>
      <time>2020-08-15T18:58:44Z</time>
    </trkpt>
    <trkpt lat="41.259739" lon="-122.145068">
      <ele>1072.479980</ele>
      <time>2020-08-15T18:58:47Z</time>
    </trkpt>
    <trkpt lat="41.259184" lon="-122.144621">
      <ele>1067.890015</ele>
      <time>2020-08-15T18:58:51Z</time>
    </trkpt>
    <trkpt lat="41.258543" lon="-122.144237">
      <ele>1064.040039</ele>
      <time>2020-08-15T18:58:55Z</time>
    </trkpt>
    <trkpt lat="41.258082" lon="-122.143975">
      <ele>1059.810059</ele>
      <time>2020-08-15T18:58:58Z</time>
    </trkpt>
    <trkpt lat="41.257695" lon="-122.143733">
      <ele>1055.280029</ele>
      <time>2020-08-15T18:59:01Z</time>
    </trkpt>
    <trkpt lat="41.257139" lon="-122.143395">
      <ele>1051.270020</ele>
      <time>2020-08-15T18:59:07Z</time>
    </trkpt>
    <trkpt lat="41.256910" lon="-122.143196">
      <ele>1048.839966</ele>
      <time>2020-08-15T18:59:12Z</time>
    </trkpt>
    <trkpt lat="41.257104" lon="-122.142553">
      <ele>1047.229980</ele>
      <time>2020-08-15T18:59:18Z</time>
    </trkpt>
    <trkpt lat="41.257124" lon="-122.142469">
      <ele>1047.050049</ele>
      <time>2020-08-15T18:59:19Z</time>
    </trkpt>
    <trkpt lat="41.257130" lon="-122.142237">
      <ele>1047.040039</ele>
      <time>2020-08-15T18:59:22Z</time>
    </trkpt>
    <trkpt lat="41.257130" lon="-122.142094">
      <ele>1047.150024</ele>
      <time>2020-08-15T18:59:24Z</time>
    </trkpt>
    <trkpt lat="41.257190" lon="-122.141778">
      <ele>1045.849976</ele>
      <time>2020-08-15T18:59:32Z</time>
    </trkpt>
    <trkpt lat="41.257286" lon="-122.141707">
      <ele>1045.410034</ele>
      <time>2020-08-15T18:59:36Z</time>
    </trkpt>
    <trkpt lat="41.257587" lon="-122.141664">
      <ele>1045.140015</ele>
      <time>2020-08-15T18:59:40Z</time>
    </trkpt>
    <trkpt lat="41.258316" lon="-122.141773">
      <ele>1046.979980</ele>
      <time>2020-08-15T18:59:49Z</time>
    </trkpt>
    <trkpt lat="41.258663" lon="-122.141874">
      <ele>1048.030029</ele>
      <time>2020-08-15T18:59:55Z</time>
    </trkpt>
    <trkpt lat="41.258868" lon="-122.141998">
      <ele>1048.479980</ele>
      <time>2020-08-15T19:00:02Z</time>
    </trkpt>
    <trkpt lat="41.258960" lon="-122.142424">
      <ele>1051.329956</ele>
      <time>2020-08-15T19:00:13Z</time>
    </trkpt>
    <trkpt lat="41.258872" lon="-122.142559">
      <ele>1052.650024</ele>
      <time>2020-08-15T19:00:17Z</time>
    </trkpt>
    <trkpt lat="41.258592" lon="-122.142548">
      <ele>1052.750000</ele>
      <time>2020-08-15T19:00:23Z</time>
    </trkpt>
    <trkpt lat="41.258594" lon="-122.142556">
      <ele>1052.680054</ele>
      <time>2020-08-15T19:00:24Z</time>
    </trkpt>
    <trkpt lat="41.258578" lon="-122.142452">
      <ele>1052.170044</ele>
      <time>2020-08-15T19:00:40Z</time>
    </trkpt>
    <trkpt lat="41.258563" lon="-122.142432">
      <ele>1052.069946</ele>
      <time>2020-08-15T19:00:54Z</time>
    </trkpt>
    <trkpt lat="41.258544" lon="-122.142439">
      <ele>1051.800049</ele>
      <time>2020-08-15T19:01:00Z</time>
    </trkpt>
    <trkpt lat="41.258503" lon="-122.142439">
      <ele>1083.959961</ele>
      <time>2020-08-15T19:01:16Z</time>
    </trkpt>
  </trkseg>
</trk>
<extensions>
<TopoFusion:graph>0</TopoFusion:graph>
</extensions>
</gpx>
